MYDAX CHILLER For Sector 8 Monochromators  S/N 120-0453             

Key: (Temperatures in Centigrade) 
A) System is ON or OFF
B) Actual Tank Temperature as sensed by the Output RTD                   
C) Set point Temperature 
D) Calculated temperature of the refrigerant line at the suction pressure transducer
E) Pressure in PSIg of the refrigerant line at the suction pressure transducer
F & G) Temperature in the refrigerant line at the Superheat and Condenser RTDs
H) Temperature in the refrigerant line at the Discharge RTD (2-stage design only)
I) Temperature in the refrigerant line at the Subcooler RTD (inactive)
J) Valve drives of evaporator 

----------- DATE ----------: A    B     C     D     E    F    G    H   I J

 last update: Thu May 25 16:40:31 PDT 2017
Thu May 25 16:39:48 PDT 2017 ON: 20.04 +20.0 19.70 - 4.4 33.7 0A 13 4732 091A Alarm State:  0
Thu May 25 16:38:46 PDT 2017 ON: 20.02 +20.0 19.69 - 4.1 34.0 03 14 471F 0924 Alarm State:  0
Thu May 25 16:37:45 PDT 2017 ON: 20.00 +20.0 19.61 - 2.5 34.5 05 14 4731 0905 Alarm State:  0
Thu May 25 16:36:43 PDT 2017 ON: 19.99 +20.0 19.67 - 4.1 33.7 07 14 4720 0A03 Alarm State:  0
Thu May 25 16:35:42 PDT 2017 ON: 20.04 +20.0 19.66 - 4.0 33.8 00 14 4809 0908 Alarm State:  0
Thu May 25 16:34:40 PDT 2017 ON: 20.00 +20.0 19.66 - 3.9 34.4 00 14 4724 0906 Alarm State:  0
Thu May 25 16:33:39 PDT 2017 ON: 20.01 +20.0 19.71 - 5.1 33.5 0D 13 4724 0920 Alarm State:  0
Thu May 25 16:32:37 PDT 2017 ON: 19.97 +20.0 19.62 - 3.0 34.8 02 14 480C 091F Alarm State:  0
Thu May 25 16:31:36 PDT 2017 ON: 20.01 +20.0 19.69 - 4.4 33.9 0D 14 4808 090E Alarm State:  0
Thu May 25 16:30:34 PDT 2017 ON: 19.99 +20.0 19.58 - 2.1 34.8 01 14 4825 0905 Alarm State:  0
Thu May 25 16:29:33 PDT 2017 ON: 20.03 +20.0 19.66 - 3.9 34.3 07 14 472E 0914 Alarm State:  0
Thu May 25 16:28:31 PDT 2017 ON: 20.03 +20.0 19.71 - 5.2 33.3 0A 13 470F 0924 Alarm State:  0
Thu May 25 16:27:30 PDT 2017 ON: 19.98 +20.0 19.61 - 3.1 34.7 00 14 4711 0915 Alarm State:  0
Thu May 25 16:26:28 PDT 2017 ON: 19.99 +20.0 19.68 - 4.3 33.9 00 14 4712 0A0D Alarm State:  0
Thu May 25 16:25:27 PDT 2017 ON: 20.00 +20.0 19.64 - 2.9 34.3 00 14 480D 091B Alarm State:  0
Thu May 25 16:24:25 PDT 2017 ON: 20.01 +20.0 19.63 - 3.0 34.5 05 14 480C 0915 Alarm State:  0
Thu May 25 16:23:24 PDT 2017 ON: 20.00 +20.0 19.65 - 3.5 34.6 05 14 4808 090C Alarm State:  0
Thu May 25 16:22:22 PDT 2017 ON: 20.04 +20.0 19.69 - 4.4 34.2 0D 14 4805 0900 Alarm State:  0
Thu May 25 16:21:20 PDT 2017 ON: 20.00 +20.0 19.68 - 3.9 34.3 02 14 4726 090D Alarm State:  0
Thu May 25 16:20:19 PDT 2017 ON: 20.01 +20.0 19.70 - 4.7 33.5 05 13 4717 0909 Alarm State:  0
Thu May 25 16:19:17 PDT 2017 ON: 20.00 +20.0 19.63 - 3.0 34.8 05 14 4713 0927 Alarm State:  0
Thu May 25 16:18:16 PDT 2017 ON: 20.01 +20.0 19.67 - 4.5 33.8 0A 14 4706 0927 Alarm State:  0
Thu May 25 16:17:14 PDT 2017 ON: 19.99 +20.0 19.60 - 2.4 34.5 00 14 4801 090B Alarm State:  0
Thu May 25 16:16:13 PDT 2017 ON: 19.98 +20.0 19.65 - 3.9 34.3 05 14 4729 0A07 Alarm State:  0
Thu May 25 16:15:12 PDT 2017 ON: 20.02 +20.0 19.70 - 4.6 33.9 0D 13 4731 0918 Alarm State:  0
Thu May 25 16:14:10 PDT 2017 ON: 19.99 +20.0 19.61 - 2.4 34.7 0A 14 4811 0917 Alarm State:  0
Thu May 25 16:13:09 PDT 2017 ON: 20.00 +20.0 19.63 - 3.0 34.7 05 14 4809 0918 Alarm State:  0
Thu May 25 16:12:07 PDT 2017 ON: 20.01 +20.0 19.66 - 4.4 33.9 00 14 4719 0920 Alarm State:  0
Thu May 25 16:11:06 PDT 2017 ON: 19.99 +20.0 19.58 - 2.2 34.6 00 14 481C 0904 Alarm State:  0
Thu May 25 16:10:04 PDT 2017 ON: 19.98 +20.0 19.64 - 3.9 34.0 00 14 480F 0929 Alarm State:  0
Thu May 25 16:09:03 PDT 2017 ON: 20.02 +20.0 19.68 - 4.2 34.0 0A 14 4822 0901 Alarm State:  0
Thu May 25 16:08:01 PDT 2017 ON: 20.01 +20.0 19.68 - 4.5 33.9 05 14 4808 0914 Alarm State:  0
Thu May 25 16:06:50 PDT 2017 ON: 20.01 +20.0 19.63 - 3.3 34.2 00 14 4815 0927 Alarm State:  0
Thu May 25 16:05:48 PDT 2017 ON: 20.02 +20.0 19.66 - 3.8 34.3 02 14 4732 0926 Alarm State:  0
Thu May 25 16:04:47 PDT 2017 ON: 20.03 +20.0 19.69 - 4.5 34.0 0A 14 4808 0910 Alarm State:  0
Thu May 25 16:03:45 PDT 2017 ON: 19.97 +20.0 19.65 - 3.4 34.7 07 14 4816 0926 Alarm State:  0
Thu May 25 16:02:44 PDT 2017 ON: 20.01 +20.0 19.67 - 3.3 34.6 05 14 480D 091E Alarm State:  0
Thu May 25 16:01:42 PDT 2017 ON: 20.01 +20.0 19.67 - 4.2 34.0 00 14 4720 0930 Alarm State:  0
Thu May 25 16:00:41 PDT 2017 ON: 20.00 +20.0 19.59 - 2.2 34.7 00 14 4820 0911 Alarm State:  0
Thu May 25 15:59:39 PDT 2017 ON: 19.99 +20.0 19.66 - 3.7 34.6 0D 14 472D 0924 Alarm State:  0
Thu May 25 15:58:38 PDT 2017 ON: 20.02 +20.0 19.70 - 4.7 33.8 0D 13 470C 0905 Alarm State:  0
Thu May 25 15:57:36 PDT 2017 ON: 20.01 +20.0 19.61 - 2.4 34.7 02 14 471E 0909 Alarm State:  0
Thu May 25 15:56:35 PDT 2017 ON: 20.01 +20.0 19.67 - 4.3 34.0 07 14 462E 0919 Alarm State:  0
Thu May 25 15:55:33 PDT 2017 ON: 19.98 +20.0 19.60 - 2.3 34.6 04 14 4719 0917 Alarm State:  0
Thu May 25 15:54:32 PDT 2017 ON: 19.99 +20.0 19.68 - 4.3 33.9 00 14 462F 0A17 Alarm State:  0
Thu May 25 15:53:30 PDT 2017 ON: 20.02 +20.0 19.60 - 2.3 34.7 00 14 4732 0923 Alarm State:  0
Thu May 25 15:52:29 PDT 2017 ON: 20.01 +20.0 19.65 - 3.9 34.0 00 14 4723 0921 Alarm State:  0
Thu May 25 15:51:27 PDT 2017 ON: 20.01 +20.0 19.68 - 4.1 33.9 0A 14 4806 0927 Alarm State:  0
Thu May 25 15:50:26 PDT 2017 ON: 19.98 +20.0 19.64 - 3.3 34.4 00 14 4817 0A01 Alarm State:  0
Thu May 25 15:49:24 PDT 2017 ON: 20.04 +20.0 19.69 - 4.4 33.9 08 14 4829 0916 Alarm State:  0
Thu May 25 15:48:23 PDT 2017 ON: 20.02 +20.0 19.64 - 3.2 34.3 00 14 4826 090A Alarm State:  0
Thu May 25 15:47:21 PDT 2017 ON: 20.03 +20.0 19.65 - 3.8 34.0 00 14 4818 0911 Alarm State:  0
Thu May 25 15:46:20 PDT 2017 ON: 19.99 +20.0 19.65 - 3.5 34.7 0C 14 472A 091D Alarm State:  0
Thu May 25 15:45:18 PDT 2017 ON: 20.03 +20.0 19.69 - 4.7 33.9 0D 14 470E 091E Alarm State:  0
Thu May 25 15:44:17 PDT 2017 ON: 20.00 +20.0 19.62 - 2.9 34.4 00 14 4727 0902 Alarm State:  0
Thu May 25 15:43:15 PDT 2017 ON: 19.99 +20.0 19.65 - 3.8 34.3 05 14 471D 0926 Alarm State:  0
Thu May 25 15:42:14 PDT 2017 ON: 20.02 +20.0 19.69 - 4.7 33.7 0D 14 4730 0902 Alarm State:  0
Thu May 25 15:41:12 PDT 2017 ON: 19.97 +20.0 19.64 - 3.3 34.7 00 14 4809 091C Alarm State:  0
Thu May 25 15:40:11 PDT 2017 ON: 20.00 +20.0 19.68 - 4.7 33.8 0A 14 4808 090C Alarm State:  0
Thu May 25 15:39:09 PDT 2017 ON: 20.00 +20.0 19.62 - 2.8 34.5 02 14 482C 0908 Alarm State:  0
Thu May 25 15:38:08 PDT 2017 ON: 20.00 +20.0 19.64 - 3.1 34.4 02 14 4831 0921 Alarm State:  0
Thu May 25 15:37:06 PDT 2017 ON: 20.04 +20.0 19.67 - 3.9 34.3 00 14 4811 0909 Alarm State:  0
Thu May 25 15:36:05 PDT 2017 ON: 20.03 +20.0 19.71 - 5.1 33.6 0A 13 471D 091D Alarm State:  0
Thu May 25 15:35:03 PDT 2017 ON: 19.97 +20.0 19.63 - 3.0 34.8 0A 14 4731 091F Alarm State:  0
Thu May 25 15:34:02 PDT 2017 ON: 19.99 +20.0 19.67 - 4.5 33.9 00 14 4720 0917 Alarm State:  0
Thu May 25 15:33:00 PDT 2017 ON: 20.01 +20.0 19.57 - 2.1 34.7 04 14 4811 0909 Alarm State:  0
Thu May 25 15:31:59 PDT 2017 ON: 20.03 +20.0 19.68 - 4.0 34.4 0C 14 4729 0915 Alarm State:  0
Thu May 25 15:30:57 PDT 2017 ON: 20.00 +20.0 19.70 - 4.7 33.9 0D 13 4709 0920 Alarm State:  0
Thu May 25 15:29:56 PDT 2017 ON: 19.97 +20.0 19.60 - 2.4 34.8 04 14 4724 091B Alarm State:  0
Thu May 25 15:28:54 PDT 2017 ON: 20.01 +20.0 19.67 - 4.0 34.5 05 14 470E 0918 Alarm State:  0
Thu May 25 15:27:53 PDT 2017 ON: 19.99 +20.0 19.67 - 4.3 34.0 0C 14 4709 0A10 Alarm State:  0
Thu May 25 15:26:51 PDT 2017 ON: 20.02 +20.0 19.62 - 2.6 34.5 02 14 4802 0928 Alarm State:  0
Thu May 25 15:25:50 PDT 2017 ON: 20.01 +20.0 19.67 - 3.6 34.6 0C 14 4716 0905 Alarm State:  0
Thu May 25 15:24:48 PDT 2017 ON: 20.00 +20.0 19.68 - 4.4 33.9 00 14 4708 0A08 Alarm State:  0
Thu May 25 15:23:47 PDT 2017 ON: 20.02 +20.0 19.61 - 2.8 34.5 02 14 4804 0923 Alarm State:  0
Thu May 25 15:22:45 PDT 2017 ON: 19.97 +20.0 19.64 - 3.5 34.4 00 14 4731 0924 Alarm State:  0
Thu May 25 15:21:44 PDT 2017 ON: 20.01 +20.0 19.70 - 4.6 34.0 0D 13 4732 090C Alarm State:  0
Thu May 25 15:20:42 PDT 2017 ON: 20.00 +20.0 19.63 - 2.7 34.6 0A 14 472A 0A05 Alarm State:  0
Thu May 25 15:19:41 PDT 2017 ON: 19.99 +20.0 19.68 - 4.3 34.0 00 14 471B 0B03 Alarm State:  0
Thu May 25 15:18:39 PDT 2017 ON: 19.96 +20.0 19.59 - 2.4 34.9 01 14 4826 092F Alarm State:  0
Thu May 25 15:17:28 PDT 2017 ON: 19.99 +20.0 19.66 - 4.1 33.8 00 14 4825 091D Alarm State:  0
Thu May 25 15:16:26 PDT 2017 ON: 20.02 +20.0 19.62 - 3.1 34.3 00 14 490B 0918 Alarm State:  0
Thu May 25 15:15:25 PDT 2017 ON: 20.03 +20.0 19.66 - 4.0 34.1 02 14 4814 0925 Alarm State:  0
Thu May 25 15:14:23 PDT 2017 ON: 19.99 +20.0 19.59 - 2.3 34.7 00 14 482E 0906 Alarm State:  0
Thu May 25 15:13:22 PDT 2017 ON: 20.01 +20.0 19.68 - 4.3 33.8 08 14 4803 0914 Alarm State:  0
Thu May 25 15:12:20 PDT 2017 ON: 20.06 +20.0 19.72 - 5.1 33.5 05 12 470E 0925 Alarm State:  0
Thu May 25 15:11:19 PDT 2017 ON: 20.02 +20.0 19.65 - 3.9 34.3 07 14 4705 0A1B Alarm State:  0
Thu May 25 15:10:17 PDT 2017 ON: 20.00 +20.0 19.72 - 5.4 33.3 0A 13 4711 0A23 Alarm State:  0
Thu May 25 15:09:16 PDT 2017 ON: 19.96 +20.0 19.62 - 3.2 34.3 05 14 480D 092E Alarm State:  0
Thu May 25 15:08:14 PDT 2017 ON: 20.02 +20.0 19.69 - 4.0 34.1 08 14 4828 091B Alarm State:  0
Thu May 25 15:07:13 PDT 2017 ON: 20.02 +20.0 19.68 - 4.1 34.2 0D 14 480C 0901 Alarm State:  0
Thu May 25 15:06:11 PDT 2017 ON: 20.01 +20.0 19.70 - 4.5 34.0 0A 13 4804 0925 Alarm State:  0
Thu May 25 15:05:10 PDT 2017 ON: 20.00 +20.0 19.64 - 3.6 34.0 00 14 4803 0917 Alarm State:  0
Thu May 25 15:04:08 PDT 2017 ON: 19.98 +20.0 19.64 - 3.8 34.0 07 14 4730 0A08 Alarm State:  0
Thu May 25 15:03:07 PDT 2017 ON: 20.02 +20.0 19.67 - 3.7 34.0 0A 14 482A 0902 Alarm State:  0
Thu May 25 15:02:05 PDT 2017 ON: 20.02 +20.0 19.64 - 3.3 34.2 00 14 481C 0905 Alarm State:  0
Thu May 25 15:01:04 PDT 2017 ON: 19.99 +20.0 19.65 - 3.7 34.7 02 14 4724 0913 Alarm State:  0
Thu May 25 15:00:02 PDT 2017 ON: 20.01 +20.0 19.68 - 4.5 33.9 07 14 4706 0918 Alarm State:  0
Thu May 25 14:59:01 PDT 2017 ON: 20.00 +20.0 19.60 - 2.3 34.7 04 14 4717 091B Alarm State:  0
Thu May 25 14:57:59 PDT 2017 ON: 20.00 +20.0 19.67 - 4.3 33.9 07 14 462E 092A Alarm State:  0
Thu May 25 14:56:58 PDT 2017 ON: 20.01 +20.0 19.70 - 4.3 34.1 0D 13 470C 0910 Alarm State:  0
Thu May 25 14:55:56 PDT 2017 ON: 19.99 +20.0 19.61 - 2.5 34.8 05 14 471F 0919 Alarm State:  0
Thu May 25 14:54:55 PDT 2017 ON: 19.99 +20.0 19.68 - 4.7 33.7 00 14 4632 0A1C Alarm State:  0
Thu May 25 14:53:53 PDT 2017 ON: 19.96 +20.0 19.61 - 2.4 34.8 05 14 4801 092B Alarm State:  0
Thu May 25 14:52:52 PDT 2017 ON: 19.99 +20.0 19.64 - 4.1 34.1 0D 14 4730 0922 Alarm State:  0
Thu May 25 14:51:50 PDT 2017 ON: 20.01 +20.0 19.62 - 2.8 34.5 05 14 482C 0907 Alarm State:  0
Thu May 25 14:50:49 PDT 2017 ON: 20.01 +20.0 19.62 - 3.0 34.4 00 14 4816 0918 Alarm State:  0
Thu May 25 14:49:48 PDT 2017 ON: 20.00 +20.0 19.67 - 3.6 34.6 00 14 472A 0920 Alarm State:  0
Thu May 25 14:48:46 PDT 2017 ON: 20.00 +20.0 19.69 - 4.6 33.9 0D 14 4724 0915 Alarm State:  0
Thu May 25 14:47:45 PDT 2017 ON: 20.00 +20.0 19.62 - 3.1 34.3 00 14 4816 0912 Alarm State:  0
Thu May 25 14:46:43 PDT 2017 ON: 20.00 +20.0 19.64 - 3.6 34.4 00 14 4826 0924 Alarm State:  0
Thu May 25 14:45:42 PDT 2017 ON: 20.04 +20.0 19.70 - 4.4 34.0 0A 13 4831 0900 Alarm State:  0
Thu May 25 14:44:40 PDT 2017 ON: 20.00 +20.0 19.63 - 2.8 34.5 02 14 4831 091C Alarm State:  0
Thu May 25 14:43:39 PDT 2017 ON: 19.99 +20.0 19.63 - 3.1 34.7 02 14 4810 0924 Alarm State:  0
Thu May 25 14:42:37 PDT 2017 ON: 20.02 +20.0 19.68 - 4.3 34.1 0C 14 4721 0929 Alarm State:  0
Thu May 25 14:41:36 PDT 2017 ON: 20.01 +20.0 19.60 - 2.3 34.8 07 14 4815 091C Alarm State:  0
Thu May 25 14:40:34 PDT 2017 ON: 20.00 +20.0 19.67 - 4.3 33.9 00 14 4728 091F Alarm State:  0
Thu May 25 14:39:33 PDT 2017 ON: 20.02 +20.0 19.67 - 3.6 34.1 00 14 4804 0905 Alarm State:  0
Thu May 25 14:38:31 PDT 2017 ON: 20.02 +20.0 19.67 - 3.6 34.5 0A 14 4721 0902 Alarm State:  0
Thu May 25 14:37:30 PDT 2017 ON: 20.04 +20.0 19.70 - 4.8 33.9 0A 13 4714 0925 Alarm State:  0
Thu May 25 14:36:28 PDT 2017 ON: 19.98 +20.0 19.61 - 2.6 34.6 02 14 471A 0918 Alarm State:  0
Thu May 25 14:35:27 PDT 2017 ON: 19.99 +20.0 19.67 - 4.3 33.9 00 14 4709 0A1C Alarm State:  0
Thu May 25 14:34:25 PDT 2017 ON: 20.01 +20.0 19.60 - 2.2 34.7 07 14 480E 0924 Alarm State:  0
Thu May 25 14:33:24 PDT 2017 ON: 20.02 +20.0 19.68 - 4.3 33.9 07 14 4728 092A Alarm State:  0
Thu May 25 14:32:22 PDT 2017 ON: 19.99 +20.0 19.61 - 2.5 34.5 00 14 4819 0920 Alarm State:  0
Thu May 25 14:31:21 PDT 2017 ON: 19.98 +20.0 19.66 - 3.9 34.3 05 14 472D 0922 Alarm State:  0
Thu May 25 14:30:19 PDT 2017 ON: 20.03 +20.0 19.68 - 4.1 33.7 0D 14 4812 0907 Alarm State:  0
Thu May 25 14:29:18 PDT 2017 ON: 20.05 +20.0 19.67 - 3.8 34.1 00 14 4819 0924 Alarm State:  0
Thu May 25 14:28:16 PDT 2017 ON: 20.02 +20.0 19.69 - 4.5 33.9 08 14 4720 0908 Alarm State:  0
Thu May 25 14:27:15 PDT 2017 ON: 20.01 +20.0 19.69 - 4.5 33.6 0D 14 470D 0910 Alarm State:  0
Thu May 25 14:26:13 PDT 2017 ON: 20.03 +20.0 19.64 - 3.0 34.3 00 14 472B 090E Alarm State:  0
Thu May 25 14:25:12 PDT 2017 ON: 20.00 +20.0 19.64 - 3.9 34.0 07 14 4724 0A02 Alarm State:  0
Thu May 25 14:24:10 PDT 2017 ON: 20.02 +20.0 19.68 - 3.8 33.9 03 14 4817 090C Alarm State:  0
Thu May 25 14:23:09 PDT 2017 ON: 19.98 +20.0 19.64 - 3.5 34.5 00 14 4818 092C Alarm State:  0
Thu May 25 14:22:07 PDT 2017 ON: 20.00 +20.0 19.68 - 4.4 34.0 0D 14 4816 0917 Alarm State:  0
Thu May 25 14:21:06 PDT 2017 ON: 20.01 +20.0 19.64 - 3.1 34.3 00 14 4817 090D Alarm State:  0
Thu May 25 14:20:04 PDT 2017 ON: 20.00 +20.0 19.68 - 4.1 33.8 07 14 4728 0914 Alarm State:  0
Thu May 25 14:19:03 PDT 2017 ON: 20.02 +20.0 19.68 - 3.9 34.0 0D 14 4814 0911 Alarm State:  0
Thu May 25 14:18:01 PDT 2017 ON: 19.99 +20.0 19.66 - 3.7 34.5 0C 14 4806 0910 Alarm State:  0
Thu May 25 14:17:00 PDT 2017 ON: 20.00 +20.0 19.68 - 4.5 33.7 05 14 4805 0923 Alarm State:  0
Thu May 25 14:15:58 PDT 2017 ON: 20.01 +20.0 19.63 - 3.1 34.3 00 14 4825 091F Alarm State:  0
Thu May 25 14:14:57 PDT 2017 ON: 20.00 +20.0 19.68 - 4.4 33.8 00 14 472B 090A Alarm State:  0
Thu May 25 14:13:55 PDT 2017 ON: 19.99 +20.0 19.62 - 2.6 34.5 00 14 480E 0914 Alarm State:  0
Thu May 25 14:12:54 PDT 2017 ON: 19.98 +20.0 19.65 - 4.0 34.0 00 14 472E 0918 Alarm State:  0
Thu May 25 14:11:52 PDT 2017 ON: 20.02 +20.0 19.70 - 4.6 33.8 0D 13 4805 0926 Alarm State:  0
Thu May 25 14:10:51 PDT 2017 ON: 20.01 +20.0 19.67 - 4.0 33.9 00 14 4804 0922 Alarm State:  0
Thu May 25 14:09:49 PDT 2017 ON: 20.02 +20.0 19.65 - 3.5 34.1 00 14 4814 090F Alarm State:  0
Thu May 25 14:08:48 PDT 2017 ON: 20.00 +20.0 19.66 - 3.9 34.0 02 14 4805 0915 Alarm State:  0
Thu May 25 14:07:46 PDT 2017 ON: 20.03 +20.0 19.68 - 4.2 34.0 0A 14 4816 091A Alarm State:  0
Thu May 25 14:06:45 PDT 2017 ON: 20.01 +20.0 19.69 - 4.4 34.0 0D 14 471F 0900 Alarm State:  0
Thu May 25 14:05:43 PDT 2017 ON: 20.03 +20.0 19.69 - 4.8 33.3 00 14 462D 090E Alarm State:  0
Thu May 25 14:04:42 PDT 2017 ON: 19.98 +20.0 19.65 - 3.9 33.9 0D 14 4629 092D Alarm State:  0
Thu May 25 14:03:40 PDT 2017 ON: 20.03 +20.0 19.64 - 3.3 34.1 00 14 4727 0916 Alarm State:  0
Thu May 25 14:02:39 PDT 2017 ON: 20.01 +20.0 19.63 - 3.5 34.2 02 14 4713 091B Alarm State:  0
Thu May 25 14:01:37 PDT 2017 ON: 20.00 +20.0 19.64 - 3.7 34.2 07 14 471E 0A01 Alarm State:  0
Thu May 25 14:00:36 PDT 2017 ON: 20.00 +20.0 19.68 - 4.3 33.8 05 14 480B 0923 Alarm State:  0
Thu May 25 13:59:34 PDT 2017 ON: 20.02 +20.0 19.69 - 4.1 33.9 08 14 480E 0913 Alarm State:  0
Thu May 25 13:58:33 PDT 2017 ON: 20.00 +20.0 19.63 - 3.2 34.2 00 14 4818 0906 Alarm State:  0
Thu May 25 13:57:31 PDT 2017 ON: 19.98 +20.0 19.64 - 3.5 34.7 02 14 472E 090E Alarm State:  0
Thu May 25 13:56:30 PDT 2017 ON: 20.02 +20.0 19.69 - 4.5 33.8 0D 14 4722 0909 Alarm State:  0
Thu May 25 13:55:28 PDT 2017 ON: 20.02 +20.0 19.68 - 4.1 33.8 05 14 472D 0916 Alarm State:  0
Thu May 25 13:54:27 PDT 2017 ON: 20.01 +20.0 19.63 - 3.3 34.6 07 14 4804 0924 Alarm State:  0
Thu May 25 13:53:25 PDT 2017 ON: 20.03 +20.0 19.69 - 3.9 34.5 0D 14 480D 0908 Alarm State:  0
Thu May 25 13:52:24 PDT 2017 ON: 20.00 +20.0 19.68 - 4.4 34.0 00 14 471A 0919 Alarm State:  0
Thu May 25 13:51:23 PDT 2017 ON: 20.01 +20.0 19.65 - 4.1 33.9 00 14 4713 0919 Alarm State:  0
Thu May 25 13:50:21 PDT 2017 ON: 19.96 +20.0 19.62 - 3.6 34.2 05 14 472B 092A Alarm State:  0
Thu May 25 13:49:20 PDT 2017 ON: 20.02 +20.0 19.71 - 4.3 34.2 0A 13 480B 0927 Alarm State:  0
Thu May 25 13:48:18 PDT 2017 ON: 20.00 +20.0 19.62 - 2.8 34.7 0C 14 4732 0903 Alarm State:  0
Thu May 25 13:47:17 PDT 2017 ON: 20.00 +20.0 19.68 - 4.1 34.2 05 14 471B 092E Alarm State:  0
Thu May 25 13:46:15 PDT 2017 ON: 20.03 +20.0 19.67 - 3.9 33.8 00 14 4804 0909 Alarm State:  0
Thu May 25 13:45:14 PDT 2017 ON: 20.04 +20.0 19.65 - 3.8 34.1 05 14 4805 0922 Alarm State:  0
Thu May 25 13:44:12 PDT 2017 ON: 20.00 +20.0 19.63 - 3.3 34.3 00 14 4720 0904 Alarm State:  0
Thu May 25 13:43:11 PDT 2017 ON: 20.00 +20.0 19.63 - 3.4 34.7 07 14 4717 0925 Alarm State:  0
Thu May 25 13:42:09 PDT 2017 ON: 20.00 +20.0 19.67 - 4.5 33.9 05 14 470D 0920 Alarm State:  0
Thu May 25 13:41:08 PDT 2017 ON: 20.03 +20.0 19.60 - 2.3 34.6 00 14 4805 0913 Alarm State:  0
Thu May 25 13:40:06 PDT 2017 ON: 19.99 +20.0 19.65 - 3.8 34.6 05 14 4714 0922 Alarm State:  0
Thu May 25 13:39:05 PDT 2017 ON: 20.05 +20.0 19.72 - 4.8 33.7 0A 12 462C 0926 Alarm State:  0
Thu May 25 13:38:03 PDT 2017 ON: 19.98 +20.0 19.60 - 2.7 34.7 00 14 470B 0905 Alarm State:  0
Thu May 25 13:37:02 PDT 2017 ON: 19.99 +20.0 19.65 - 4.2 33.8 00 14 4706 091E Alarm State:  0
Thu May 25 13:36:00 PDT 2017 ON: 20.00 +20.0 19.68 - 4.3 33.8 00 14 4724 091A Alarm State:  0
Thu May 25 13:34:59 PDT 2017 ON: 19.99 +20.0 19.62 - 3.4 34.6 00 14 472D 0930 Alarm State:  0
Thu May 25 13:33:57 PDT 2017 ON: 20.01 +20.0 19.69 - 4.7 33.9 0A 14 4729 091B Alarm State:  0
Thu May 25 13:32:56 PDT 2017 ON: 20.04 +20.0 19.71 - 4.9 33.7 0A 13 4710 0923 Alarm State:  0
Thu May 25 13:31:54 PDT 2017 ON: 19.97 +20.0 19.62 - 3.0 34.9 0A 14 4732 0925 Alarm State:  0
Thu May 25 13:30:53 PDT 2017 ON: 20.02 +20.0 19.69 - 4.5 33.8 0D 14 4727 0915 Alarm State:  0
Thu May 25 13:29:51 PDT 2017 ON: 20.01 +20.0 19.63 - 3.1 34.4 00 14 472B 0900 Alarm State:  0
Thu May 25 13:28:50 PDT 2017 ON: 20.01 +20.0 19.62 - 2.9 34.6 00 14 4708 090C Alarm State:  0
Thu May 25 13:27:48 PDT 2017 ON: 20.00 +20.0 19.68 - 4.8 33.6 00 14 460B 0A1B Alarm State:  0
Thu May 25 13:26:47 PDT 2017 ON: 19.99 +20.0 19.61 - 2.7 34.9 02 14 470B 0A04 Alarm State:  0
Thu May 25 13:25:45 PDT 2017 ON: 20.01 +20.0 19.71 - 5.1 33.4 0D 13 4704 0A24 Alarm State:  0
Thu May 25 13:24:44 PDT 2017 ON: 19.98 +20.0 19.59 - 2.7 34.9 04 14 4732 0A02 Alarm State:  0
Thu May 25 13:23:42 PDT 2017 ON: 20.02 +20.0 19.65 - 3.7 34.7 0A 14 4808 0920 Alarm State:  0
Thu May 25 13:22:41 PDT 2017 ON: 20.03 +20.0 19.67 - 3.5 34.7 0A 14 472D 0921 Alarm State:  0
Thu May 25 13:21:39 PDT 2017 ON: 20.02 +20.0 19.68 - 4.4 34.0 00 14 4704 090C Alarm State:  0
Thu May 25 13:20:38 PDT 2017 ON: 20.02 +20.0 19.62 - 2.5 34.5 00 14 471E 0912 Alarm State:  0
Thu May 25 13:19:36 PDT 2017 ON: 19.98 +20.0 19.66 - 4.4 33.9 0C 14 4707 0A10 Alarm State:  0
Thu May 25 13:18:35 PDT 2017 ON: 20.00 +20.0 19.58 - 1.9 34.8 04 14 4812 090C Alarm State:  0
Thu May 25 13:17:33 PDT 2017 ON: 19.99 +20.0 19.67 - 4.1 34.0 00 14 4730 090C Alarm State:  0
Thu May 25 13:16:32 PDT 2017 ON: 20.03 +20.0 19.67 - 3.4 34.3 00 14 480D 0918 Alarm State:  0
Thu May 25 13:15:30 PDT 2017 ON: 19.97 +20.0 19.63 - 3.3 34.8 07 14 472B 091A Alarm State:  0
Thu May 25 13:14:29 PDT 2017 ON: 20.02 +20.0 19.68 - 4.5 33.8 07 14 470F 091D Alarm State:  0
Thu May 25 13:13:27 PDT 2017 ON: 19.99 +20.0 19.61 - 2.4 34.6 00 14 4728 0928 Alarm State:  0
Thu May 25 13:12:26 PDT 2017 ON: 20.00 +20.0 19.68 - 3.9 34.5 02 14 470A 0A08 Alarm State:  0
Thu May 25 13:11:24 PDT 2017 ON: 19.98 +20.0 19.68 - 4.6 33.6 00 14 4703 0A2B Alarm State:  0
Thu May 25 13:10:23 PDT 2017 ON: 19.95 +20.0 19.59 - 2.6 34.9 01 14 480C 092D Alarm State:  0
Thu May 25 13:09:21 PDT 2017 ON: 20.02 +20.0 19.67 - 4.5 33.8 02 14 4801 091B Alarm State:  0
Thu May 25 13:08:20 PDT 2017 ON: 20.01 +20.0 19.61 - 2.5 34.5 00 14 4817 0900 Alarm State:  0
Thu May 25 13:07:19 PDT 2017 ON: 20.02 +20.0 19.67 - 4.1 34.0 00 14 4729 090A Alarm State:  0
Thu May 25 13:06:17 PDT 2017 ON: 20.02 +20.0 19.69 - 4.3 34.0 0A 14 4808 091C Alarm State:  0
Thu May 25 13:05:16 PDT 2017 ON: 20.01 +20.0 19.62 - 2.9 34.5 00 14 481D 0904 Alarm State:  0
Thu May 25 13:04:14 PDT 2017 ON: 20.01 +20.0 19.63 - 3.0 34.6 05 14 480F 090B Alarm State:  0
Thu May 25 13:03:13 PDT 2017 ON: 20.00 +20.0 19.69 - 3.9 34.5 0A 14 4725 0917 Alarm State:  0
Thu May 25 13:02:11 PDT 2017 ON: 20.01 +20.0 19.68 - 4.4 34.0 07 14 4713 091A Alarm State:  0
Thu May 25 13:01:10 PDT 2017 ON: 20.01 +20.0 19.66 - 3.4 34.3 02 14 4722 091B Alarm State:  0
Thu May 25 13:00:08 PDT 2017 ON: 19.98 +20.0 19.62 - 3.2 34.7 07 14 471A 090C Alarm State:  0
Thu May 25 12:59:07 PDT 2017 ON: 20.00 +20.0 19.68 - 4.4 34.0 07 14 470D 092B Alarm State:  0
Thu May 25 12:58:05 PDT 2017 ON: 19.98 +20.0 19.59 - 2.2 34.7 04 14 4802 0915 Alarm State:  0
Thu May 25 12:57:04 PDT 2017 ON: 19.99 +20.0 19.64 - 3.4 34.6 05 14 4720 0915 Alarm State:  0
Thu May 25 12:56:02 PDT 2017 ON: 19.99 +20.0 19.68 - 4.4 33.9 05 14 4706 0922 Alarm State:  0
Thu May 25 12:55:01 PDT 2017 ON: 20.00 +20.0 19.64 - 3.0 34.3 00 14 4800 0911 Alarm State:  0
Thu May 25 12:53:59 PDT 2017 ON: 19.97 +20.0 19.64 - 3.9 34.0 00 14 4729 0A04 Alarm State:  0
Thu May 25 12:52:58 PDT 2017 ON: 20.00 +20.0 19.63 - 2.7 34.5 00 14 482B 091A Alarm State:  0
Thu May 25 12:51:56 PDT 2017 ON: 20.00 +20.0 19.67 - 3.7 34.4 00 14 480D 0927 Alarm State:  0
Thu May 25 12:50:55 PDT 2017 ON: 20.02 +20.0 19.69 - 4.4 34.0 0D 14 4725 0902 Alarm State:  0
Thu May 25 12:49:53 PDT 2017 ON: 20.01 +20.0 19.70 - 4.3 34.1 0A 13 470B 090D Alarm State:  0
Thu May 25 12:48:52 PDT 2017 ON: 20.02 +20.0 19.68 - 4.1 33.8 00 14 4627 0A17 Alarm State:  0
Thu May 25 12:47:50 PDT 2017 ON: 19.96 +20.0 19.65 - 3.9 34.1 05 14 462D 0A2E Alarm State:  0
Thu May 25 12:46:49 PDT 2017 ON: 19.98 +20.0 19.59 - 1.9 34.7 00 14 4802 0927 Alarm State:  0
Thu May 25 12:45:47 PDT 2017 ON: 19.99 +20.0 19.66 - 3.9 34.1 00 14 4718 0A06 Alarm State:  0
Thu May 25 12:44:46 PDT 2017 ON: 20.01 +20.0 19.64 - 3.1 34.2 00 14 4805 0905 Alarm State:  0
Thu May 25 12:43:44 PDT 2017 ON: 19.98 +20.0 19.64 - 3.6 34.3 00 14 4727 092F Alarm State:  0
Thu May 25 12:42:43 PDT 2017 ON: 20.03 +20.0 19.64 - 3.3 34.1 00 14 481C 0923 Alarm State:  0
Thu May 25 12:41:41 PDT 2017 ON: 19.99 +20.0 19.63 - 3.7 34.1 0C 14 4803 0921 Alarm State:  0
Thu May 25 12:40:40 PDT 2017 ON: 20.04 +20.0 19.66 - 3.9 33.9 00 14 4817 0923 Alarm State:  0
Thu May 25 12:39:38 PDT 2017 ON: 20.03 +20.0 19.64 - 3.6 34.1 00 14 4731 0906 Alarm State:  0
Thu May 25 12:38:37 PDT 2017 ON: 19.98 +20.0 19.65 - 3.6 34.3 00 14 4729 092F Alarm State:  0
Thu May 25 12:37:35 PDT 2017 ON: 20.01 +20.0 19.69 - 4.2 34.1 0A 14 4807 0916 Alarm State:  0
Thu May 25 12:36:34 PDT 2017 ON: 20.01 +20.0 19.65 - 3.6 34.1 02 14 4803 090F Alarm State:  0
Thu May 25 12:35:32 PDT 2017 ON: 19.99 +20.0 19.64 - 3.6 34.3 05 14 472B 0A03 Alarm State:  0
Thu May 25 12:34:31 PDT 2017 ON: 20.02 +20.0 19.65 - 3.1 34.3 00 14 4820 0907 Alarm State:  0
Thu May 25 12:33:29 PDT 2017 ON: 20.00 +20.0 19.64 - 3.4 34.6 07 14 4730 090D Alarm State:  0
Thu May 25 12:32:28 PDT 2017 ON: 19.98 +20.0 19.64 - 3.4 34.8 02 14 4805 0906 Alarm State:  0
Thu May 25 12:31:26 PDT 2017 ON: 20.02 +20.0 19.69 - 4.3 34.1 0A 14 4721 0908 Alarm State:  0
Thu May 25 12:30:25 PDT 2017 ON: 20.01 +20.0 19.70 - 4.6 33.8 0A 13 4711 090F Alarm State:  0
Thu May 25 12:29:23 PDT 2017 ON: 20.02 +20.0 19.62 - 2.5 34.8 05 14 4728 0914 Alarm State:  0
Thu May 25 12:28:22 PDT 2017 ON: 20.01 +20.0 19.70 - 5.0 33.6 0D 14 4700 0A1D Alarm State:  0
Thu May 25 12:27:20 PDT 2017 ON: 19.98 +20.0 19.58 - 2.1 34.9 07 14 4806 091E Alarm State:  0
Thu May 25 12:26:19 PDT 2017 ON: 20.00 +20.0 19.65 - 3.7 34.1 02 14 4822 091C Alarm State:  0
Thu May 25 12:25:17 PDT 2017 ON: 20.01 +20.0 19.62 - 2.9 34.3 00 14 4918 090B Alarm State:  0
Thu May 25 12:24:16 PDT 2017 ON: 20.03 +20.0 19.67 - 3.9 34.1 05 14 4827 091C Alarm State:  0
Thu May 25 12:23:14 PDT 2017 ON: 20.01 +20.0 19.62 - 2.5 34.6 00 14 4903 0902 Alarm State:  0
Thu May 25 12:22:13 PDT 2017 ON: 20.02 +20.0 19.67 - 4.0 34.0 00 14 480A 0915 Alarm State:  0
Thu May 25 12:21:11 PDT 2017 ON: 20.00 +20.0 19.60 - 2.4 34.6 00 14 472C 0913 Alarm State:  0
Thu May 25 12:20:10 PDT 2017 ON: 20.03 +20.0 19.68 - 4.1 34.0 02 14 4706 0922 Alarm State:  0
Thu May 25 12:19:08 PDT 2017 ON: 20.04 +20.0 19.70 - 4.5 33.5 08 13 470B 090A Alarm State:  0
Thu May 25 12:18:07 PDT 2017 ON: 20.00 +20.0 19.64 - 3.7 34.1 00 14 4707 0928 Alarm State:  0
Thu May 25 12:17:05 PDT 2017 ON: 20.03 +20.0 19.70 - 4.3 33.7 08 13 4718 0927 Alarm State:  0
Thu May 25 12:16:04 PDT 2017 ON: 19.99 +20.0 19.64 - 3.5 34.2 07 14 471C 0A12 Alarm State:  0
Thu May 25 12:14:53 PDT 2017 ON: 20.03 +20.0 19.70 - 4.6 33.8 0D 13 472F 0918 Alarm State:  0
Thu May 25 12:13:51 PDT 2017 ON: 20.03 +20.0 19.68 - 4.3 34.0 02 14 4715 0923 Alarm State:  0
Thu May 25 12:12:50 PDT 2017 ON: 20.01 +20.0 19.61 - 2.6 34.6 07 14 4728 0909 Alarm State:  0
Thu May 25 12:11:48 PDT 2017 ON: 20.00 +20.0 19.66 - 4.0 34.0 02 14 4716 0910 Alarm State:  0
Thu May 25 12:10:47 PDT 2017 ON: 20.05 +20.0 19.68 - 3.9 33.8 05 14 4729 090D Alarm State:  0
Thu May 25 12:09:45 PDT 2017 ON: 20.00 +20.0 19.64 - 3.6 34.4 05 14 4725 0929 Alarm State:  0
Thu May 25 12:08:44 PDT 2017 ON: 20.04 +20.0 19.71 - 4.6 33.8 0D 13 472C 0911 Alarm State:  0
Thu May 25 12:07:42 PDT 2017 ON: 20.03 +20.0 19.62 - 2.9 34.5 02 14 471C 0914 Alarm State:  0
Thu May 25 12:06:41 PDT 2017 ON: 20.01 +20.0 19.63 - 3.4 34.2 00 14 4632 0916 Alarm State:  0
Thu May 25 12:05:39 PDT 2017 ON: 19.97 +20.0 19.63 - 3.6 34.0 0A 14 4711 092F Alarm State:  0
Thu May 25 12:04:38 PDT 2017 ON: 20.00 +20.0 19.61 - 2.4 34.5 00 14 4813 0906 Alarm State:  0
Thu May 25 12:03:36 PDT 2017 ON: 19.99 +20.0 19.67 - 3.8 34.4 00 14 4718 0917 Alarm State:  0
Thu May 25 12:02:35 PDT 2017 ON: 20.03 +20.0 19.72 - 5.1 33.5 08 12 4701 0919 Alarm State:  0
Thu May 25 12:01:33 PDT 2017 ON: 19.97 +20.0 19.59 - 2.6 34.7 00 14 4717 092C Alarm State:  0
Thu May 25 12:00:32 PDT 2017 ON: 20.00 +20.0 19.66 - 4.4 33.9 05 14 4708 0A26 Alarm State:  0
Thu May 25 11:59:30 PDT 2017 ON: 19.98 +20.0 19.60 - 1.9 34.9 00 14 4813 0924 Alarm State:  0
Thu May 25 11:58:28 PDT 2017 ON: 20.02 +20.0 19.64 - 3.3 34.5 05 14 4800 0905 Alarm State:  0
Thu May 25 11:57:27 PDT 2017 ON: 19.99 +20.0 19.65 - 3.5 34.6 00 14 471F 0908 Alarm State:  0
Thu May 25 11:56:26 PDT 2017 ON: 20.02 +20.0 19.70 - 4.4 33.9 0A 13 471E 0923 Alarm State:  0
Thu May 25 11:55:24 PDT 2017 ON: 19.98 +20.0 19.59 - 2.2 34.7 01 14 480D 0924 Alarm State:  0
Thu May 25 11:54:23 PDT 2017 ON: 20.00 +20.0 19.66 - 4.0 34.5 05 14 471F 0901 Alarm State:  0
Thu May 25 11:53:21 PDT 2017 ON: 19.99 +20.0 19.68 - 4.2 34.0 05 14 4727 0921 Alarm State:  0
Thu May 25 11:52:20 PDT 2017 ON: 20.01 +20.0 19.73 - 5.1 33.4 0D 12 472C 0A07 Alarm State:  0
Thu May 25 11:51:18 PDT 2017 ON: 19.97 +20.0 19.60 - 3.0 34.8 0A 14 481F 0923 Alarm State:  0
Thu May 25 11:50:17 PDT 2017 ON: 20.01 +20.0 19.67 - 4.2 34.1 02 14 481C 090D Alarm State:  0
Thu May 25 11:49:15 PDT 2017 ON: 19.99 +20.0 19.60 - 2.6 34.7 07 14 4821 0905 Alarm State:  0
Thu May 25 11:48:14 PDT 2017 ON: 20.02 +20.0 19.64 - 3.1 34.6 02 14 472E 0912 Alarm State:  0
Thu May 25 11:47:02 PDT 2017 ON: 20.01 +20.0 19.66 - 4.1 33.9 00 14 4703 0905 Alarm State:  0
Thu May 25 11:46:01 PDT 2017 ON: 19.97 +20.0 19.63 - 3.8 34.1 00 14 462A 091F Alarm State:  0
Thu May 25 11:44:59 PDT 2017 ON: 20.01 +20.0 19.69 - 4.0 33.8 08 14 471E 090C Alarm State:  0
Thu May 25 11:43:58 PDT 2017 ON: 19.98 +20.0 19.62 - 3.3 34.5 05 14 4730 091C Alarm State:  0
Thu May 25 11:42:56 PDT 2017 ON: 20.04 +20.0 19.72 - 5.1 33.4 0D 12 472D 0904 Alarm State:  0
Thu May 25 11:41:55 PDT 2017 ON: 19.99 +20.0 19.62 - 2.8 34.7 07 14 4723 091C Alarm State:  0
Thu May 25 11:40:53 PDT 2017 ON: 20.00 +20.0 19.67 - 4.2 33.7 00 14 4716 091C Alarm State:  0
Thu May 25 11:39:52 PDT 2017 ON: 20.01 +20.0 19.65 - 3.3 34.1 00 14 4805 0912 Alarm State:  0
Thu May 25 11:38:50 PDT 2017 ON: 19.99 +20.0 19.65 - 3.2 34.7 05 14 4729 0914 Alarm State:  0
Thu May 25 11:37:49 PDT 2017 ON: 20.00 +20.0 19.65 - 3.5 34.7 02 14 471B 090B Alarm State:  0
Thu May 25 11:36:47 PDT 2017 ON: 20.03 +20.0 19.71 - 5.0 33.6 0D 13 4629 091B Alarm State:  0
Thu May 25 11:35:46 PDT 2017 ON: 19.99 +20.0 19.63 - 3.0 34.5 00 14 4712 0924 Alarm State:  0
Thu May 25 11:34:44 PDT 2017 ON: 19.97 +20.0 19.60 - 2.6 34.6 01 14 4721 0908 Alarm State:  0
Thu May 25 11:33:43 PDT 2017 ON: 19.99 +20.0 19.65 - 4.1 33.7 07 14 4727 0924 Alarm State:  0
Thu May 25 11:32:41 PDT 2017 ON: 20.02 +20.0 19.68 - 4.1 33.8 0D 14 481D 090F Alarm State:  0
Thu May 25 11:31:40 PDT 2017 ON: 19.99 +20.0 19.67 - 4.1 34.2 00 14 480B 0914 Alarm State:  0
Thu May 25 11:30:38 PDT 2017 ON: 20.01 +20.0 19.64 - 3.2 34.2 00 14 4816 0923 Alarm State:  0
Thu May 25 11:29:37 PDT 2017 ON: 20.00 +20.0 19.62 - 3.0 34.5 05 14 4729 0A05 Alarm State:  0
Thu May 25 11:28:35 PDT 2017 ON: 19.97 +20.0 19.65 - 3.9 34.2 00 14 471E 0A26 Alarm State:  0
Thu May 25 11:27:34 PDT 2017 ON: 20.00 +20.0 19.60 - 2.2 34.7 00 14 4825 0922 Alarm State:  0
Thu May 25 11:26:32 PDT 2017 ON: 20.00 +20.0 19.65 - 3.9 34.2 0C 14 480E 0928 Alarm State:  0
Thu May 25 11:25:31 PDT 2017 ON: 20.02 +20.0 19.68 - 4.3 33.9 0D 14 4812 091D Alarm State:  0
Thu May 25 11:24:29 PDT 2017 ON: 20.05 +20.0 19.66 - 3.9 33.8 00 14 4815 0905 Alarm State:  0
Thu May 25 11:23:28 PDT 2017 ON: 19.97 +20.0 19.65 - 3.8 33.8 07 14 480B 0921 Alarm State:  0
Thu May 25 11:22:26 PDT 2017 ON: 20.03 +20.0 19.66 - 3.8 34.1 00 14 4828 091A Alarm State:  0
Thu May 25 11:21:25 PDT 2017 ON: 20.02 +20.0 19.69 - 4.4 33.7 0D 14 4727 0906 Alarm State:  0
Thu May 25 11:20:23 PDT 2017 ON: 20.02 +20.0 19.66 - 4.0 34.0 00 14 471A 0908 Alarm State:  0
Thu May 25 11:19:22 PDT 2017 ON: 20.01 +20.0 19.65 - 3.6 34.6 0A 14 470C 0926 Alarm State:  0
Thu May 25 11:18:20 PDT 2017 ON: 20.02 +20.0 19.72 - 5.2 33.4 0D 12 4632 091E Alarm State:  0
Thu May 25 11:17:19 PDT 2017 ON: 19.99 +20.0 19.61 - 2.6 34.9 00 14 472B 090A Alarm State:  0
Thu May 25 11:16:17 PDT 2017 ON: 20.02 +20.0 19.67 - 3.8 34.4 05 14 4807 0915 Alarm State:  0
Thu May 25 11:15:16 PDT 2017 ON: 20.01 +20.0 19.67 - 3.8 34.6 00 14 4732 090C Alarm State:  0
Thu May 25 11:14:14 PDT 2017 ON: 20.01 +20.0 19.65 - 3.2 34.6 00 14 4717 0920 Alarm State:  0
Thu May 25 11:13:13 PDT 2017 ON: 20.00 +20.0 19.62 - 2.7 34.6 02 14 462C 0904 Alarm State:  0
Thu May 25 11:12:11 PDT 2017 ON: 19.99 +20.0 19.68 - 4.6 33.9 00 14 4530 0A16 Alarm State:  0
Thu May 25 11:11:10 PDT 2017 ON: 19.99 +20.0 19.60 - 2.5 34.6 0C 14 4623 0A08 Alarm State:  0
Thu May 25 11:10:08 PDT 2017 ON: 19.97 +20.0 19.67 - 4.8 33.7 00 14 4618 0B02 Alarm State:  0
Thu May 25 11:09:07 PDT 2017 ON: 19.95 +20.0 19.60 - 2.7 34.9 01 14 4723 0930 Alarm State:  0
Thu May 25 11:08:06 PDT 2017 ON: 20.00 +20.0 19.71 - 5.2 33.3 0D 13 4728 0A0A Alarm State:  0
Thu May 25 11:07:04 PDT 2017 ON: 19.96 +20.0 19.59 - 2.6 34.9 04 14 4824 0921 Alarm State:  0
Thu May 25 11:06:03 PDT 2017 ON: 20.00 +20.0 19.65 - 3.3 34.6 02 14 4903 0906 Alarm State:  0
Thu May 25 11:05:01 PDT 2017 ON: 20.00 +20.0 19.66 - 3.8 34.2 00 14 4829 090E Alarm State:  0
Thu May 25 11:04:00 PDT 2017 ON: 19.98 +20.0 19.60 - 2.6 34.7 02 14 4908 0916 Alarm State:  0
Thu May 25 11:02:58 PDT 2017 ON: 20.02 +20.0 19.64 - 3.4 34.5 00 14 4832 0918 Alarm State:  0
Thu May 25 11:01:57 PDT 2017 ON: 19.99 +20.0 19.66 - 3.9 34.3 00 14 4822 0925 Alarm State:  0
Thu May 25 11:00:55 PDT 2017 ON: 20.03 +20.0 19.68 - 3.9 34.2 08 14 4817 0919 Alarm State:  0
Thu May 25 10:59:54 PDT 2017 ON: 20.03 +20.0 19.69 - 4.7 33.6 03 14 472A 0901 Alarm State:  0
Thu May 25 10:58:52 PDT 2017 ON: 20.00 +20.0 19.63 - 3.1 34.7 0C 14 4729 0912 Alarm State:  0
Thu May 25 10:57:51 PDT 2017 ON: 19.98 +20.0 19.66 - 3.4 34.7 02 14 4808 092A Alarm State:  0
Thu May 25 10:56:49 PDT 2017 ON: 20.03 +20.0 19.69 - 4.4 34.0 0D 14 472C 0928 Alarm State:  0
Thu May 25 10:55:48 PDT 2017 ON: 20.00 +20.0 19.59 - 2.4 34.6 00 14 4813 0901 Alarm State:  0
Thu May 25 10:54:46 PDT 2017 ON: 20.03 +20.0 19.67 - 3.9 34.3 07 14 4800 092C Alarm State:  0
Thu May 25 10:53:45 PDT 2017 ON: 20.03 +20.0 19.67 - 4.3 33.7 00 14 4808 0913 Alarm State:  0
Thu May 25 10:52:43 PDT 2017 ON: 20.02 +20.0 19.68 - 4.2 33.9 0D 14 480D 090D Alarm State:  0
Thu May 25 10:51:32 PDT 2017 ON: 20.03 +20.0 19.70 - 4.7 33.7 05 13 4730 0906 Alarm State:  0
Thu May 25 10:50:30 PDT 2017 ON: 20.00 +20.0 19.61 - 2.6 34.6 00 14 480E 091B Alarm State:  0
Thu May 25 10:49:29 PDT 2017 ON: 20.02 +20.0 19.66 - 4.1 34.2 07 14 4721 0922 Alarm State:  0
Thu May 25 10:48:27 PDT 2017 ON: 20.02 +20.0 19.70 - 4.9 33.4 0D 13 4724 090E Alarm State:  0
Thu May 25 10:47:26 PDT 2017 ON: 19.99 +20.0 19.64 - 3.1 34.8 05 14 4809 0918 Alarm State:  0
Thu May 25 10:46:24 PDT 2017 ON: 20.00 +20.0 19.67 - 4.0 34.5 0A 14 4800 090C Alarm State:  0
Thu May 25 10:45:23 PDT 2017 ON: 20.00 +20.0 19.70 - 4.2 33.8 0A 13 4721 0911 Alarm State:  0
Thu May 25 10:44:21 PDT 2017 ON: 20.01 +20.0 19.67 - 3.6 34.1 00 14 480B 090E Alarm State:  0
Thu May 25 10:43:20 PDT 2017 ON: 19.99 +20.0 19.63 - 2.9 34.6 00 14 472A 090F Alarm State:  0
Thu May 25 10:42:18 PDT 2017 ON: 19.99 +20.0 19.66 - 4.1 34.2 00 14 471F 0915 Alarm State:  0
Thu May 25 10:41:17 PDT 2017 ON: 20.01 +20.0 19.71 - 4.9 33.6 0A 13 471D 0904 Alarm State:  0
Thu May 25 10:40:15 PDT 2017 ON: 19.98 +20.0 19.61 - 2.7 34.6 00 14 4728 090B Alarm State:  0
Thu May 25 10:39:14 PDT 2017 ON: 19.99 +20.0 19.68 - 4.6 33.7 00 14 470A 0A12 Alarm State:  0
Thu May 25 10:38:12 PDT 2017 ON: 19.98 +20.0 19.60 - 2.4 34.6 00 14 480A 091B Alarm State:  0
Thu May 25 10:37:11 PDT 2017 ON: 19.98 +20.0 19.66 - 3.3 34.8 07 14 4806 0912 Alarm State:  0
Thu May 25 10:36:09 PDT 2017 ON: 20.02 +20.0 19.70 - 4.2 34.4 08 13 4720 0914 Alarm State:  0
Thu May 25 10:35:08 PDT 2017 ON: 20.00 +20.0 19.68 - 4.4 34.1 00 14 462F 0925 Alarm State:  0
Thu May 25 10:34:06 PDT 2017 ON: 20.05 +20.0 19.71 - 5.2 33.5 0D 13 4628 091B Alarm State:  0
Thu May 25 10:33:05 PDT 2017 ON: 19.99 +20.0 19.60 - 3.0 34.8 01 14 470F 091D Alarm State:  0
Thu May 25 10:32:03 PDT 2017 ON: 20.01 +20.0 19.66 - 4.3 34.1 07 14 4714 0A09 Alarm State:  0
Thu May 25 10:31:02 PDT 2017 ON: 20.01 +20.0 19.65 - 3.1 34.3 00 14 480F 091F Alarm State:  0
Thu May 25 10:30:00 PDT 2017 ON: 20.04 +20.0 19.68 - 4.5 33.6 00 14 472E 0925 Alarm State:  0
Thu May 25 10:28:59 PDT 2017 ON: 20.01 +20.0 19.63 - 3.9 34.0 07 14 472C 0914 Alarm State:  0
Thu May 25 10:27:57 PDT 2017 ON: 20.04 +20.0 19.70 - 4.6 33.9 08 13 480C 0915 Alarm State:  0
Thu May 25 10:26:56 PDT 2017 ON: 20.02 +20.0 19.62 - 2.8 34.6 00 14 4800 0912 Alarm State:  0
Thu May 25 10:25:54 PDT 2017 ON: 20.01 +20.0 19.64 - 3.6 34.3 00 14 4714 0920 Alarm State:  0
Thu May 25 10:24:53 PDT 2017 ON: 20.01 +20.0 19.63 - 3.4 34.7 02 14 4706 091F Alarm State:  0
Thu May 25 10:23:51 PDT 2017 ON: 20.01 +20.0 19.71 - 5.2 33.6 0D 13 4626 0A19 Alarm State:  0
Thu May 25 10:22:50 PDT 2017 ON: 19.96 +20.0 19.61 - 3.1 34.8 07 14 4725 092B Alarm State:  0
Thu May 25 10:21:48 PDT 2017 ON: 20.00 +20.0 19.70 - 5.1 33.4 08 13 471F 090D Alarm State:  0
Thu May 25 10:20:47 PDT 2017 ON: 19.97 +20.0 19.61 - 2.7 34.7 05 14 4731 0915 Alarm State:  0
Thu May 25 10:19:45 PDT 2017 ON: 19.98 +20.0 19.68 - 4.4 33.7 00 14 471A 0911 Alarm State:  0
Thu May 25 10:18:44 PDT 2017 ON: 20.01 +20.0 19.65 - 3.1 34.2 00 14 4809 0909 Alarm State:  0
Thu May 25 10:17:42 PDT 2017 ON: 19.98 +20.0 19.65 - 3.6 34.5 05 14 4806 0929 Alarm State:  0
Thu May 25 10:16:41 PDT 2017 ON: 20.00 +20.0 19.68 - 4.2 33.9 0A 14 4812 0904 Alarm State:  0
Thu May 25 10:15:39 PDT 2017 ON: 20.04 +20.0 19.68 - 3.7 34.4 08 14 4811 0919 Alarm State:  0
Thu May 25 10:14:38 PDT 2017 ON: 20.00 +20.0 19.69 - 4.1 34.1 0A 14 471C 0903 Alarm State:  0
Thu May 25 10:13:36 PDT 2017 ON: 20.04 +20.0 19.71 - 5.2 33.0 05 13 4709 0928 Alarm State:  0
Thu May 25 10:12:35 PDT 2017 ON: 19.96 +20.0 19.62 - 3.5 34.3 00 14 471D 0A07 Alarm State:  0
Thu May 25 10:11:33 PDT 2017 ON: 20.03 +20.0 19.66 - 3.8 34.1 00 14 4803 0907 Alarm State:  0
Thu May 25 10:10:32 PDT 2017 ON: 19.98 +20.0 19.65 - 3.4 34.7 02 14 4720 0908 Alarm State:  0
Thu May 25 10:09:30 PDT 2017 ON: 20.00 +20.0 19.66 - 4.4 33.8 00 14 4721 092B Alarm State:  0
Thu May 25 10:08:29 PDT 2017 ON: 20.01 +20.0 19.68 - 4.2 33.9 0A 14 480E 0927 Alarm State:  0
Thu May 25 10:07:27 PDT 2017 ON: 20.04 +20.0 19.69 - 4.2 33.9 0D 14 480D 0915 Alarm State:  0
Thu May 25 10:06:26 PDT 2017 ON: 20.03 +20.0 19.65 - 3.3 34.2 00 14 4806 090F Alarm State:  0
Thu May 25 10:05:24 PDT 2017 ON: 20.02 +20.0 19.65 - 3.9 34.2 02 14 471B 0922 Alarm State:  0
Thu May 25 10:04:23 PDT 2017 ON: 19.98 +20.0 19.63 - 3.4 34.6 00 14 4712 0916 Alarm State:  0
Thu May 25 10:03:21 PDT 2017 ON: 20.04 +20.0 19.71 - 4.9 33.7 0A 13 470A 0909 Alarm State:  0
Thu May 25 10:02:20 PDT 2017 ON: 19.98 +20.0 19.59 - 2.6 34.7 01 14 4715 0918 Alarm State:  0
Thu May 25 10:01:18 PDT 2017 ON: 19.99 +20.0 19.67 - 4.1 34.0 05 14 470D 090F Alarm State:  0
Thu May 25 10:00:17 PDT 2017 ON: 20.04 +20.0 19.70 - 4.3 33.8 0D 13 471B 0911 Alarm State:  0
Thu May 25 09:59:15 PDT 2017 ON: 20.02 +20.0 19.70 - 4.4 33.9 0D 13 4712 0903 Alarm State:  0
Thu May 25 09:58:14 PDT 2017 ON: 20.03 +20.0 19.61 - 2.6 34.5 05 14 4712 0917 Alarm State:  0
Thu May 25 09:57:12 PDT 2017 ON: 20.00 +20.0 19.65 - 4.2 34.0 07 14 4624 0923 Alarm State:  0
Thu May 25 09:56:11 PDT 2017 ON: 20.04 +20.0 19.69 - 4.8 33.2 05 14 4701 0A06 Alarm State:  0
Thu May 25 09:55:09 PDT 2017 ON: 19.98 +20.0 19.63 - 3.3 34.2 07 14 471E 0927 Alarm State:  0
Thu May 25 09:54:08 PDT 2017 ON: 20.05 +20.0 19.69 - 4.0 33.9 08 14 4815 090F Alarm State:  0
Thu May 25 09:53:06 PDT 2017 ON: 20.00 +20.0 19.65 - 3.7 34.2 02 14 4800 0915 Alarm State:  0
Thu May 25 09:52:05 PDT 2017 ON: 20.00 +20.0 19.58 - 2.3 34.7 04 14 481E 0913 Alarm State:  0
Thu May 25 09:51:03 PDT 2017 ON: 20.00 +20.0 19.66 - 4.1 33.8 00 14 4732 091B Alarm State:  0
Thu May 25 09:50:02 PDT 2017 ON: 20.03 +20.0 19.70 - 4.7 33.5 05 13 4808 0905 Alarm State:  0
Thu May 25 09:49:00 PDT 2017 ON: 19.99 +20.0 19.66 - 3.6 34.5 0A 14 472F 0929 Alarm State:  0
Thu May 25 09:47:59 PDT 2017 ON: 20.01 +20.0 19.70 - 4.9 33.8 0D 13 4725 0919 Alarm State:  0
Thu May 25 09:46:57 PDT 2017 ON: 19.99 +20.0 19.61 - 2.8 34.4 00 14 4725 0906 Alarm State:  0
Thu May 25 09:45:56 PDT 2017 ON: 19.99 +20.0 19.66 - 3.9 34.4 00 14 4714 090E Alarm State:  0
Thu May 25 09:44:54 PDT 2017 ON: 20.00 +20.0 19.69 - 4.6 33.7 0D 14 471A 0926 Alarm State:  0
Thu May 25 09:43:53 PDT 2017 ON: 19.97 +20.0 19.61 - 2.2 34.8 05 14 4816 091E Alarm State:  0
Thu May 25 09:42:51 PDT 2017 ON: 20.00 +20.0 19.65 - 4.0 34.2 02 14 4727 0925 Alarm State:  0
Thu May 25 09:41:50 PDT 2017 ON: 19.98 +20.0 19.58 - 2.3 34.7 01 14 4807 0909 Alarm State:  0
Thu May 25 09:40:48 PDT 2017 ON: 20.00 +20.0 19.68 - 4.4 33.7 07 14 4726 0910 Alarm State:  0
Thu May 25 09:39:47 PDT 2017 ON: 20.00 +20.0 19.63 - 3.3 34.1 00 14 4804 0915 Alarm State:  0
Thu May 25 09:38:45 PDT 2017 ON: 19.99 +20.0 19.65 - 4.0 33.9 00 14 4717 0920 Alarm State:  0
Thu May 25 09:37:34 PDT 2017 ON: 20.02 +20.0 19.70 - 4.9 33.8 0D 13 4708 0918 Alarm State:  0
Thu May 25 09:36:33 PDT 2017 ON: 20.01 +20.0 19.63 - 2.8 34.5 07 14 4716 0A05 Alarm State:  0
Thu May 25 09:35:31 PDT 2017 ON: 19.97 +20.0 19.66 - 4.5 33.8 07 14 470B 0A26 Alarm State:  0
Thu May 25 09:34:30 PDT 2017 ON: 19.97 +20.0 19.56 - 1.9 34.9 09 14 4816 091A Alarm State:  0
Thu May 25 09:33:28 PDT 2017 ON: 20.00 +20.0 19.67 - 4.3 34.2 05 14 4732 0918 Alarm State:  0
Thu May 25 09:32:27 PDT 2017 ON: 19.99 +20.0 19.61 - 2.6 34.6 07 14 480F 0928 Alarm State:  0
Thu May 25 09:31:25 PDT 2017 ON: 19.98 +20.0 19.66 - 4.3 33.8 07 14 4725 0930 Alarm State:  0
Thu May 25 09:30:24 PDT 2017 ON: 19.99 +20.0 19.68 - 4.5 33.5 0A 14 4818 092B Alarm State:  0
Thu May 25 09:29:22 PDT 2017 ON: 19.97 +20.0 19.60 - 2.5 34.9 05 14 4910 0910 Alarm State:  0
Thu May 25 09:28:21 PDT 2017 ON: 19.99 +20.0 19.66 - 4.2 33.9 00 14 4900 0907 Alarm State:  0
Thu May 25 09:27:19 PDT 2017 ON: 20.03 +20.0 19.65 - 3.3 34.2 00 14 4830 0920 Alarm State:  0
Thu May 25 09:26:18 PDT 2017 ON: 20.00 +20.0 19.62 - 3.0 34.4 00 14 4812 0900 Alarm State:  0
Thu May 25 09:25:16 PDT 2017 ON: 20.01 +20.0 19.65 - 4.0 33.8 07 14 4730 0929 Alarm State:  0
Thu May 25 09:24:15 PDT 2017 ON: 20.05 +20.0 19.68 - 4.0 34.0 0A 14 481D 091F Alarm State:  0
Thu May 25 09:23:13 PDT 2017 ON: 20.02 +20.0 19.69 - 4.2 33.9 0D 14 4808 0904 Alarm State:  0
Thu May 25 09:22:12 PDT 2017 ON: 20.03 +20.0 19.68 - 4.4 33.8 02 14 4727 0905 Alarm State:  0
Thu May 25 09:21:10 PDT 2017 ON: 19.98 +20.0 19.63 - 2.7 34.7 00 14 4718 0903 Alarm State:  0
Thu May 25 09:20:09 PDT 2017 ON: 20.00 +20.0 19.66 - 4.0 34.1 00 14 4700 090E Alarm State:  0
Thu May 25 09:19:07 PDT 2017 ON: 20.01 +20.0 19.67 - 3.6 34.1 00 14 4717 0911 Alarm State:  0
Thu May 25 09:18:06 PDT 2017 ON: 19.96 +20.0 19.63 - 3.9 34.0 00 14 4711 092E Alarm State:  0
Thu May 25 09:17:04 PDT 2017 ON: 20.01 +20.0 19.59 - 2.2 34.6 00 14 481B 0908 Alarm State:  0
Thu May 25 09:16:03 PDT 2017 ON: 20.02 +20.0 19.68 - 4.3 33.8 02 14 472C 0917 Alarm State:  0
Thu May 25 09:15:01 PDT 2017 ON: 20.02 +20.0 19.70 - 4.2 34.2 0D 13 480A 091E Alarm State:  0
Thu May 25 09:14:00 PDT 2017 ON: 20.00 +20.0 19.69 - 4.5 33.8 0D 14 4727 0A04 Alarm State:  0
Thu May 25 09:12:58 PDT 2017 ON: 19.99 +20.0 19.62 - 2.8 34.4 00 14 481B 0921 Alarm State:  0
Thu May 25 09:11:57 PDT 2017 ON: 19.99 +20.0 19.64 - 2.9 34.6 00 14 4821 091E Alarm State:  0
Thu May 25 09:10:55 PDT 2017 ON: 20.02 +20.0 19.70 - 4.4 33.9 05 13 4727 0907 Alarm State:  0
Thu May 25 09:09:54 PDT 2017 ON: 19.99 +20.0 19.61 - 2.6 34.5 00 14 480A 090D Alarm State:  0
Thu May 25 09:08:52 PDT 2017 ON: 20.01 +20.0 19.67 - 4.3 33.7 02 14 4722 0917 Alarm State:  0
Thu May 25 09:07:51 PDT 2017 ON: 20.03 +20.0 19.67 - 3.6 34.1 02 14 481B 0907 Alarm State:  0
Thu May 25 09:06:49 PDT 2017 ON: 20.02 +20.0 19.63 - 2.9 34.4 02 14 481A 0928 Alarm State:  0
Thu May 25 09:05:48 PDT 2017 ON: 20.00 +20.0 19.65 - 4.2 33.8 07 14 4721 0910 Alarm State:  0
Thu May 25 09:04:46 PDT 2017 ON: 20.02 +20.0 19.69 - 4.8 33.5 0D 14 472E 091B Alarm State:  0
Thu May 25 09:03:45 PDT 2017 ON: 19.97 +20.0 19.62 - 3.3 34.7 05 14 4803 0A02 Alarm State:  0
Thu May 25 09:02:43 PDT 2017 ON: 20.03 +20.0 19.66 - 3.5 34.7 0A 14 4806 091E Alarm State:  0
Thu May 25 09:01:42 PDT 2017 ON: 20.03 +20.0 19.68 - 4.3 33.8 07 14 4715 0902 Alarm State:  0
Thu May 25 09:00:40 PDT 2017 ON: 20.03 +20.0 19.70 - 4.6 33.6 05 13 4710 091D Alarm State:  0
Thu May 25 08:59:39 PDT 2017 ON: 19.98 +20.0 19.63 - 3.4 34.7 02 14 471A 092E Alarm State:  0
Thu May 25 08:58:37 PDT 2017 ON: 20.01 +20.0 19.69 - 4.6 33.8 0D 14 4715 091C Alarm State:  0
Thu May 25 08:57:36 PDT 2017 ON: 20.00 +20.0 19.61 - 2.7 34.4 00 14 471D 0928 Alarm State:  0
Thu May 25 08:56:34 PDT 2017 ON: 20.00 +20.0 19.66 - 4.2 33.9 07 14 462F 0909 Alarm State:  0
Thu May 25 08:55:33 PDT 2017 ON: 20.01 +20.0 19.69 - 4.8 33.5 08 14 4712 0913 Alarm State:  0
Thu May 25 08:54:31 PDT 2017 ON: 20.01 +20.0 19.63 - 3.2 34.8 05 14 472B 091A Alarm State:  0
Thu May 25 08:53:30 PDT 2017 ON: 20.01 +20.0 19.64 - 3.4 34.7 00 14 4806 0924 Alarm State:  0
Thu May 25 08:52:28 PDT 2017 ON: 20.03 +20.0 19.69 - 4.5 33.8 0D 14 471C 0924 Alarm State:  0
Thu May 25 08:51:27 PDT 2017 ON: 20.00 +20.0 19.63 - 3.2 34.2 00 14 472D 0910 Alarm State:  0
Thu May 25 08:50:25 PDT 2017 ON: 19.98 +20.0 19.66 - 3.6 34.2 00 14 4729 092A Alarm State:  0
Thu May 25 08:49:24 PDT 2017 ON: 20.01 +20.0 19.68 - 4.3 33.9 03 14 4807 0904 Alarm State:  0
Thu May 25 08:48:22 PDT 2017 ON: 19.98 +20.0 19.59 - 2.4 34.6 00 14 472E 0922 Alarm State:  0
Thu May 25 08:47:21 PDT 2017 ON: 20.01 +20.0 19.66 - 4.1 33.9 02 14 4711 0907 Alarm State:  0
Thu May 25 08:46:09 PDT 2017 ON: 20.01 +20.0 19.71 - 4.2 34.1 0A 13 4715 091D Alarm State:  0
Thu May 25 08:45:08 PDT 2017 ON: 20.04 +20.0 19.64 - 3.8 33.9 00 14 470E 0923 Alarm State:  0
Thu May 25 08:44:06 PDT 2017 ON: 19.99 +20.0 19.64 - 4.1 33.9 07 14 462F 0920 Alarm State:  0
Thu May 25 08:43:05 PDT 2017 ON: 20.02 +20.0 19.69 - 4.5 33.7 0D 14 471B 0917 Alarm State:  0
Thu May 25 08:42:03 PDT 2017 ON: 20.00 +20.0 19.61 - 3.2 34.6 02 14 4731 0915 Alarm State:  0
Thu May 25 08:41:02 PDT 2017 ON: 20.03 +20.0 19.69 - 4.5 33.7 0D 14 4805 0920 Alarm State:  0
Thu May 25 08:40:00 PDT 2017 ON: 20.00 +20.0 19.61 - 2.9 34.7 07 14 472A 0921 Alarm State:  0
Thu May 25 08:38:59 PDT 2017 ON: 20.00 +20.0 19.66 - 4.3 34.0 07 14 4709 0904 Alarm State:  0
Thu May 25 08:37:57 PDT 2017 ON: 20.03 +20.0 19.67 - 3.8 34.0 05 14 471F 090E Alarm State:  0
Thu May 25 08:36:56 PDT 2017 ON: 19.97 +20.0 19.66 - 3.9 33.7 00 14 4722 0928 Alarm State:  0
Thu May 25 08:35:54 PDT 2017 ON: 20.02 +20.0 19.68 - 3.8 34.0 03 14 4815 0910 Alarm State:  0
Thu May 25 08:34:53 PDT 2017 ON: 19.99 +20.0 19.65 - 3.6 34.1 00 14 480E 0908 Alarm State:  0
Thu May 25 08:33:51 PDT 2017 ON: 20.00 +20.0 19.62 - 2.7 34.5 02 14 4822 0912 Alarm State:  0
Thu May 25 08:32:50 PDT 2017 ON: 19.98 +20.0 19.64 - 3.2 34.8 07 14 4811 0910 Alarm State:  0
Thu May 25 08:31:48 PDT 2017 ON: 20.03 +20.0 19.68 - 3.7 34.4 05 14 4730 0909 Alarm State:  0
Thu May 25 08:30:47 PDT 2017 ON: 19.98 +20.0 19.64 - 3.4 34.7 07 14 471D 090D Alarm State:  0
Thu May 25 08:29:45 PDT 2017 ON: 20.02 +20.0 19.69 - 4.6 33.9 0D 14 470F 0A02 Alarm State:  0
Thu May 25 08:28:44 PDT 2017 ON: 20.00 +20.0 19.60 - 2.4 34.8 0C 14 4803 0929 Alarm State:  0
Thu May 25 08:27:42 PDT 2017 ON: 19.99 +20.0 19.67 - 4.4 33.9 05 14 4724 092C Alarm State:  0
Thu May 25 08:26:41 PDT 2017 ON: 20.02 +20.0 19.63 - 2.8 34.3 00 14 4816 091F Alarm State:  0
Thu May 25 08:25:40 PDT 2017 ON: 19.98 +20.0 19.66 - 3.7 34.5 05 14 4802 0926 Alarm State:  0
Thu May 25 08:24:38 PDT 2017 ON: 20.01 +20.0 19.70 - 4.6 33.8 0D 13 472C 091A Alarm State:  0
Thu May 25 08:23:36 PDT 2017 ON: 20.00 +20.0 19.60 - 2.2 34.7 05 14 481D 090C Alarm State:  0
Thu May 25 08:22:35 PDT 2017 ON: 20.01 +20.0 19.66 - 3.8 34.2 05 14 4727 091C Alarm State:  0
Thu May 25 08:21:33 PDT 2017 ON: 20.00 +20.0 19.61 - 2.9 34.7 02 14 4717 091D Alarm State:  0
Thu May 25 08:20:32 PDT 2017 ON: 20.00 +20.0 19.64 - 3.7 34.7 07 14 4710 0A15 Alarm State:  0
Thu May 25 08:19:30 PDT 2017 ON: 19.99 +20.0 19.68 - 4.5 33.8 00 14 471C 0A29 Alarm State:  0
Thu May 25 08:18:29 PDT 2017 ON: 19.99 +20.0 19.60 - 2.3 34.7 00 14 4824 092C Alarm State:  0
Thu May 25 08:17:27 PDT 2017 ON: 19.98 +20.0 19.65 - 3.4 34.4 00 14 4830 0921 Alarm State:  0
Thu May 25 08:16:26 PDT 2017 ON: 20.00 +20.0 19.69 - 4.4 34.1 0D 14 4825 0911 Alarm State:  0
Thu May 25 08:15:24 PDT 2017 ON: 20.00 +20.0 19.64 - 3.3 34.7 02 14 480F 0916 Alarm State:  0
Thu May 25 08:14:23 PDT 2017 ON: 20.00 +20.0 19.63 - 3.0 34.7 02 14 4808 0916 Alarm State:  0
Thu May 25 08:13:21 PDT 2017 ON: 20.02 +20.0 19.68 - 4.3 34.0 00 14 4719 0921 Alarm State:  0
Thu May 25 08:12:20 PDT 2017 ON: 20.04 +20.0 19.65 - 3.3 34.1 00 14 471A 0911 Alarm State:  0
Thu May 25 08:11:18 PDT 2017 ON: 19.99 +20.0 19.67 - 4.2 33.9 00 14 462B 091A Alarm State:  0
Thu May 25 08:10:17 PDT 2017 ON: 20.01 +20.0 19.69 - 4.4 33.9 0A 14 4707 0925 Alarm State:  0
Thu May 25 08:09:15 PDT 2017 ON: 20.01 +20.0 19.65 - 3.9 33.9 00 14 471B 0904 Alarm State:  0
Thu May 25 08:08:14 PDT 2017 ON: 19.97 +20.0 19.61 - 3.1 34.7 07 14 4720 0915 Alarm State:  0
Thu May 25 08:07:12 PDT 2017 ON: 20.01 +20.0 19.66 - 4.2 34.2 05 14 4724 0A02 Alarm State:  0
Thu May 25 08:06:11 PDT 2017 ON: 20.01 +20.0 19.68 - 4.2 34.0 0D 14 4808 0910 Alarm State:  0
Thu May 25 08:05:10 PDT 2017 ON: 20.02 +20.0 19.69 - 4.4 34.0 0A 14 480E 0926 Alarm State:  0
Thu May 25 08:04:08 PDT 2017 ON: 20.03 +20.0 19.63 - 2.9 34.4 00 14 481F 090A Alarm State:  0
Thu May 25 08:03:07 PDT 2017 ON: 19.99 +20.0 19.65 - 4.2 34.0 00 14 472C 0917 Alarm State:  0
Thu May 25 08:02:05 PDT 2017 ON: 20.02 +20.0 19.71 - 4.9 33.5 05 13 4808 0903 Alarm State:  0
Thu May 25 08:01:04 PDT 2017 ON: 19.99 +20.0 19.62 - 2.8 34.9 02 14 480E 0923 Alarm State:  0
Thu May 25 08:00:02 PDT 2017 ON: 20.01 +20.0 19.66 - 3.6 34.5 0C 14 472E 0921 Alarm State:  0
Thu May 25 07:59:01 PDT 2017 ON: 20.01 +20.0 19.65 - 4.1 34.0 02 14 471A 0926 Alarm State:  0
Thu May 25 07:57:59 PDT 2017 ON: 20.04 +20.0 19.65 - 3.4 34.2 00 14 480C 0919 Alarm State:  0
Thu May 25 07:56:58 PDT 2017 ON: 19.99 +20.0 19.65 - 3.2 34.7 00 14 4721 091E Alarm State:  0
Thu May 25 07:55:56 PDT 2017 ON: 20.00 +20.0 19.69 - 4.4 33.6 08 14 4710 0920 Alarm State:  0
Thu May 25 07:54:55 PDT 2017 ON: 20.03 +20.0 19.68 - 4.1 33.9 02 14 4724 0901 Alarm State:  0
Thu May 25 07:53:53 PDT 2017 ON: 19.99 +20.0 19.66 - 3.3 34.7 05 14 471D 0922 Alarm State:  0
Thu May 25 07:52:52 PDT 2017 ON: 20.02 +20.0 19.69 - 4.7 33.8 0D 14 4709 0923 Alarm State:  0
Thu May 25 07:51:50 PDT 2017 ON: 19.99 +20.0 19.61 - 2.5 34.8 05 14 4805 090C Alarm State:  0
Thu May 25 07:50:49 PDT 2017 ON: 20.02 +20.0 19.67 - 4.2 33.9 00 14 4720 090B Alarm State:  0
Thu May 25 07:49:47 PDT 2017 ON: 20.04 +20.0 19.67 - 4.0 33.7 00 14 4800 0914 Alarm State:  0
Thu May 25 07:48:46 PDT 2017 ON: 20.03 +20.0 19.66 - 3.7 34.0 00 14 480C 0922 Alarm State:  0
Thu May 25 07:47:44 PDT 2017 ON: 20.01 +20.0 19.66 - 3.6 34.2 07 14 4805 091A Alarm State:  0
Thu May 25 07:46:43 PDT 2017 ON: 20.03 +20.0 19.71 - 4.4 34.0 0D 13 4811 0920 Alarm State:  0
Thu May 25 07:45:41 PDT 2017 ON: 20.02 +20.0 19.61 - 2.6 34.6 00 14 4802 091A Alarm State:  0
Thu May 25 07:44:40 PDT 2017 ON: 20.00 +20.0 19.67 - 4.3 33.6 00 14 470D 0925 Alarm State:  0
Thu May 25 07:43:38 PDT 2017 ON: 20.04 +20.0 19.67 - 3.9 34.1 00 14 4726 0928 Alarm State:  0
Thu May 25 07:42:37 PDT 2017 ON: 20.01 +20.0 19.69 - 4.2 33.9 0D 14 4713 090D Alarm State:  0
Thu May 25 07:41:35 PDT 2017 ON: 20.04 +20.0 19.70 - 4.7 33.8 05 13 4709 0902 Alarm State:  0
Thu May 25 07:40:34 PDT 2017 ON: 20.02 +20.0 19.66 - 3.5 34.1 05 14 4706 091B Alarm State:  0
Thu May 25 07:39:32 PDT 2017 ON: 19.98 +20.0 19.62 - 3.8 34.2 00 14 4708 0A00 Alarm State:  0
Thu May 25 07:38:31 PDT 2017 ON: 20.02 +20.0 19.64 - 3.2 34.2 00 14 480A 0905 Alarm State:  0
Thu May 25 07:37:29 PDT 2017 ON: 20.02 +20.0 19.66 - 3.3 34.7 0C 14 4808 0925 Alarm State:  0
Thu May 25 07:36:28 PDT 2017 ON: 20.00 +20.0 19.66 - 3.3 34.8 0A 14 481B 090D Alarm State:  0
Thu May 25 07:35:26 PDT 2017 ON: 20.00 +20.0 19.67 - 4.2 34.1 07 14 4803 0912 Alarm State:  0
Thu May 25 07:34:25 PDT 2017 ON: 20.00 +20.0 19.69 - 4.4 33.8 0A 14 4808 092D Alarm State:  0
Thu May 25 07:33:23 PDT 2017 ON: 19.99 +20.0 19.61 - 2.4 34.6 00 14 482A 0921 Alarm State:  0
Thu May 25 07:32:22 PDT 2017 ON: 20.02 +20.0 19.67 - 4.0 34.1 00 14 480B 0925 Alarm State:  0
Thu May 25 07:31:20 PDT 2017 ON: 20.01 +20.0 19.68 - 4.2 33.9 0D 14 4813 0916 Alarm State:  0
Thu May 25 07:30:19 PDT 2017 ON: 20.04 +20.0 19.69 - 4.7 33.6 0D 14 4808 0914 Alarm State:  0
Thu May 25 07:29:17 PDT 2017 ON: 20.00 +20.0 19.63 - 3.1 34.8 0A 14 4812 092A Alarm State:  0
Thu May 25 07:28:16 PDT 2017 ON: 20.01 +20.0 19.69 - 4.8 33.7 0D 14 472E 0924 Alarm State:  0
Thu May 25 07:27:14 PDT 2017 ON: 19.99 +20.0 19.62 - 2.4 34.7 05 14 4817 0929 Alarm State:  0
Thu May 25 07:26:13 PDT 2017 ON: 20.00 +20.0 19.63 - 2.7 34.6 00 14 480C 0927 Alarm State:  0
Thu May 25 07:25:11 PDT 2017 ON: 20.00 +20.0 19.65 - 3.6 34.4 07 14 471B 090F Alarm State:  0
Thu May 25 07:24:10 PDT 2017 ON: 20.02 +20.0 19.72 - 5.2 33.5 0D 12 4702 0917 Alarm State:  0
Thu May 25 07:23:08 PDT 2017 ON: 19.98 +20.0 19.62 - 3.0 34.7 0A 14 462D 090C Alarm State:  0
Thu May 25 07:22:07 PDT 2017 ON: 19.99 +20.0 19.67 - 4.3 33.8 00 14 4620 0A10 Alarm State:  0
Thu May 25 07:21:05 PDT 2017 ON: 20.00 +20.0 19.61 - 2.6 34.5 00 14 471D 091E Alarm State:  0
Thu May 25 07:20:04 PDT 2017 ON: 20.02 +20.0 19.67 - 3.7 34.4 07 14 470C 0920 Alarm State:  0
Thu May 25 07:19:02 PDT 2017 ON: 20.03 +20.0 19.70 - 4.4 34.1 0A 13 4714 0907 Alarm State:  0
Thu May 25 07:18:01 PDT 2017 ON: 20.00 +20.0 19.68 - 4.1 33.9 05 14 4717 0926 Alarm State:  0
Thu May 25 07:16:59 PDT 2017 ON: 20.04 +20.0 19.73 - 4.9 33.7 0D 12 4719 0918 Alarm State:  0
Thu May 25 07:15:58 PDT 2017 ON: 19.98 +20.0 19.63 - 2.9 34.7 00 14 4712 090A Alarm State:  0
Thu May 25 07:14:56 PDT 2017 ON: 19.98 +20.0 19.67 - 4.8 33.8 05 14 462B 0A0F Alarm State:  0
Thu May 25 07:13:55 PDT 2017 ON: 19.99 +20.0 19.59 - 2.2 34.9 07 14 4800 0916 Alarm State:  0
Thu May 25 07:12:53 PDT 2017 ON: 20.02 +20.0 19.68 - 3.9 34.3 07 14 472B 090B Alarm State:  0
Thu May 25 07:11:52 PDT 2017 ON: 20.01 +20.0 19.69 - 4.7 33.7 0D 14 4714 090F Alarm State:  0
Thu May 25 07:10:51 PDT 2017 ON: 20.00 +20.0 19.61 - 2.6 34.4 02 14 4732 090F Alarm State:  0
Thu May 25 07:09:49 PDT 2017 ON: 19.99 +20.0 19.66 - 3.8 34.0 00 14 472F 092E Alarm State:  0
Thu May 25 07:08:48 PDT 2017 ON: 20.01 +20.0 19.69 - 4.6 33.7 08 14 4810 0905 Alarm State:  0
Thu May 25 07:07:46 PDT 2017 ON: 20.01 +20.0 19.62 - 2.7 34.8 0A 14 4821 0916 Alarm State:  0
Thu May 25 07:06:45 PDT 2017 ON: 20.01 +20.0 19.64 - 3.8 34.2 02 14 480D 091B Alarm State:  0
Thu May 25 07:05:43 PDT 2017 ON: 20.01 +20.0 19.68 - 4.2 34.0 0D 14 4810 090D Alarm State:  0
Thu May 25 07:04:42 PDT 2017 ON: 20.00 +20.0 19.61 - 2.4 34.7 02 14 4818 0923 Alarm State:  0
Thu May 25 07:03:40 PDT 2017 ON: 19.98 +20.0 19.66 - 3.8 34.6 02 14 472C 0902 Alarm State:  0
Thu May 25 07:02:39 PDT 2017 ON: 19.99 +20.0 19.69 - 4.3 33.8 0A 14 4722 0928 Alarm State:  0
Thu May 25 07:01:37 PDT 2017 ON: 20.02 +20.0 19.64 - 3.3 34.2 00 14 480C 0925 Alarm State:  0
Thu May 25 07:00:36 PDT 2017 ON: 20.01 +20.0 19.65 - 3.4 34.7 05 14 4730 0929 Alarm State:  0
Thu May 25 06:59:34 PDT 2017 ON: 20.02 +20.0 19.70 - 5.0 33.7 0D 14 4712 0A03 Alarm State:  0
Thu May 25 06:58:33 PDT 2017 ON: 19.97 +20.0 19.58 - 2.2 34.8 01 14 4806 0922 Alarm State:  0
Thu May 25 06:57:31 PDT 2017 ON: 19.99 +20.0 19.65 - 4.0 34.2 05 14 4806 0913 Alarm State:  0
Thu May 25 06:56:30 PDT 2017 ON: 20.01 +20.0 19.69 - 4.0 34.5 0D 14 480D 0926 Alarm State:  0
Thu May 25 06:55:28 PDT 2017 ON: 20.00 +20.0 19.68 - 4.5 34.0 00 14 471C 090A Alarm State:  0
Thu May 25 06:54:27 PDT 2017 ON: 20.00 +20.0 19.63 - 3.5 34.1 00 14 4721 0902 Alarm State:  0
Thu May 25 06:53:25 PDT 2017 ON: 19.98 +20.0 19.67 - 3.9 34.0 07 14 4719 091C Alarm State:  0
Thu May 25 06:52:24 PDT 2017 ON: 20.01 +20.0 19.68 - 4.2 33.8 08 14 4807 0911 Alarm State:  0
Thu May 25 06:51:22 PDT 2017 ON: 20.02 +20.0 19.70 - 4.2 33.8 0D 13 4728 0918 Alarm State:  0
Thu May 25 06:50:21 PDT 2017 ON: 20.03 +20.0 19.71 - 4.6 33.6 0A 13 4721 0914 Alarm State:  0
Thu May 25 06:49:19 PDT 2017 ON: 20.00 +20.0 19.64 - 3.1 34.8 0A 14 471B 0909 Alarm State:  0
Thu May 25 06:48:18 PDT 2017 ON: 20.03 +20.0 19.68 - 4.6 33.8 07 14 4631 0911 Alarm State:  0
Thu May 25 06:47:16 PDT 2017 ON: 20.01 +20.0 19.65 - 3.8 34.0 00 14 4708 091B Alarm State:  0
Thu May 25 06:46:15 PDT 2017 ON: 19.98 +20.0 19.64 - 4.0 33.7 07 14 4715 092D Alarm State:  0
Thu May 25 06:45:13 PDT 2017 ON: 20.01 +20.0 19.67 - 3.5 34.2 00 14 480A 0922 Alarm State:  0
Thu May 25 06:44:12 PDT 2017 ON: 20.03 +20.0 19.68 - 4.6 33.6 00 14 470E 090D Alarm State:  0
Thu May 25 06:43:10 PDT 2017 ON: 19.97 +20.0 19.65 - 4.1 33.8 07 14 470C 0A00 Alarm State:  0
Thu May 25 06:42:09 PDT 2017 ON: 20.01 +20.0 19.69 - 4.4 33.6 00 14 4802 0913 Alarm State:  0
Thu May 25 06:41:07 PDT 2017 ON: 19.97 +20.0 19.63 - 3.2 34.7 05 14 4808 0921 Alarm State:  0
Thu May 25 06:40:06 PDT 2017 ON: 20.00 +20.0 19.66 - 3.8 34.2 00 14 4811 0905 Alarm State:  0
Thu May 25 06:39:04 PDT 2017 ON: 20.01 +20.0 19.67 - 4.2 34.0 00 14 4807 0921 Alarm State:  0
Thu May 25 06:38:03 PDT 2017 ON: 20.02 +20.0 19.63 - 3.1 34.4 00 14 4727 0925 Alarm State:  0
Thu May 25 06:37:01 PDT 2017 ON: 19.97 +20.0 19.64 - 4.2 34.0 00 14 470B 092A Alarm State:  0
Thu May 25 06:36:00 PDT 2017 ON: 20.02 +20.0 19.62 - 2.9 34.3 00 14 4809 0918 Alarm State:  0
Thu May 25 06:34:58 PDT 2017 ON: 19.99 +20.0 19.69 - 4.3 33.6 0A 14 471E 0921 Alarm State:  0
Thu May 25 06:33:57 PDT 2017 ON: 20.03 +20.0 19.67 - 3.8 34.3 00 14 480C 0916 Alarm State:  0
Thu May 25 06:32:55 PDT 2017 ON: 20.00 +20.0 19.61 - 2.9 34.7 00 14 472D 091B Alarm State:  0
Thu May 25 06:31:54 PDT 2017 ON: 20.01 +20.0 19.68 - 4.6 33.9 07 14 470C 0925 Alarm State:  0
Thu May 25 06:30:52 PDT 2017 ON: 19.97 +20.0 19.60 - 2.4 34.7 01 14 472E 0920 Alarm State:  0
Thu May 25 06:29:51 PDT 2017 ON: 20.00 +20.0 19.65 - 3.8 34.5 0A 14 4727 0920 Alarm State:  0
Thu May 25 06:28:49 PDT 2017 ON: 19.97 +20.0 19.62 - 2.9 34.8 02 14 4810 0922 Alarm State:  0
Thu May 25 06:27:48 PDT 2017 ON: 20.03 +20.0 19.68 - 4.1 34.2 07 14 4730 091A Alarm State:  0
Thu May 25 06:26:46 PDT 2017 ON: 20.02 +20.0 19.66 - 3.9 33.9 00 14 4732 0909 Alarm State:  0
Thu May 25 06:25:45 PDT 2017 ON: 20.00 +20.0 19.66 - 3.8 34.1 0D 14 4723 0A03 Alarm State:  0
Thu May 25 06:24:43 PDT 2017 ON: 20.04 +20.0 19.69 - 4.5 33.8 0A 14 4800 090E Alarm State:  0
Thu May 25 06:23:42 PDT 2017 ON: 19.99 +20.0 19.62 - 2.8 34.8 0C 14 4807 0927 Alarm State:  0
Thu May 25 06:22:41 PDT 2017 ON: 20.02 +20.0 19.67 - 4.2 33.8 02 14 4807 0920 Alarm State:  0
Thu May 25 06:21:39 PDT 2017 ON: 20.02 +20.0 19.68 - 3.7 34.2 0D 14 4824 091D Alarm State:  0
Thu May 25 06:20:38 PDT 2017 ON: 19.99 +20.0 19.59 - 2.4 34.8 07 14 481F 0913 Alarm State:  0
Thu May 25 06:19:36 PDT 2017 ON: 20.02 +20.0 19.66 - 4.2 33.9 00 14 472A 091E Alarm State:  0
Thu May 25 06:18:35 PDT 2017 ON: 20.04 +20.0 19.68 - 4.4 33.7 0A 14 472B 090E Alarm State:  0
Thu May 25 06:17:33 PDT 2017 ON: 19.99 +20.0 19.65 - 4.0 33.9 00 14 472B 0931 Alarm State:  0
Thu May 25 06:16:32 PDT 2017 ON: 20.04 +20.0 19.68 - 4.1 34.0 0A 14 4819 0924 Alarm State:  0
Thu May 25 06:15:30 PDT 2017 ON: 20.01 +20.0 19.69 - 4.6 33.8 05 14 472C 0906 Alarm State:  0
Thu May 25 06:14:29 PDT 2017 ON: 19.99 +20.0 19.60 - 2.9 34.4 00 14 4721 0927 Alarm State:  0
Thu May 25 06:13:27 PDT 2017 ON: 19.98 +20.0 19.67 - 4.0 34.0 07 14 470F 0920 Alarm State:  0
Thu May 25 06:12:26 PDT 2017 ON: 20.02 +20.0 19.70 - 5.0 33.3 0D 14 471E 0A00 Alarm State:  0
Thu May 25 06:11:24 PDT 2017 ON: 19.99 +20.0 19.63 - 3.4 34.7 0C 14 4732 0A00 Alarm State:  0
Thu May 25 06:10:23 PDT 2017 ON: 20.01 +20.0 19.69 - 4.1 34.4 0D 14 4808 090A Alarm State:  0
Thu May 25 06:09:21 PDT 2017 ON: 20.04 +20.0 19.69 - 4.4 34.0 0D 14 4723 0913 Alarm State:  0
Thu May 25 06:08:20 PDT 2017 ON: 20.04 +20.0 19.69 - 4.2 34.1 0D 14 4714 0915 Alarm State:  0
Thu May 25 06:07:18 PDT 2017 ON: 20.02 +20.0 19.71 - 4.7 33.7 03 13 4704 091C Alarm State:  0
Thu May 25 06:06:17 PDT 2017 ON: 20.00 +20.0 19.65 - 3.5 34.6 05 14 4707 090A Alarm State:  0
Thu May 25 06:05:15 PDT 2017 ON: 20.01 +20.0 19.70 - 5.4 33.3 0A 13 4630 0924 Alarm State:  0
Thu May 25 06:04:14 PDT 2017 ON: 19.96 +20.0 19.63 - 3.4 34.4 00 14 4724 091E Alarm State:  0
Thu May 25 06:03:12 PDT 2017 ON: 20.02 +20.0 19.69 - 4.6 33.8 0D 14 4805 0920 Alarm State:  0
Thu May 25 06:02:11 PDT 2017 ON: 19.99 +20.0 19.62 - 2.3 34.8 0C 14 4822 092A Alarm State:  0
Thu May 25 06:01:09 PDT 2017 ON: 20.02 +20.0 19.66 - 4.2 34.0 02 14 480A 0929 Alarm State:  0
Thu May 25 06:00:08 PDT 2017 ON: 20.03 +20.0 19.69 - 4.7 33.7 08 14 480B 0911 Alarm State:  0
Thu May 25 05:59:06 PDT 2017 ON: 20.00 +20.0 19.63 - 3.3 34.8 0A 14 480B 0929 Alarm State:  0
Thu May 25 05:58:05 PDT 2017 ON: 20.04 +20.0 19.68 - 4.3 34.0 07 14 4731 091D Alarm State:  0
Thu May 25 05:57:03 PDT 2017 ON: 20.02 +20.0 19.69 - 4.7 33.9 0D 14 4709 0901 Alarm State:  0
Thu May 25 05:56:02 PDT 2017 ON: 20.01 +20.0 19.61 - 2.6 34.6 02 14 4712 0922 Alarm State:  0
Thu May 25 05:55:00 PDT 2017 ON: 20.00 +20.0 19.65 - 4.1 34.1 02 14 4625 0929 Alarm State:  0
Thu May 25 05:53:59 PDT 2017 ON: 20.04 +20.0 19.68 - 4.3 33.7 05 14 4707 0A0A Alarm State:  0
Thu May 25 05:52:57 PDT 2017 ON: 19.99 +20.0 19.62 - 3.7 34.3 05 14 4715 0A12 Alarm State:  0
Thu May 25 05:51:56 PDT 2017 ON: 20.03 +20.0 19.66 - 3.5 34.2 00 14 480F 0900 Alarm State:  0
Thu May 25 05:50:54 PDT 2017 ON: 20.00 +20.0 19.64 - 3.5 34.7 02 14 472C 0928 Alarm State:  0
Thu May 25 05:49:53 PDT 2017 ON: 19.99 +20.0 19.69 - 4.6 33.9 0D 14 4719 0926 Alarm State:  0
Thu May 25 05:48:51 PDT 2017 ON: 19.98 +20.0 19.59 - 2.3 34.7 04 14 4816 0915 Alarm State:  0
Thu May 25 05:47:50 PDT 2017 ON: 19.99 +20.0 19.65 - 3.4 34.7 02 14 4815 090B Alarm State:  0
Thu May 25 05:46:48 PDT 2017 ON: 20.01 +20.0 19.66 - 4.0 34.4 00 14 472A 0910 Alarm State:  0
Thu May 25 05:45:47 PDT 2017 ON: 20.02 +20.0 19.68 - 4.3 33.8 07 14 470D 0922 Alarm State:  0
Thu May 25 05:44:45 PDT 2017 ON: 20.02 +20.0 19.69 - 4.9 33.6 08 14 470D 0909 Alarm State:  0
Thu May 25 05:43:44 PDT 2017 ON: 20.00 +20.0 19.65 - 3.3 34.8 0C 14 4728 090C Alarm State:  0
Thu May 25 05:42:42 PDT 2017 ON: 20.03 +20.0 19.68 - 4.8 33.7 07 14 471E 0922 Alarm State:  0
Thu May 25 05:41:41 PDT 2017 ON: 19.99 +20.0 19.63 - 3.0 34.8 0A 14 4810 091A Alarm State:  0
Thu May 25 05:40:39 PDT 2017 ON: 20.01 +20.0 19.71 - 4.8 34.0 0D 13 4732 0916 Alarm State:  0
Thu May 25 05:39:38 PDT 2017 ON: 19.98 +20.0 19.63 - 3.2 34.8 07 14 4801 0928 Alarm State:  0
Thu May 25 05:38:36 PDT 2017 ON: 20.02 +20.0 19.70 - 4.7 33.8 0A 13 4727 091C Alarm State:  0
Thu May 25 05:37:35 PDT 2017 ON: 20.00 +20.0 19.60 - 2.7 34.5 05 14 4802 0928 Alarm State:  0
Thu May 25 05:36:34 PDT 2017 ON: 19.99 +20.0 19.69 - 4.3 34.0 0D 14 4722 092A Alarm State:  0
Thu May 25 05:35:32 PDT 2017 ON: 20.02 +20.0 19.62 - 2.2 34.7 05 14 4821 0906 Alarm State:  0
Thu May 25 05:34:31 PDT 2017 ON: 20.02 +20.0 19.68 - 4.3 34.0 07 14 472D 0918 Alarm State:  0
Thu May 25 05:33:29 PDT 2017 ON: 20.02 +20.0 19.69 - 4.9 33.5 08 14 4723 0911 Alarm State:  0
Thu May 25 05:32:28 PDT 2017 ON: 20.00 +20.0 19.63 - 3.1 34.8 0A 14 4803 0926 Alarm State:  0
Thu May 25 05:31:26 PDT 2017 ON: 20.02 +20.0 19.66 - 4.4 33.5 02 14 4730 091D Alarm State:  0
Thu May 25 05:30:25 PDT 2017 ON: 20.03 +20.0 19.66 - 3.5 34.2 05 14 4814 0920 Alarm State:  0
Thu May 25 05:29:23 PDT 2017 ON: 20.02 +20.0 19.68 - 3.9 34.3 02 14 4725 0929 Alarm State:  0
Thu May 25 05:28:22 PDT 2017 ON: 20.02 +20.0 19.70 - 5.1 33.6 0D 13 4722 091B Alarm State:  0
Thu May 25 05:27:20 PDT 2017 ON: 19.99 +20.0 19.62 - 3.3 34.8 0A 14 4732 092C Alarm State:  0
Thu May 25 05:26:19 PDT 2017 ON: 20.00 +20.0 19.68 - 4.4 33.8 00 14 472D 091A Alarm State:  0
Thu May 25 05:25:17 PDT 2017 ON: 20.03 +20.0 19.70 - 4.4 34.2 0D 13 4721 0919 Alarm State:  0
Thu May 25 05:24:16 PDT 2017 ON: 19.99 +20.0 19.65 - 3.8 34.6 0C 14 470A 0921 Alarm State:  0
Thu May 25 05:23:14 PDT 2017 ON: 20.01 +20.0 19.70 - 4.7 33.9 0D 13 4704 091A Alarm State:  0
Thu May 25 05:22:13 PDT 2017 ON: 19.99 +20.0 19.59 - 2.5 34.6 00 14 4727 0911 Alarm State:  0
Thu May 25 05:21:11 PDT 2017 ON: 19.97 +20.0 19.65 - 4.0 34.0 00 14 471F 0A04 Alarm State:  0
Thu May 25 05:20:10 PDT 2017 ON: 20.02 +20.0 19.64 - 3.1 34.2 00 14 4819 0921 Alarm State:  0
Thu May 25 05:19:08 PDT 2017 ON: 20.00 +20.0 19.66 - 3.7 34.6 00 14 472C 0905 Alarm State:  0
Thu May 25 05:18:07 PDT 2017 ON: 20.03 +20.0 19.68 - 4.4 33.9 02 14 4713 090D Alarm State:  0
Thu May 25 05:17:05 PDT 2017 ON: 20.01 +20.0 19.65 - 4.1 33.9 00 14 4715 0927 Alarm State:  0
Thu May 25 05:16:04 PDT 2017 ON: 19.99 +20.0 19.64 - 3.7 34.5 00 14 470A 0917 Alarm State:  0
Thu May 25 05:14:52 PDT 2017 ON: 19.99 +20.0 19.67 - 4.5 33.8 05 14 4710 092D Alarm State:  0
Thu May 25 05:13:51 PDT 2017 ON: 19.98 +20.0 19.60 - 2.4 34.5 00 14 4812 090F Alarm State:  0
Thu May 25 05:12:49 PDT 2017 ON: 20.00 +20.0 19.64 - 3.5 34.5 05 14 4816 090A Alarm State:  0
Thu May 25 05:11:48 PDT 2017 ON: 20.00 +20.0 19.67 - 4.3 33.9 02 14 480B 0900 Alarm State:  0
Thu May 25 05:10:46 PDT 2017 ON: 20.00 +20.0 19.69 - 4.3 33.8 05 14 4722 090F Alarm State:  0
Thu May 25 05:09:45 PDT 2017 ON: 20.01 +20.0 19.61 - 3.5 34.1 00 14 4719 090D Alarm State:  0
Thu May 25 05:08:43 PDT 2017 ON: 20.00 +20.0 19.67 - 4.0 34.2 07 14 462F 0915 Alarm State:  0
Thu May 25 05:07:42 PDT 2017 ON: 20.04 +20.0 19.65 - 3.5 34.0 00 14 4712 091F Alarm State:  0
Thu May 25 05:06:40 PDT 2017 ON: 19.99 +20.0 19.66 - 4.0 34.4 07 14 4624 0927 Alarm State:  0
Thu May 25 05:05:39 PDT 2017 ON: 20.00 +20.0 19.70 - 5.0 33.7 0D 13 4620 0914 Alarm State:  0
Thu May 25 05:04:37 PDT 2017 ON: 19.96 +20.0 19.64 - 3.3 34.7 05 14 470E 090D Alarm State:  0
Thu May 25 05:03:36 PDT 2017 ON: 19.99 +20.0 19.69 - 4.5 33.7 0A 14 4716 0921 Alarm State:  0
Thu May 25 05:02:34 PDT 2017 ON: 20.01 +20.0 19.63 - 2.9 34.4 00 14 4808 090C Alarm State:  0
Thu May 25 05:01:33 PDT 2017 ON: 20.00 +20.0 19.63 - 3.1 34.6 07 14 472F 090B Alarm State:  0
Thu May 25 05:00:31 PDT 2017 ON: 20.02 +20.0 19.69 - 4.2 33.6 0D 14 472C 090B Alarm State:  0
Thu May 25 04:59:30 PDT 2017 ON: 20.03 +20.0 19.67 - 4.0 33.9 00 14 4813 090B Alarm State:  0
Thu May 25 04:58:28 PDT 2017 ON: 20.03 +20.0 19.70 - 4.4 33.9 0D 13 472F 090F Alarm State:  0
Thu May 25 04:57:27 PDT 2017 ON: 20.02 +20.0 19.60 - 2.5 34.5 00 14 4806 0927 Alarm State:  0
Thu May 25 04:56:25 PDT 2017 ON: 20.03 +20.0 19.67 - 3.9 34.1 02 14 4710 0910 Alarm State:  0
Thu May 25 04:55:24 PDT 2017 ON: 20.02 +20.0 19.68 - 4.2 33.7 07 14 4627 0913 Alarm State:  0
Thu May 25 04:54:22 PDT 2017 ON: 20.01 +20.0 19.70 - 4.3 34.1 0A 13 4713 0912 Alarm State:  0
Thu May 25 04:53:21 PDT 2017 ON: 19.99 +20.0 19.63 - 3.8 33.9 07 14 471B 0924 Alarm State:  0
Thu May 25 04:52:19 PDT 2017 ON: 20.01 +20.0 19.68 - 4.0 34.0 0D 14 480D 090F Alarm State:  0
Thu May 25 04:51:18 PDT 2017 ON: 20.00 +20.0 19.61 - 2.6 34.4 00 14 4803 090A Alarm State:  0
Thu May 25 04:50:16 PDT 2017 ON: 19.98 +20.0 19.67 - 4.2 33.8 00 14 4715 0914 Alarm State:  0
Thu May 25 04:49:15 PDT 2017 ON: 20.00 +20.0 19.68 - 4.2 34.1 00 14 471D 0928 Alarm State:  0
Thu May 25 04:48:13 PDT 2017 ON: 20.01 +20.0 19.63 - 2.7 34.7 05 14 471A 0924 Alarm State:  0
Thu May 25 04:47:12 PDT 2017 ON: 20.02 +20.0 19.68 - 4.4 34.0 00 14 461A 090A Alarm State:  0
Thu May 25 04:46:10 PDT 2017 ON: 20.03 +20.0 19.63 - 3.1 34.2 00 14 4625 0927 Alarm State:  0
Thu May 25 04:45:09 PDT 2017 ON: 20.01 +20.0 19.66 - 4.3 34.1 07 14 460D 092C Alarm State:  0
Thu May 25 04:44:07 PDT 2017 ON: 19.99 +20.0 19.59 - 2.6 34.4 01 14 4705 0920 Alarm State:  0
Thu May 25 04:43:06 PDT 2017 ON: 20.01 +20.0 19.67 - 4.3 33.8 07 14 4622 0A1F Alarm State:  0
Thu May 25 04:42:04 PDT 2017 ON: 19.99 +20.0 19.59 - 2.3 34.7 0D 14 472A 0926 Alarm State:  0
Thu May 25 04:41:03 PDT 2017 ON: 20.01 +20.0 19.65 - 3.7 34.5 0A 14 4724 091F Alarm State:  0
Thu May 25 04:40:01 PDT 2017 ON: 20.03 +20.0 19.67 - 3.8 34.3 05 14 4804 092E Alarm State:  0
Thu May 25 04:39:00 PDT 2017 ON: 20.02 +20.0 19.67 - 3.4 34.3 00 14 4816 090B Alarm State:  0
Thu May 25 04:37:58 PDT 2017 ON: 20.00 +20.0 19.62 - 2.7 34.5 00 14 471E 0915 Alarm State:  0
Thu May 25 04:36:57 PDT 2017 ON: 20.00 +20.0 19.69 - 4.2 34.0 07 14 4629 0926 Alarm State:  0
Thu May 25 04:35:55 PDT 2017 ON: 20.02 +20.0 19.69 - 4.8 33.2 00 14 4632 0A0C Alarm State:  0
Thu May 25 04:34:54 PDT 2017 ON: 19.95 +20.0 19.63 - 3.4 34.2 05 14 4713 0A06 Alarm State:  0
Thu May 25 04:33:52 PDT 2017 ON: 20.02 +20.0 19.69 - 4.0 33.8 03 14 4732 091F Alarm State:  0
Thu May 25 04:32:51 PDT 2017 ON: 19.99 +20.0 19.67 - 3.7 34.0 07 14 4724 0918 Alarm State:  0
Thu May 25 04:31:49 PDT 2017 ON: 20.02 +20.0 19.67 - 4.5 33.6 00 14 4804 091F Alarm State:  0
Thu May 25 04:30:48 PDT 2017 ON: 19.96 +20.0 19.63 - 3.6 34.6 02 14 4800 0910 Alarm State:  0
Thu May 25 04:29:46 PDT 2017 ON: 20.01 +20.0 19.69 - 4.3 33.9 0D 14 4732 0921 Alarm State:  0
Thu May 25 04:28:45 PDT 2017 ON: 20.02 +20.0 19.70 - 4.9 33.4 05 13 4722 0924 Alarm State:  0
Thu May 25 04:27:43 PDT 2017 ON: 20.01 +20.0 19.64 - 3.2 34.8 02 14 471D 0912 Alarm State:  0
Thu May 25 04:26:42 PDT 2017 ON: 20.00 +20.0 19.67 - 4.2 33.9 02 14 4719 092E Alarm State:  0
Thu May 25 04:25:40 PDT 2017 ON: 20.03 +20.0 19.64 - 3.2 34.2 00 14 4805 0900 Alarm State:  0
Thu May 25 04:24:39 PDT 2017 ON: 20.00 +20.0 19.63 - 3.6 34.7 0A 14 4728 0926 Alarm State:  0
Thu May 25 04:23:37 PDT 2017 ON: 20.01 +20.0 19.68 - 4.6 33.9 00 14 471D 091E Alarm State:  0
Thu May 25 04:22:36 PDT 2017 ON: 19.99 +20.0 19.60 - 2.2 34.7 02 14 4816 0908 Alarm State:  0
Thu May 25 04:21:34 PDT 2017 ON: 19.99 +20.0 19.67 - 4.2 33.8 00 14 4724 090C Alarm State:  0
Thu May 25 04:20:33 PDT 2017 ON: 20.02 +20.0 19.68 - 4.2 33.8 00 14 4732 0928 Alarm State:  0
Thu May 25 04:19:31 PDT 2017 ON: 19.98 +20.0 19.64 - 3.3 34.7 00 14 4802 091A Alarm State:  0
Thu May 25 04:18:30 PDT 2017 ON: 20.00 +20.0 19.69 - 4.4 33.9 0A 14 4731 0909 Alarm State:  0
Thu May 25 04:17:28 PDT 2017 ON: 20.02 +20.0 19.63 - 2.4 34.7 05 14 481B 0912 Alarm State:  0
Thu May 25 04:16:27 PDT 2017 ON: 20.02 +20.0 19.67 - 3.6 34.6 0C 14 4730 0923 Alarm State:  0
Thu May 25 04:15:25 PDT 2017 ON: 20.01 +20.0 19.67 - 3.8 34.2 00 14 4729 0929 Alarm State:  0
Thu May 25 04:14:24 PDT 2017 ON: 20.03 +20.0 19.69 - 4.2 33.7 08 14 4806 090C Alarm State:  0
Thu May 25 04:13:22 PDT 2017 ON: 19.97 +20.0 19.62 - 2.8 34.8 0A 14 4807 0921 Alarm State:  0
Thu May 25 04:12:21 PDT 2017 ON: 20.00 +20.0 19.68 - 4.2 33.9 00 14 472E 091E Alarm State:  0
Thu May 25 04:11:19 PDT 2017 ON: 20.01 +20.0 19.67 - 3.9 33.9 05 14 480E 0900 Alarm State:  0
Thu May 25 04:10:18 PDT 2017 ON: 20.03 +20.0 19.69 - 4.4 33.6 05 14 4802 0928 Alarm State:  0
Thu May 25 04:09:16 PDT 2017 ON: 19.99 +20.0 19.62 - 2.9 34.6 02 14 472C 0928 Alarm State:  0
Thu May 25 04:08:15 PDT 2017 ON: 19.99 +20.0 19.63 - 2.8 34.5 00 14 472C 0921 Alarm State:  0
Thu May 25 04:07:13 PDT 2017 ON: 20.02 +20.0 19.66 - 3.9 33.9 00 14 471F 091F Alarm State:  0
Thu May 25 04:06:12 PDT 2017 ON: 20.02 +20.0 19.68 - 4.2 34.1 0D 14 4802 091F Alarm State:  0
Thu May 25 04:05:10 PDT 2017 ON: 20.01 +20.0 19.64 - 2.7 34.8 0C 14 4811 0911 Alarm State:  0
Thu May 25 04:04:09 PDT 2017 ON: 20.01 +20.0 19.63 - 3.3 34.7 0A 14 472A 0916 Alarm State:  0
Thu May 25 04:03:07 PDT 2017 ON: 19.99 +20.0 19.67 - 4.6 33.7 05 14 470D 0A22 Alarm State:  0
Thu May 25 04:02:06 PDT 2017 ON: 19.96 +20.0 19.59 - 2.3 34.8 00 14 4812 0924 Alarm State:  0
Thu May 25 04:01:04 PDT 2017 ON: 20.00 +20.0 19.66 - 3.8 34.4 05 14 481F 090C Alarm State:  0
Thu May 25 04:00:03 PDT 2017 ON: 20.01 +20.0 19.68 - 4.0 34.4 08 14 4827 0922 Alarm State:  0
Thu May 25 03:59:01 PDT 2017 ON: 20.02 +20.0 19.66 - 3.5 34.7 0A 14 4826 091E Alarm State:  0
Thu May 25 03:58:00 PDT 2017 ON: 20.02 +20.0 19.66 - 4.0 34.1 02 14 4818 0923 Alarm State:  0
Thu May 25 03:56:58 PDT 2017 ON: 20.02 +20.0 19.63 - 3.1 34.2 00 14 481D 0913 Alarm State:  0
Thu May 25 03:55:57 PDT 2017 ON: 20.01 +20.0 19.64 - 3.6 34.5 05 14 4728 0926 Alarm State:  0
Thu May 25 03:54:55 PDT 2017 ON: 19.99 +20.0 19.65 - 4.0 34.4 0A 14 471B 092A Alarm State:  0
Thu May 25 03:53:54 PDT 2017 ON: 20.01 +20.0 19.69 - 4.3 34.0 0D 14 4713 091F Alarm State:  0
Thu May 25 03:52:52 PDT 2017 ON: 20.01 +20.0 19.66 - 3.5 34.0 00 14 471E 0909 Alarm State:  0
Thu May 25 03:51:51 PDT 2017 ON: 19.98 +20.0 19.65 - 3.9 34.1 05 14 4716 092D Alarm State:  0
Thu May 25 03:50:49 PDT 2017 ON: 20.03 +20.0 19.61 - 2.7 34.3 00 14 4810 0916 Alarm State:  0
Thu May 25 03:49:48 PDT 2017 ON: 20.01 +20.0 19.66 - 4.0 34.1 07 14 471F 0921 Alarm State:  0
Thu May 25 03:48:46 PDT 2017 ON: 20.01 +20.0 19.66 - 3.5 34.2 00 14 4732 0926 Alarm State:  0
Thu May 25 03:47:45 PDT 2017 ON: 20.02 +20.0 19.68 - 3.9 33.9 00 14 4720 0906 Alarm State:  0
Thu May 25 03:46:43 PDT 2017 ON: 19.99 +20.0 19.71 - 4.8 33.5 08 13 4719 0927 Alarm State:  0
Thu May 25 03:45:42 PDT 2017 ON: 19.98 +20.0 19.63 - 3.3 34.5 05 14 4800 0A04 Alarm State:  0
Thu May 25 03:44:40 PDT 2017 ON: 20.03 +20.0 19.71 - 4.7 33.5 03 13 480D 0916 Alarm State:  0
Thu May 25 03:43:39 PDT 2017 ON: 19.99 +20.0 19.61 - 2.7 34.6 05 14 4805 0911 Alarm State:  0
Thu May 25 03:42:37 PDT 2017 ON: 19.99 +20.0 19.65 - 3.1 34.7 00 14 480E 0905 Alarm State:  0
Thu May 25 03:41:36 PDT 2017 ON: 20.00 +20.0 19.66 - 3.3 34.6 02 14 4800 0906 Alarm State:  0
Thu May 25 03:40:34 PDT 2017 ON: 20.01 +20.0 19.66 - 4.1 33.7 00 14 4720 0910 Alarm State:  0
Thu May 25 03:39:33 PDT 2017 ON: 20.02 +20.0 19.69 - 4.0 34.3 08 14 472C 091E Alarm State:  0
Thu May 25 03:38:32 PDT 2017 ON: 20.01 +20.0 19.69 - 4.1 34.1 0D 14 470F 0926 Alarm State:  0
Thu May 25 03:37:30 PDT 2017 ON: 20.02 +20.0 19.62 - 2.7 34.5 00 14 480A 0914 Alarm State:  0
Thu May 25 03:36:29 PDT 2017 ON: 20.02 +20.0 19.68 - 3.9 34.2 00 14 4716 0924 Alarm State:  0
Thu May 25 03:35:27 PDT 2017 ON: 20.03 +20.0 19.69 - 4.8 33.9 0D 14 470E 0919 Alarm State:  0
Thu May 25 03:34:26 PDT 2017 ON: 19.98 +20.0 19.60 - 2.6 34.9 0A 14 4802 0910 Alarm State:  0
Thu May 25 03:33:24 PDT 2017 ON: 20.03 +20.0 19.68 - 4.0 34.3 07 14 4725 090B Alarm State:  0
Thu May 25 03:32:23 PDT 2017 ON: 20.02 +20.0 19.73 - 5.2 33.6 0A 12 4706 0915 Alarm State:  0
Thu May 25 03:31:21 PDT 2017 ON: 19.99 +20.0 19.61 - 2.7 34.7 07 14 4700 0906 Alarm State:  0
Thu May 25 03:30:20 PDT 2017 ON: 19.99 +20.0 19.68 - 4.3 34.0 05 14 4624 092D Alarm State:  0
Thu May 25 03:29:18 PDT 2017 ON: 20.01 +20.0 19.62 - 2.8 34.4 00 14 4717 0925 Alarm State:  0
Thu May 25 03:28:17 PDT 2017 ON: 19.97 +20.0 19.63 - 3.9 34.1 05 14 470E 0A15 Alarm State:  0
Thu May 25 03:27:15 PDT 2017 ON: 20.01 +20.0 19.61 - 2.7 34.4 00 14 4811 091D Alarm State:  0
Thu May 25 03:26:14 PDT 2017 ON: 19.99 +20.0 19.66 - 3.7 34.5 05 14 4729 091F Alarm State:  0
Thu May 25 03:25:12 PDT 2017 ON: 20.02 +20.0 19.69 - 4.2 34.0 0D 14 4725 090E Alarm State:  0
Thu May 25 03:24:11 PDT 2017 ON: 19.99 +20.0 19.61 - 2.3 34.7 00 14 4807 0917 Alarm State:  0
Thu May 25 03:23:09 PDT 2017 ON: 19.99 +20.0 19.68 - 4.2 34.0 00 14 471C 0924 Alarm State:  0
Thu May 25 03:22:08 PDT 2017 ON: 20.01 +20.0 19.61 - 2.3 34.7 00 14 4812 0915 Alarm State:  0
Thu May 25 03:21:06 PDT 2017 ON: 20.00 +20.0 19.64 - 3.3 34.5 00 14 4727 0924 Alarm State:  0
Thu May 25 03:20:05 PDT 2017 ON: 20.01 +20.0 19.65 - 3.9 34.1 00 14 4712 0A01 Alarm State:  0
Thu May 25 03:19:03 PDT 2017 ON: 20.01 +20.0 19.63 - 3.0 34.4 00 14 4809 0902 Alarm State:  0
Thu May 25 03:18:02 PDT 2017 ON: 20.00 +20.0 19.63 - 3.5 34.4 05 14 472D 0925 Alarm State:  0
Thu May 25 03:17:00 PDT 2017 ON: 20.03 +20.0 19.70 - 4.2 33.8 0A 13 4804 0906 Alarm State:  0
Thu May 25 03:15:59 PDT 2017 ON: 20.02 +20.0 19.62 - 2.7 34.7 0A 14 4801 0919 Alarm State:  0
Thu May 25 03:14:57 PDT 2017 ON: 19.99 +20.0 19.64 - 3.3 34.5 00 14 480B 090A Alarm State:  0
Thu May 25 03:13:56 PDT 2017 ON: 20.03 +20.0 19.70 - 4.2 34.2 0D 13 4804 0923 Alarm State:  0
Thu May 25 03:12:54 PDT 2017 ON: 20.00 +20.0 19.70 - 4.5 33.8 05 13 4705 090F Alarm State:  0
Thu May 25 03:11:53 PDT 2017 ON: 20.02 +20.0 19.69 - 4.3 33.8 08 14 4708 0909 Alarm State:  0
Thu May 25 03:10:51 PDT 2017 ON: 20.00 +20.0 19.64 - 3.5 34.1 00 14 471C 0911 Alarm State:  0
Thu May 25 03:09:50 PDT 2017 ON: 19.96 +20.0 19.63 - 3.5 34.6 05 14 4723 0928 Alarm State:  0
Thu May 25 03:08:48 PDT 2017 ON: 20.00 +20.0 19.70 - 4.3 34.1 0D 13 472D 090D Alarm State:  0
Thu May 25 03:07:47 PDT 2017 ON: 19.98 +20.0 19.59 - 2.4 34.8 07 14 480F 0920 Alarm State:  0
Thu May 25 03:06:45 PDT 2017 ON: 20.00 +20.0 19.67 - 3.9 34.4 07 14 4718 0927 Alarm State:  0
Thu May 25 03:05:44 PDT 2017 ON: 19.98 +20.0 19.68 - 4.2 33.8 02 14 470B 092D Alarm State:  0
Thu May 25 03:04:42 PDT 2017 ON: 20.01 +20.0 19.72 - 4.9 33.4 0D 12 4719 0913 Alarm State:  0
Thu May 25 03:03:41 PDT 2017 ON: 19.97 +20.0 19.64 - 3.6 34.3 05 14 472C 0916 Alarm State:  0
Thu May 25 03:02:39 PDT 2017 ON: 20.05 +20.0 19.72 - 4.9 33.3 0D 12 4807 0918 Alarm State:  0
Thu May 25 03:01:38 PDT 2017 ON: 19.99 +20.0 19.62 - 2.9 34.7 05 14 472B 0918 Alarm State:  0
Thu May 25 03:00:36 PDT 2017 ON: 20.02 +20.0 19.63 - 3.1 34.4 00 14 4721 0919 Alarm State:  0
Thu May 25 02:59:35 PDT 2017 ON: 19.99 +20.0 19.61 - 2.8 34.6 0A 14 4710 0919 Alarm State:  0
Thu May 25 02:58:33 PDT 2017 ON: 20.01 +20.0 19.66 - 3.9 34.0 0A 14 4712 0A0A Alarm State:  0
Thu May 25 02:57:32 PDT 2017 ON: 20.01 +20.0 19.62 - 2.3 34.6 07 14 4814 0917 Alarm State:  0
Thu May 25 02:56:30 PDT 2017 ON: 20.00 +20.0 19.67 - 3.7 34.6 05 14 471A 0900 Alarm State:  0
Thu May 25 02:55:19 PDT 2017 ON: 20.02 +20.0 19.70 - 4.9 33.7 0D 14 462D 0A0B Alarm State:  0
Thu May 25 02:54:17 PDT 2017 ON: 19.98 +20.0 19.60 - 2.5 34.8 0C 14 4725 092E Alarm State:  0
Thu May 25 02:53:16 PDT 2017 ON: 20.00 +20.0 19.66 - 3.8 34.2 0C 14 4729 091F Alarm State:  0
Thu May 25 02:52:14 PDT 2017 ON: 20.01 +20.0 19.66 - 3.6 34.2 02 14 4811 0920 Alarm State:  0
Thu May 25 02:51:13 PDT 2017 ON: 20.00 +20.0 19.62 - 2.7 34.6 0A 14 4813 0919 Alarm State:  0
Thu May 25 02:50:11 PDT 2017 ON: 19.98 +20.0 19.63 - 3.2 34.7 0D 14 4800 0919 Alarm State:  0
Thu May 25 02:49:10 PDT 2017 ON: 20.01 +20.0 19.67 - 4.1 34.0 00 14 4731 0A0C Alarm State:  0
Thu May 25 02:48:08 PDT 2017 ON: 20.00 +20.0 19.63 - 2.5 34.5 02 14 482F 0923 Alarm State:  0
Thu May 25 02:47:07 PDT 2017 ON: 20.02 +20.0 19.67 - 3.5 34.6 05 14 4815 0905 Alarm State:  0
Thu May 25 02:46:05 PDT 2017 ON: 20.03 +20.0 19.68 - 3.4 34.6 0D 14 4806 090B Alarm State:  0
Thu May 25 02:45:04 PDT 2017 ON: 20.01 +20.0 19.65 - 3.5 34.3 05 14 4715 091E Alarm State:  0
Thu May 25 02:44:02 PDT 2017 ON: 20.04 +20.0 19.62 - 3.0 34.3 00 14 4720 090E Alarm State:  0
Thu May 25 02:43:01 PDT 2017 ON: 19.99 +20.0 19.66 - 3.9 34.4 00 14 4702 0913 Alarm State:  0
Thu May 25 02:41:59 PDT 2017 ON: 20.01 +20.0 19.72 - 5.1 33.4 0D 13 4701 0A03 Alarm State:  0
Thu May 25 02:40:58 PDT 2017 ON: 19.97 +20.0 19.62 - 2.7 34.9 02 14 4725 0923 Alarm State:  0
Thu May 25 02:39:56 PDT 2017 ON: 19.99 +20.0 19.67 - 4.0 34.2 00 14 472E 0905 Alarm State:  0
Thu May 25 02:38:55 PDT 2017 ON: 20.01 +20.0 19.69 - 4.4 33.8 0D 14 472E 091B Alarm State:  0
Thu May 25 02:37:53 PDT 2017 ON: 20.00 +20.0 19.62 - 2.4 34.6 05 14 480E 0926 Alarm State:  0
Thu May 25 02:36:52 PDT 2017 ON: 20.04 +20.0 19.68 - 3.5 34.4 05 14 4713 0912 Alarm State:  0
Thu May 25 02:35:50 PDT 2017 ON: 20.00 +20.0 19.65 - 4.1 33.9 07 14 4708 0A0C Alarm State:  0
Thu May 25 02:34:49 PDT 2017 ON: 20.00 +20.0 19.59 - 2.0 34.7 00 14 4811 090A Alarm State:  0
Thu May 25 02:33:47 PDT 2017 ON: 20.00 +20.0 19.64 - 3.5 34.6 02 14 480C 092D Alarm State:  0
Thu May 25 02:32:46 PDT 2017 ON: 20.00 +20.0 19.68 - 3.9 34.2 0A 14 4810 091E Alarm State:  0
Thu May 25 02:31:44 PDT 2017 ON: 20.01 +20.0 19.70 - 5.0 33.5 0D 13 4801 0920 Alarm State:  0
Thu May 25 02:30:43 PDT 2017 ON: 19.97 +20.0 19.62 - 2.9 34.7 07 14 4732 0905 Alarm State:  0
Thu May 25 02:29:41 PDT 2017 ON: 19.99 +20.0 19.67 - 3.9 34.1 05 14 472F 092C Alarm State:  0
Thu May 25 02:28:40 PDT 2017 ON: 20.04 +20.0 19.65 - 2.8 34.3 00 14 4826 0900 Alarm State:  0
Thu May 25 02:27:38 PDT 2017 ON: 20.04 +20.0 19.63 - 2.6 34.5 00 14 4811 090C Alarm State:  0
Thu May 25 02:26:37 PDT 2017 ON: 20.00 +20.0 19.67 - 3.8 34.5 05 14 470D 0921 Alarm State:  0
Thu May 25 02:25:35 PDT 2017 ON: 20.02 +20.0 19.71 - 4.8 33.8 0D 13 4627 090A Alarm State:  0
Thu May 25 02:24:34 PDT 2017 ON: 19.98 +20.0 19.61 - 2.5 34.7 05 14 4710 0912 Alarm State:  0
Thu May 25 02:23:32 PDT 2017 ON: 19.98 +20.0 19.66 - 4.0 33.8 00 14 470D 092D Alarm State:  0
Thu May 25 02:22:31 PDT 2017 ON: 20.02 +20.0 19.61 - 2.3 34.6 05 14 4812 0901 Alarm State:  0
Thu May 25 02:21:29 PDT 2017 ON: 20.02 +20.0 19.68 - 3.7 34.1 07 14 4728 090D Alarm State:  0
Thu May 25 02:20:28 PDT 2017 ON: 20.03 +20.0 19.65 - 3.4 34.2 00 14 471C 0908 Alarm State:  0
Thu May 25 02:19:26 PDT 2017 ON: 20.01 +20.0 19.63 - 3.2 34.8 02 14 471B 092E Alarm State:  0
Thu May 25 02:18:25 PDT 2017 ON: 19.99 +20.0 19.68 - 4.3 33.7 07 14 471B 091D Alarm State:  0
Thu May 25 02:17:23 PDT 2017 ON: 20.00 +20.0 19.68 - 3.9 34.1 0A 14 4807 091E Alarm State:  0
Thu May 25 02:16:22 PDT 2017 ON: 20.02 +20.0 19.61 - 2.8 34.3 00 14 4813 0909 Alarm State:  0
Thu May 25 02:15:20 PDT 2017 ON: 19.99 +20.0 19.67 - 4.1 33.6 00 14 472D 0A0B Alarm State:  0
Thu May 25 02:14:19 PDT 2017 ON: 20.05 +20.0 19.69 - 4.1 34.1 05 14 4812 090E Alarm State:  0
Thu May 25 02:13:17 PDT 2017 ON: 20.03 +20.0 19.69 - 4.1 34.2 08 14 4722 091A Alarm State:  0
Thu May 25 02:12:16 PDT 2017 ON: 20.00 +20.0 19.71 - 5.2 33.4 0D 13 471C 0907 Alarm State:  0
Thu May 25 02:11:14 PDT 2017 ON: 19.97 +20.0 19.62 - 3.2 34.7 05 14 4731 090E Alarm State:  0
Thu May 25 02:10:13 PDT 2017 ON: 20.02 +20.0 19.67 - 4.2 34.2 0C 14 4800 0926 Alarm State:  0
Thu May 25 02:09:11 PDT 2017 ON: 20.01 +20.0 19.67 - 3.9 34.2 05 14 4805 090C Alarm State:  0
Thu May 25 02:08:10 PDT 2017 ON: 20.02 +20.0 19.71 - 4.5 33.9 0A 13 472E 0905 Alarm State:  0
Thu May 25 02:07:08 PDT 2017 ON: 19.99 +20.0 19.57 - 2.1 34.7 00 14 480E 0914 Alarm State:  0
Thu May 25 02:06:07 PDT 2017 ON: 19.99 +20.0 19.67 - 4.0 34.2 07 14 471A 091B Alarm State:  0
Thu May 25 02:05:05 PDT 2017 ON: 20.01 +20.0 19.68 - 4.5 33.5 00 14 4715 0913 Alarm State:  0
Thu May 25 02:04:04 PDT 2017 ON: 20.00 +20.0 19.64 - 3.7 34.1 07 14 471F 092C Alarm State:  0
Thu May 25 02:03:02 PDT 2017 ON: 20.04 +20.0 19.70 - 4.6 33.8 0D 13 4805 0925 Alarm State:  0
Thu May 25 02:02:01 PDT 2017 ON: 19.99 +20.0 19.62 - 2.8 34.8 05 14 4819 0912 Alarm State:  0
Thu May 25 02:00:59 PDT 2017 ON: 20.00 +20.0 19.67 - 4.2 34.0 00 14 472D 0912 Alarm State:  0
Thu May 25 01:59:58 PDT 2017 ON: 20.01 +20.0 19.61 - 2.8 34.4 00 14 480E 091E Alarm State:  0
Thu May 25 01:58:56 PDT 2017 ON: 19.99 +20.0 19.66 - 4.0 34.1 05 14 4728 0922 Alarm State:  0
Thu May 25 01:57:55 PDT 2017 ON: 20.03 +20.0 19.63 - 2.8 34.4 00 14 4815 0916 Alarm State:  0
Thu May 25 01:56:53 PDT 2017 ON: 20.02 +20.0 19.65 - 3.8 34.1 07 14 472B 091C Alarm State:  0
Thu May 25 01:55:52 PDT 2017 ON: 20.02 +20.0 19.70 - 4.4 34.2 0A 13 472F 0901 Alarm State:  0
Thu May 25 01:54:50 PDT 2017 ON: 20.00 +20.0 19.72 - 5.2 33.2 05 13 462D 0A15 Alarm State:  0
Thu May 25 01:53:49 PDT 2017 ON: 19.97 +20.0 19.62 - 3.0 34.7 05 14 4726 0929 Alarm State:  0
Thu May 25 01:52:47 PDT 2017 ON: 20.02 +20.0 19.69 - 4.2 34.2 0D 14 4802 0928 Alarm State:  0
Thu May 25 01:51:46 PDT 2017 ON: 20.00 +20.0 19.61 - 2.7 34.7 02 14 4804 0925 Alarm State:  0
Thu May 25 01:50:44 PDT 2017 ON: 20.01 +20.0 19.67 - 4.3 33.6 07 14 4722 0929 Alarm State:  0
Thu May 25 01:49:43 PDT 2017 ON: 20.01 +20.0 19.68 - 4.3 33.8 05 14 4801 090D Alarm State:  0
Thu May 25 01:48:32 PDT 2017 ON: 19.99 +20.0 19.62 - 2.4 34.8 07 14 4816 091A Alarm State:  0
Thu May 25 01:47:30 PDT 2017 ON: 20.01 +20.0 19.66 - 3.4 34.4 05 14 4730 0926 Alarm State:  0
Thu May 25 01:46:29 PDT 2017 ON: 20.00 +20.0 19.65 - 3.8 34.5 00 14 471A 090A Alarm State:  0
Thu May 25 01:45:27 PDT 2017 ON: 20.02 +20.0 19.70 - 4.5 33.9 0A 13 470F 0925 Alarm State:  0
Thu May 25 01:44:26 PDT 2017 ON: 20.00 +20.0 19.65 - 3.4 34.2 02 14 4717 0912 Alarm State:  0
Thu May 25 01:43:24 PDT 2017 ON: 20.00 +20.0 19.67 - 4.1 33.7 07 14 470C 090C Alarm State:  0
Thu May 25 01:42:23 PDT 2017 ON: 20.03 +20.0 19.63 - 3.1 34.2 00 14 472A 090A Alarm State:  0
Thu May 25 01:41:21 PDT 2017 ON: 20.00 +20.0 19.64 - 3.9 34.0 07 14 4727 092C Alarm State:  0
Thu May 25 01:40:20 PDT 2017 ON: 20.01 +20.0 19.68 - 3.9 34.1 08 14 4818 0920 Alarm State:  0
Thu May 25 01:39:18 PDT 2017 ON: 20.03 +20.0 19.63 - 2.7 34.6 07 14 4814 091F Alarm State:  0
Thu May 25 01:38:17 PDT 2017 ON: 20.02 +20.0 19.66 - 3.7 34.6 0A 14 4726 0927 Alarm State:  0
Thu May 25 01:37:15 PDT 2017 ON: 20.00 +20.0 19.69 - 4.6 34.0 0D 14 470A 0A01 Alarm State:  0
Thu May 25 01:36:14 PDT 2017 ON: 19.98 +20.0 19.61 - 2.5 34.7 02 14 4721 0928 Alarm State:  0
Thu May 25 01:35:12 PDT 2017 ON: 19.98 +20.0 19.66 - 4.2 34.0 00 14 4704 0928 Alarm State:  0
Thu May 25 01:34:11 PDT 2017 ON: 20.01 +20.0 19.63 - 2.9 34.3 00 14 472E 0914 Alarm State:  0
Thu May 25 01:33:09 PDT 2017 ON: 19.98 +20.0 19.62 - 3.5 34.5 05 14 472D 0A04 Alarm State:  0
Thu May 25 01:32:08 PDT 2017 ON: 20.01 +20.0 19.68 - 4.0 34.1 0A 14 4814 092E Alarm State:  0
Thu May 25 01:31:06 PDT 2017 ON: 20.02 +20.0 19.63 - 2.8 34.4 00 14 4829 0906 Alarm State:  0
Thu May 25 01:30:05 PDT 2017 ON: 20.02 +20.0 19.70 - 4.4 33.9 0D 13 4724 091B Alarm State:  0
Thu May 25 01:29:03 PDT 2017 ON: 20.01 +20.0 19.68 - 4.3 33.8 00 14 470D 0923 Alarm State:  0
Thu May 25 01:28:02 PDT 2017 ON: 20.03 +20.0 19.63 - 2.7 34.7 07 14 470F 0916 Alarm State:  0
Thu May 25 01:27:00 PDT 2017 ON: 20.03 +20.0 19.69 - 4.3 33.8 0D 14 4618 0922 Alarm State:  0
Thu May 25 01:25:59 PDT 2017 ON: 20.02 +20.0 19.70 - 4.6 33.5 00 14 460E 0A21 Alarm State:  0
Thu May 25 01:24:57 PDT 2017 ON: 19.97 +20.0 19.64 - 3.3 34.5 00 14 4617 0B05 Alarm State:  0
Thu May 25 01:23:56 PDT 2017 ON: 19.99 +20.0 19.71 - 4.7 33.7 0D 13 4704 0A2B Alarm State:  0
Thu May 25 01:22:54 PDT 2017 ON: 19.96 +20.0 19.59 - 2.5 34.9 01 14 4800 0A04 Alarm State:  0
Thu May 25 01:21:53 PDT 2017 ON: 20.03 +20.0 19.71 - 4.5 34.0 0D 13 472B 0900 Alarm State:  0
Thu May 25 01:20:51 PDT 2017 ON: 20.00 +20.0 19.62 - 2.3 34.7 0A 14 480D 090D Alarm State:  0
Thu May 25 01:19:50 PDT 2017 ON: 20.00 +20.0 19.66 - 4.2 33.9 00 14 4716 0916 Alarm State:  0
Thu May 25 01:18:48 PDT 2017 ON: 19.99 +20.0 19.62 - 2.5 34.6 00 14 4731 0911 Alarm State:  0
Thu May 25 01:17:47 PDT 2017 ON: 19.99 +20.0 19.66 - 4.0 34.3 05 14 4717 0914 Alarm State:  0
Thu May 25 01:16:45 PDT 2017 ON: 20.00 +20.0 19.70 - 4.7 33.8 0A 13 471A 0927 Alarm State:  0
Thu May 25 01:15:44 PDT 2017 ON: 19.97 +20.0 19.58 - 2.1 34.9 07 14 4813 091A Alarm State:  0
Thu May 25 01:14:42 PDT 2017 ON: 20.00 +20.0 19.66 - 3.9 34.2 00 14 4729 091E Alarm State:  0
Thu May 25 01:13:41 PDT 2017 ON: 20.01 +20.0 19.70 - 4.2 34.1 08 13 472B 090F Alarm State:  0
Thu May 25 01:12:39 PDT 2017 ON: 20.01 +20.0 19.69 - 4.2 34.0 08 14 470C 0923 Alarm State:  0
Thu May 25 01:11:38 PDT 2017 ON: 20.01 +20.0 19.62 - 2.6 34.5 02 14 470C 0914 Alarm State:  0
Thu May 25 01:10:36 PDT 2017 ON: 19.98 +20.0 19.64 - 3.9 34.0 00 14 4620 0A16 Alarm State:  0
Thu May 25 01:09:35 PDT 2017 ON: 20.03 +20.0 19.69 - 4.3 33.6 08 14 470F 0A12 Alarm State:  0
Thu May 25 01:08:33 PDT 2017 ON: 19.96 +20.0 19.61 - 3.5 34.1 00 14 4720 0A17 Alarm State:  0
Thu May 25 01:07:32 PDT 2017 ON: 20.03 +20.0 19.68 - 3.4 34.1 0A 14 4811 0902 Alarm State:  0
Thu May 25 01:06:30 PDT 2017 ON: 19.98 +20.0 19.65 - 3.6 34.5 00 14 4800 0925 Alarm State:  0
Thu May 25 01:05:29 PDT 2017 ON: 20.04 +20.0 19.69 - 4.0 34.1 0D 14 4804 0912 Alarm State:  0
Thu May 25 01:04:27 PDT 2017 ON: 20.04 +20.0 19.70 - 4.8 33.8 0D 13 472E 0908 Alarm State:  0
Thu May 25 01:03:26 PDT 2017 ON: 20.01 +20.0 19.62 - 3.0 34.4 00 14 4803 091A Alarm State:  0
Thu May 25 01:02:24 PDT 2017 ON: 20.00 +20.0 19.63 - 3.6 34.2 07 14 4729 0916 Alarm State:  0
Thu May 25 01:01:23 PDT 2017 ON: 20.02 +20.0 19.67 - 3.7 34.0 00 14 4814 0910 Alarm State:  0
Thu May 25 01:00:21 PDT 2017 ON: 20.02 +20.0 19.65 - 3.6 34.1 00 14 4732 0914 Alarm State:  0
Thu May 25 00:59:20 PDT 2017 ON: 19.98 +20.0 19.64 - 3.4 34.5 00 14 4807 0922 Alarm State:  0
Thu May 25 00:58:18 PDT 2017 ON: 20.00 +20.0 19.68 - 4.0 34.4 0A 14 480E 0900 Alarm State:  0
Thu May 25 00:57:17 PDT 2017 ON: 20.00 +20.0 19.69 - 4.6 33.8 0D 14 471B 0915 Alarm State:  0
Thu May 25 00:56:15 PDT 2017 ON: 19.97 +20.0 19.59 - 2.3 34.7 00 14 480D 090C Alarm State:  0
Thu May 25 00:55:14 PDT 2017 ON: 20.01 +20.0 19.65 - 3.3 34.3 00 14 4805 0909 Alarm State:  0
Thu May 25 00:54:12 PDT 2017 ON: 20.00 +20.0 19.64 - 3.2 34.3 00 14 4725 0915 Alarm State:  0
Thu May 25 00:53:11 PDT 2017 ON: 19.99 +20.0 19.65 - 3.3 34.6 00 14 4717 091C Alarm State:  0
Thu May 25 00:52:09 PDT 2017 ON: 19.98 +20.0 19.67 - 3.8 34.3 00 14 471C 0916 Alarm State:  0
Thu May 25 00:51:08 PDT 2017 ON: 20.02 +20.0 19.71 - 5.0 33.7 0D 13 471A 0A05 Alarm State:  0
Thu May 25 00:50:06 PDT 2017 ON: 19.98 +20.0 19.58 - 2.2 34.9 07 14 4802 092E Alarm State:  0
Thu May 25 00:49:05 PDT 2017 ON: 20.01 +20.0 19.64 - 3.7 34.6 05 14 4721 0906 Alarm State:  0
Thu May 25 00:48:03 PDT 2017 ON: 20.02 +20.0 19.65 - 3.3 34.7 02 14 4704 090C Alarm State:  0
Thu May 25 00:47:02 PDT 2017 ON: 19.99 +20.0 19.68 - 4.4 33.7 00 14 461D 0A15 Alarm State:  0
Thu May 25 00:46:00 PDT 2017 ON: 20.01 +20.0 19.69 - 4.7 33.6 0A 14 4705 0A18 Alarm State:  0
Thu May 25 00:44:59 PDT 2017 ON: 19.97 +20.0 19.61 - 2.8 34.8 0C 14 4800 0A02 Alarm State:  0
Thu May 25 00:43:57 PDT 2017 ON: 19.98 +20.0 19.66 - 4.0 34.2 05 14 4805 0924 Alarm State:  0
Thu May 25 00:42:56 PDT 2017 ON: 20.03 +20.0 19.71 - 4.9 33.7 0A 13 4801 0917 Alarm State:  0
Thu May 25 00:41:54 PDT 2017 ON: 19.98 +20.0 19.61 - 2.9 34.5 05 14 4810 0929 Alarm State:  0
Thu May 25 00:40:53 PDT 2017 ON: 20.02 +20.0 19.61 - 2.7 34.5 07 14 4812 0918 Alarm State:  0
Thu May 25 00:39:51 PDT 2017 ON: 20.00 +20.0 19.68 - 3.9 34.4 07 14 4720 0926 Alarm State:  0
Thu May 25 00:38:50 PDT 2017 ON: 20.05 +20.0 19.72 - 5.3 33.6 0D 12 4706 0902 Alarm State:  0
Thu May 25 00:37:48 PDT 2017 ON: 19.99 +20.0 19.59 - 2.7 34.6 09 14 4715 0913 Alarm State:  0
Thu May 25 00:36:47 PDT 2017 ON: 19.99 +20.0 19.65 - 4.2 33.9 0A 14 470F 0A0A Alarm State:  0
Thu May 25 00:35:45 PDT 2017 ON: 19.98 +20.0 19.59 - 2.3 34.5 00 14 4815 0920 Alarm State:  0
Thu May 25 00:34:44 PDT 2017 ON: 20.00 +20.0 19.67 - 3.9 34.0 00 14 4805 0921 Alarm State:  0
Thu May 25 00:33:42 PDT 2017 ON: 20.01 +20.0 19.68 - 4.2 34.2 0D 14 480C 0907 Alarm State:  0
Thu May 25 00:32:41 PDT 2017 ON: 19.99 +20.0 19.63 - 2.9 34.4 00 14 4802 0908 Alarm State:  0
Thu May 25 00:31:39 PDT 2017 ON: 19.97 +20.0 19.65 - 4.1 34.0 05 14 4730 092E Alarm State:  0
Thu May 25 00:30:38 PDT 2017 ON: 19.99 +20.0 19.60 - 2.1 34.7 02 14 4900 0902 Alarm State:  0
Thu May 25 00:29:36 PDT 2017 ON: 20.01 +20.0 19.63 - 3.3 34.4 00 14 4828 0902 Alarm State:  0
Thu May 25 00:28:35 PDT 2017 ON: 20.01 +20.0 19.65 - 2.8 34.5 00 14 482C 091E Alarm State:  0
Thu May 25 00:27:33 PDT 2017 ON: 20.02 +20.0 19.67 - 4.0 34.0 00 14 472E 0909 Alarm State:  0
Thu May 25 00:26:32 PDT 2017 ON: 19.99 +20.0 19.63 - 3.3 34.7 00 14 4722 0929 Alarm State:  0
Thu May 25 00:25:30 PDT 2017 ON: 20.00 +20.0 19.69 - 4.9 33.7 0D 14 470B 0929 Alarm State:  0
Thu May 25 00:24:29 PDT 2017 ON: 19.97 +20.0 19.61 - 2.7 34.9 05 14 4802 0920 Alarm State:  0
Thu May 25 00:23:27 PDT 2017 ON: 20.02 +20.0 19.69 - 4.2 34.3 0A 14 471C 091A Alarm State:  0
Thu May 25 00:22:26 PDT 2017 ON: 20.00 +20.0 19.69 - 4.5 33.9 0D 14 4718 091D Alarm State:  0
Thu May 25 00:21:24 PDT 2017 ON: 19.98 +20.0 19.60 - 2.3 34.7 00 14 4812 090C Alarm State:  0
Thu May 25 00:20:23 PDT 2017 ON: 20.02 +20.0 19.65 - 3.5 34.6 0C 14 472E 0908 Alarm State:  0
Thu May 25 00:19:21 PDT 2017 ON: 20.01 +20.0 19.66 - 3.9 34.3 07 14 4724 0905 Alarm State:  0
Thu May 25 00:18:20 PDT 2017 ON: 20.02 +20.0 19.69 - 4.5 33.8 0D 14 4802 0916 Alarm State:  0
Thu May 25 00:17:18 PDT 2017 ON: 20.02 +20.0 19.59 - 2.5 34.5 01 14 481A 0924 Alarm State:  0
Thu May 25 00:16:17 PDT 2017 ON: 20.00 +20.0 19.67 - 4.1 33.9 07 14 4730 092C Alarm State:  0
Thu May 25 00:15:15 PDT 2017 ON: 20.03 +20.0 19.64 - 3.2 34.4 00 14 4817 0903 Alarm State:  0
Thu May 25 00:14:14 PDT 2017 ON: 20.01 +20.0 19.69 - 4.4 34.0 0D 14 472F 090F Alarm State:  0
Thu May 25 00:13:12 PDT 2017 ON: 20.02 +20.0 19.67 - 4.1 34.0 07 14 480E 0915 Alarm State:  0
Thu May 25 00:12:11 PDT 2017 ON: 20.04 +20.0 19.71 - 4.9 33.8 0D 13 4807 0928 Alarm State:  0
Thu May 25 00:11:09 PDT 2017 ON: 20.02 +20.0 19.63 - 2.9 34.7 0C 14 4801 0925 Alarm State:  0
Thu May 25 00:10:08 PDT 2017 ON: 20.00 +20.0 19.66 - 4.0 34.4 0C 14 4719 0A00 Alarm State:  0
Thu May 25 00:09:07 PDT 2017 ON: 20.02 +20.0 19.69 - 4.5 33.8 0D 14 471D 0A1E Alarm State:  0
Thu May 25 00:08:05 PDT 2017 ON: 19.98 +20.0 19.57 - 2.0 34.8 07 14 481F 0929 Alarm State:  0
Thu May 25 00:07:04 PDT 2017 ON: 20.03 +20.0 19.67 - 4.2 34.1 02 14 4801 0928 Alarm State:  0
Thu May 25 00:06:02 PDT 2017 ON: 20.01 +20.0 19.68 - 4.5 33.7 0D 14 4804 0924 Alarm State:  0
Thu May 25 00:05:01 PDT 2017 ON: 20.03 +20.0 19.64 - 3.4 34.2 00 14 4814 0907 Alarm State:  0
Thu May 25 00:03:59 PDT 2017 ON: 20.00 +20.0 19.64 - 3.2 34.7 0C 14 480B 0924 Alarm State:  0
Thu May 25 00:02:58 PDT 2017 ON: 20.02 +20.0 19.67 - 4.6 34.0 05 14 4724 0925 Alarm State:  0
Thu May 25 00:01:56 PDT 2017 ON: 20.00 +20.0 19.60 - 2.5 34.7 0D 14 480E 0929 Alarm State:  0
Thu May 25 00:00:55 PDT 2017 ON: 20.00 +20.0 19.66 - 4.1 33.9 00 14 4802 092A Alarm State:  0
Wed May 24 23:59:53 PDT 2017 ON: 20.05 +20.0 19.66 - 3.6 34.1 05 14 4817 0910 Alarm State:  0
Wed May 24 23:58:52 PDT 2017 ON: 19.99 +20.0 19.65 - 3.4 34.4 00 14 4803 090F Alarm State:  0
Wed May 24 23:57:50 PDT 2017 ON: 20.04 +20.0 19.69 - 4.4 33.9 08 14 4800 0922 Alarm State:  0
Wed May 24 23:56:49 PDT 2017 ON: 19.98 +20.0 19.61 - 2.7 34.8 05 14 4727 091D Alarm State:  0
Wed May 24 23:55:47 PDT 2017 ON: 20.01 +20.0 19.69 - 4.4 33.9 0A 14 4710 091F Alarm State:  0
Wed May 24 23:54:46 PDT 2017 ON: 20.01 +20.0 19.60 - 2.6 34.4 01 14 472C 0900 Alarm State:  0
Wed May 24 23:53:44 PDT 2017 ON: 20.00 +20.0 19.66 - 3.4 34.3 00 14 4709 0912 Alarm State:  0
Wed May 24 23:52:43 PDT 2017 ON: 19.98 +20.0 19.65 - 3.7 34.2 07 14 4715 0931 Alarm State:  0
Wed May 24 23:51:41 PDT 2017 ON: 20.00 +20.0 19.69 - 4.7 33.8 0D 14 4801 0926 Alarm State:  0
Wed May 24 23:50:40 PDT 2017 ON: 20.00 +20.0 19.60 - 2.4 34.9 07 14 482D 090A Alarm State:  0
Wed May 24 23:49:38 PDT 2017 ON: 20.00 +20.0 19.67 - 4.2 34.0 0D 14 4826 0900 Alarm State:  0
Wed May 24 23:48:37 PDT 2017 ON: 20.01 +20.0 19.62 - 2.6 34.5 00 14 490B 090A Alarm State:  0
Wed May 24 23:47:35 PDT 2017 ON: 20.03 +20.0 19.67 - 3.6 34.3 00 14 4815 091A Alarm State:  0
Wed May 24 23:46:34 PDT 2017 ON: 19.99 +20.0 19.65 - 3.0 34.4 00 14 4815 0917 Alarm State:  0
Wed May 24 23:45:32 PDT 2017 ON: 20.00 +20.0 19.65 - 3.3 34.3 00 14 4810 0915 Alarm State:  0
Wed May 24 23:44:31 PDT 2017 ON: 19.99 +20.0 19.64 - 3.5 34.6 0C 14 480C 0910 Alarm State:  0
Wed May 24 23:43:29 PDT 2017 ON: 20.03 +20.0 19.71 - 4.8 33.8 0D 13 472E 0908 Alarm State:  0
Wed May 24 23:42:28 PDT 2017 ON: 20.04 +20.0 19.68 - 4.0 33.9 02 14 4728 0907 Alarm State:  0
Wed May 24 23:41:26 PDT 2017 ON: 20.01 +20.0 19.63 - 2.8 34.5 00 14 4808 0902 Alarm State:  0
Wed May 24 23:40:25 PDT 2017 ON: 20.00 +20.0 19.61 - 2.9 34.8 0C 14 4802 0907 Alarm State:  0
Wed May 24 23:39:23 PDT 2017 ON: 20.02 +20.0 19.67 - 4.1 34.0 02 14 4720 0905 Alarm State:  0
Wed May 24 23:38:22 PDT 2017 ON: 20.05 +20.0 19.71 - 4.9 33.4 0A 13 4723 0918 Alarm State:  0
Wed May 24 23:37:20 PDT 2017 ON: 19.99 +20.0 19.64 - 3.2 34.7 05 14 4802 091F Alarm State:  0
Wed May 24 23:36:19 PDT 2017 ON: 20.02 +20.0 19.67 - 3.7 34.5 05 14 480D 0905 Alarm State:  0
Wed May 24 23:35:17 PDT 2017 ON: 20.02 +20.0 19.70 - 5.3 33.4 0D 13 471C 090E Alarm State:  0
Wed May 24 23:34:16 PDT 2017 ON: 19.99 +20.0 19.60 - 2.6 34.8 04 14 4731 090F Alarm State:  0
Wed May 24 23:33:14 PDT 2017 ON: 19.99 +20.0 19.67 - 4.1 33.8 00 14 4800 0929 Alarm State:  0
Wed May 24 23:32:13 PDT 2017 ON: 20.02 +20.0 19.68 - 4.3 33.7 05 14 480F 090D Alarm State:  0
Wed May 24 23:31:11 PDT 2017 ON: 20.02 +20.0 19.71 - 4.3 33.9 0D 13 4720 0918 Alarm State:  0
Wed May 24 23:30:10 PDT 2017 ON: 20.00 +20.0 19.63 - 3.2 34.2 00 14 471F 090A Alarm State:  0
Wed May 24 23:29:08 PDT 2017 ON: 20.01 +20.0 19.66 - 3.9 34.1 0D 14 470F 090D Alarm State:  0
Wed May 24 23:28:07 PDT 2017 ON: 20.03 +20.0 19.71 - 4.7 33.8 0D 13 471A 091C Alarm State:  0
Wed May 24 23:27:05 PDT 2017 ON: 20.00 +20.0 19.62 - 2.9 34.4 00 14 4726 0909 Alarm State:  0
Wed May 24 23:26:04 PDT 2017 ON: 19.99 +20.0 19.66 - 4.3 34.0 00 14 4717 092A Alarm State:  0
Wed May 24 23:25:02 PDT 2017 ON: 19.98 +20.0 19.59 - 2.0 34.7 04 14 4822 0901 Alarm State:  0
Wed May 24 23:24:01 PDT 2017 ON: 19.99 +20.0 19.66 - 4.2 33.8 00 14 480B 0903 Alarm State:  0
Wed May 24 23:22:59 PDT 2017 ON: 20.04 +20.0 19.67 - 4.3 33.9 00 14 480F 091D Alarm State:  0
Wed May 24 23:21:58 PDT 2017 ON: 20.00 +20.0 19.63 - 3.0 34.6 07 14 4800 0919 Alarm State:  0
Wed May 24 23:20:56 PDT 2017 ON: 20.00 +20.0 19.66 - 4.5 33.8 00 14 4721 0A16 Alarm State:  0
Wed May 24 23:19:55 PDT 2017 ON: 20.00 +20.0 19.60 - 2.2 34.7 0A 14 4827 0917 Alarm State:  0
Wed May 24 23:18:54 PDT 2017 ON: 20.02 +20.0 19.64 - 3.1 34.6 00 14 4815 091C Alarm State:  0
Wed May 24 23:17:52 PDT 2017 ON: 20.02 +20.0 19.66 - 3.8 34.5 00 14 4723 0905 Alarm State:  0
Wed May 24 23:16:51 PDT 2017 ON: 19.99 +20.0 19.64 - 4.0 34.1 00 14 4721 092D Alarm State:  0
Wed May 24 23:15:49 PDT 2017 ON: 20.03 +20.0 19.61 - 2.6 34.4 00 14 481D 091D Alarm State:  0
Wed May 24 23:14:48 PDT 2017 ON: 20.01 +20.0 19.68 - 4.2 34.0 00 14 4726 0907 Alarm State:  0
Wed May 24 23:13:46 PDT 2017 ON: 20.00 +20.0 19.63 - 2.9 34.8 05 14 4725 091E Alarm State:  0
Wed May 24 23:12:45 PDT 2017 ON: 19.98 +20.0 19.67 - 4.6 33.8 05 14 4713 0A19 Alarm State:  0
Wed May 24 23:11:43 PDT 2017 ON: 19.98 +20.0 19.60 - 2.2 34.8 02 14 4815 0924 Alarm State:  0
Wed May 24 23:10:42 PDT 2017 ON: 19.99 +20.0 19.67 - 4.2 33.9 00 14 4732 091F Alarm State:  0
Wed May 24 23:09:40 PDT 2017 ON: 20.00 +20.0 19.71 - 4.4 33.7 0D 13 4808 0911 Alarm State:  0
Wed May 24 23:08:39 PDT 2017 ON: 20.04 +20.0 19.68 - 4.0 34.1 0D 14 480A 0908 Alarm State:  0
Wed May 24 23:07:37 PDT 2017 ON: 19.99 +20.0 19.62 - 2.9 34.8 0A 14 4801 092F Alarm State:  0
Wed May 24 23:06:36 PDT 2017 ON: 20.02 +20.0 19.69 - 4.6 33.8 0A 14 4718 0905 Alarm State:  0
Wed May 24 23:05:34 PDT 2017 ON: 20.00 +20.0 19.61 - 2.6 34.6 00 14 472B 0912 Alarm State:  0
Wed May 24 23:04:33 PDT 2017 ON: 19.99 +20.0 19.67 - 3.9 34.4 05 14 470F 091F Alarm State:  0
Wed May 24 23:03:31 PDT 2017 ON: 20.00 +20.0 19.69 - 4.8 33.6 0D 14 4702 091B Alarm State:  0
Wed May 24 23:02:30 PDT 2017 ON: 20.00 +20.0 19.62 - 2.7 34.8 05 14 472C 090F Alarm State:  0
Wed May 24 23:01:28 PDT 2017 ON: 20.00 +20.0 19.67 - 4.4 34.0 0A 14 4713 0913 Alarm State:  0
Wed May 24 23:00:27 PDT 2017 ON: 20.00 +20.0 19.61 - 2.2 34.7 05 14 4807 090A Alarm State:  0
Wed May 24 22:59:25 PDT 2017 ON: 20.01 +20.0 19.66 - 3.8 34.4 00 14 471E 0913 Alarm State:  0
Wed May 24 22:58:24 PDT 2017 ON: 20.03 +20.0 19.72 - 5.3 33.4 0A 12 4709 0913 Alarm State:  0
Wed May 24 22:57:12 PDT 2017 ON: 19.99 +20.0 19.63 - 2.9 34.7 02 14 471B 092A Alarm State:  0
Wed May 24 22:56:11 PDT 2017 ON: 19.99 +20.0 19.68 - 4.6 33.9 00 14 470E 0928 Alarm State:  0
Wed May 24 22:55:09 PDT 2017 ON: 19.99 +20.0 19.57 - 2.0 34.9 07 14 480D 0917 Alarm State:  0
Wed May 24 22:54:08 PDT 2017 ON: 20.02 +20.0 19.69 - 4.1 34.4 0D 14 4729 0915 Alarm State:  0
Wed May 24 22:53:06 PDT 2017 ON: 19.99 +20.0 19.68 - 4.1 34.5 00 14 4711 0922 Alarm State:  0
Wed May 24 22:52:05 PDT 2017 ON: 20.00 +20.0 19.67 - 4.2 33.9 00 14 4702 092C Alarm State:  0
Wed May 24 22:51:03 PDT 2017 ON: 20.00 +20.0 19.61 - 2.6 34.5 00 14 472A 0914 Alarm State:  0
Wed May 24 22:50:02 PDT 2017 ON: 20.01 +20.0 19.65 - 3.7 34.3 05 14 470F 091C Alarm State:  0
Wed May 24 22:49:00 PDT 2017 ON: 20.01 +20.0 19.60 - 2.9 34.7 04 14 4717 0903 Alarm State:  0
Wed May 24 22:47:49 PDT 2017 ON: 19.97 +20.0 19.66 - 3.7 34.2 00 14 4728 091C Alarm State:  0
Wed May 24 22:46:47 PDT 2017 ON: 20.03 +20.0 19.66 - 3.3 34.4 05 14 4817 090E Alarm State:  0
Wed May 24 22:45:46 PDT 2017 ON: 20.01 +20.0 19.69 - 4.2 34.3 0D 14 471F 091A Alarm State:  0
Wed May 24 22:44:44 PDT 2017 ON: 19.99 +20.0 19.67 - 4.1 34.4 05 14 4723 090F Alarm State:  0
Wed May 24 22:43:43 PDT 2017 ON: 20.00 +20.0 19.67 - 4.3 33.9 00 14 4726 0A03 Alarm State:  0
Wed May 24 22:42:41 PDT 2017 ON: 19.99 +20.0 19.61 - 2.1 34.7 00 14 481D 091F Alarm State:  0
Wed May 24 22:41:40 PDT 2017 ON: 19.99 +20.0 19.67 - 4.2 34.1 00 14 4800 0904 Alarm State:  0
Wed May 24 22:40:38 PDT 2017 ON: 20.04 +20.0 19.67 - 4.5 33.4 00 14 480A 0912 Alarm State:  0
Wed May 24 22:39:37 PDT 2017 ON: 19.99 +20.0 19.62 - 3.4 34.5 05 14 4825 0919 Alarm State:  0
Wed May 24 22:38:35 PDT 2017 ON: 20.00 +20.0 19.70 - 4.3 34.0 0A 13 482F 0923 Alarm State:  0
Wed May 24 22:37:34 PDT 2017 ON: 20.01 +20.0 19.66 - 3.9 34.0 00 14 4814 0904 Alarm State:  0
Wed May 24 22:36:32 PDT 2017 ON: 20.03 +20.0 19.68 - 4.4 33.5 00 14 472B 0911 Alarm State:  0
Wed May 24 22:35:31 PDT 2017 ON: 19.99 +20.0 19.63 - 3.3 34.4 07 14 4730 092D Alarm State:  0
Wed May 24 22:34:29 PDT 2017 ON: 20.03 +20.0 19.69 - 4.5 33.6 05 14 4809 0917 Alarm State:  0
Wed May 24 22:33:28 PDT 2017 ON: 20.01 +20.0 19.64 - 3.6 34.1 00 14 472F 0917 Alarm State:  0
Wed May 24 22:32:26 PDT 2017 ON: 19.97 +20.0 19.60 - 2.5 34.7 07 14 4804 0921 Alarm State:  0
Wed May 24 22:31:25 PDT 2017 ON: 19.99 +20.0 19.66 - 4.0 33.9 05 14 4801 0913 Alarm State:  0
Wed May 24 22:30:23 PDT 2017 ON: 20.03 +20.0 19.70 - 4.6 33.9 0D 13 4807 091B Alarm State:  0
Wed May 24 22:29:22 PDT 2017 ON: 20.01 +20.0 19.64 - 3.3 34.3 00 14 4727 091F Alarm State:  0
Wed May 24 22:28:21 PDT 2017 ON: 19.98 +20.0 19.65 - 4.1 33.7 05 14 471B 0A12 Alarm State:  0
Wed May 24 22:27:19 PDT 2017 ON: 20.03 +20.0 19.70 - 4.6 33.6 05 13 4805 090A Alarm State:  0
Wed May 24 22:26:18 PDT 2017 ON: 19.99 +20.0 19.62 - 3.1 34.8 02 14 480F 0927 Alarm State:  0
Wed May 24 22:25:06 PDT 2017 ON: 20.00 +20.0 19.65 - 3.5 34.3 00 14 4804 0923 Alarm State:  0
Wed May 24 22:24:05 PDT 2017 ON: 20.00 +20.0 19.65 - 3.8 34.1 0A 14 472B 091A Alarm State:  0
Wed May 24 22:23:03 PDT 2017 ON: 20.03 +20.0 19.69 - 4.8 33.5 0D 14 4807 091D Alarm State:  0
Wed May 24 22:22:02 PDT 2017 ON: 19.99 +20.0 19.61 - 2.8 34.6 00 14 4813 0908 Alarm State:  0
Wed May 24 22:21:00 PDT 2017 ON: 20.00 +20.0 19.62 - 2.6 34.6 00 14 4816 0902 Alarm State:  0
Wed May 24 22:19:59 PDT 2017 ON: 20.00 +20.0 19.65 - 3.4 34.6 02 14 471D 0917 Alarm State:  0
Wed May 24 22:18:57 PDT 2017 ON: 19.99 +20.0 19.66 - 4.5 33.8 05 14 470A 0921 Alarm State:  0
Wed May 24 22:17:56 PDT 2017 ON: 20.01 +20.0 19.59 - 2.2 34.7 00 14 4811 0901 Alarm State:  0
Wed May 24 22:16:54 PDT 2017 ON: 20.02 +20.0 19.67 - 4.1 34.1 00 14 4729 0909 Alarm State:  0
Wed May 24 22:15:53 PDT 2017 ON: 20.00 +20.0 19.71 - 5.0 33.6 08 13 4725 0925 Alarm State:  0
Wed May 24 22:14:51 PDT 2017 ON: 19.99 +20.0 19.61 - 2.7 34.6 00 14 4805 0907 Alarm State:  0
Wed May 24 22:13:50 PDT 2017 ON: 19.99 +20.0 19.62 - 2.9 34.6 07 14 4807 0902 Alarm State:  0
Wed May 24 22:12:48 PDT 2017 ON: 20.01 +20.0 19.68 - 4.3 33.8 07 14 471F 092F Alarm State:  0
Wed May 24 22:11:47 PDT 2017 ON: 19.99 +20.0 19.59 - 2.2 34.8 07 14 481A 0924 Alarm State:  0
Wed May 24 22:10:35 PDT 2017 ON: 19.98 +20.0 19.66 - 4.1 34.1 00 14 471C 090D Alarm State:  0
Wed May 24 22:09:34 PDT 2017 ON: 20.02 +20.0 19.70 - 4.5 34.0 05 13 4713 0907 Alarm State:  0
Wed May 24 22:08:32 PDT 2017 ON: 20.01 +20.0 19.72 - 5.1 33.5 0D 12 4628 0914 Alarm State:  0
Wed May 24 22:07:31 PDT 2017 ON: 19.98 +20.0 19.61 - 2.7 34.8 02 14 4708 092C Alarm State:  0
Wed May 24 22:06:29 PDT 2017 ON: 20.01 +20.0 19.66 - 4.3 34.0 00 14 4704 0A23 Alarm State:  0
Wed May 24 22:05:28 PDT 2017 ON: 20.02 +20.0 19.62 - 3.1 34.3 00 14 472B 0A14 Alarm State:  0
Wed May 24 22:04:26 PDT 2017 ON: 19.96 +20.0 19.62 - 3.8 34.1 00 14 4806 0A27 Alarm State:  0
Wed May 24 22:03:25 PDT 2017 ON: 19.99 +20.0 19.59 - 2.4 34.6 00 14 490C 0924 Alarm State:  0
Wed May 24 22:02:23 PDT 2017 ON: 20.00 +20.0 19.64 - 2.9 34.6 07 14 482D 0902 Alarm State:  0
Wed May 24 22:01:22 PDT 2017 ON: 20.00 +20.0 19.67 - 3.9 34.3 05 14 4814 0914 Alarm State:  0
Wed May 24 22:00:20 PDT 2017 ON: 20.01 +20.0 19.62 - 2.8 34.8 05 14 4824 0922 Alarm State:  0
Wed May 24 21:59:19 PDT 2017 ON: 20.02 +20.0 19.68 - 3.9 34.4 0D 14 481B 091E Alarm State:  0
Wed May 24 21:58:17 PDT 2017 ON: 20.00 +20.0 19.68 - 4.0 33.9 0A 14 481B 0913 Alarm State:  0
Wed May 24 21:57:16 PDT 2017 ON: 20.04 +20.0 19.68 - 4.2 34.0 03 14 4814 0905 Alarm State:  0
Wed May 24 21:56:14 PDT 2017 ON: 20.02 +20.0 19.69 - 4.5 34.0 0A 14 4715 091A Alarm State:  0
Wed May 24 21:55:13 PDT 2017 ON: 20.02 +20.0 19.66 - 4.0 33.9 00 14 4631 0926 Alarm State:  0
Wed May 24 21:54:11 PDT 2017 ON: 19.98 +20.0 19.65 - 3.9 34.2 05 14 4625 0A17 Alarm State:  0
Wed May 24 21:53:10 PDT 2017 ON: 20.02 +20.0 19.65 - 3.8 33.9 00 14 4717 0A0A Alarm State:  0
Wed May 24 21:52:08 PDT 2017 ON: 19.99 +20.0 19.64 - 3.7 34.1 00 14 4721 0A18 Alarm State:  0
Wed May 24 21:51:07 PDT 2017 ON: 20.03 +20.0 19.66 - 3.8 34.0 00 14 4815 0902 Alarm State:  0
Wed May 24 21:50:05 PDT 2017 ON: 19.99 +20.0 19.61 - 3.0 34.7 05 14 4803 0905 Alarm State:  0
Wed May 24 21:49:04 PDT 2017 ON: 20.03 +20.0 19.67 - 4.4 33.6 07 14 471B 090D Alarm State:  0
Wed May 24 21:48:02 PDT 2017 ON: 20.02 +20.0 19.67 - 4.1 34.0 00 14 4731 0915 Alarm State:  0
Wed May 24 21:47:01 PDT 2017 ON: 20.00 +20.0 19.60 - 2.7 34.5 01 14 472E 0907 Alarm State:  0
Wed May 24 21:45:59 PDT 2017 ON: 19.98 +20.0 19.67 - 4.5 33.8 00 14 4714 0A0A Alarm State:  0
Wed May 24 21:44:58 PDT 2017 ON: 19.99 +20.0 19.59 - 2.2 34.7 00 14 4818 0915 Alarm State:  0
Wed May 24 21:43:56 PDT 2017 ON: 20.01 +20.0 19.69 - 3.9 34.3 0D 14 4723 0920 Alarm State:  0
Wed May 24 21:42:55 PDT 2017 ON: 19.98 +20.0 19.64 - 3.5 34.4 00 14 472C 0912 Alarm State:  0
Wed May 24 21:41:53 PDT 2017 ON: 20.02 +20.0 19.69 - 4.4 34.0 0D 14 4809 0914 Alarm State:  0
Wed May 24 21:40:52 PDT 2017 ON: 19.99 +20.0 19.67 - 3.4 34.4 02 14 472F 090A Alarm State:  0
Wed May 24 21:39:50 PDT 2017 ON: 19.99 +20.0 19.62 - 2.9 34.8 0D 14 4818 0912 Alarm State:  0
Wed May 24 21:38:49 PDT 2017 ON: 20.00 +20.0 19.67 - 4.3 33.9 07 14 480D 0906 Alarm State:  0
Wed May 24 21:37:47 PDT 2017 ON: 20.03 +20.0 19.68 - 4.3 33.8 0D 14 481F 0914 Alarm State:  0
Wed May 24 21:36:46 PDT 2017 ON: 20.02 +20.0 19.68 - 4.0 34.3 0D 14 481A 0910 Alarm State:  0
Wed May 24 21:35:44 PDT 2017 ON: 20.01 +20.0 19.69 - 4.4 33.8 0D 14 4812 0907 Alarm State:  0
Wed May 24 21:34:43 PDT 2017 ON: 20.02 +20.0 19.66 - 4.2 33.7 00 14 480D 091E Alarm State:  0
Wed May 24 21:33:41 PDT 2017 ON: 19.98 +20.0 19.63 - 3.9 34.1 05 14 4803 0A0D Alarm State:  0
Wed May 24 21:32:40 PDT 2017 ON: 20.01 +20.0 19.63 - 3.0 34.3 00 14 4832 0922 Alarm State:  0
Wed May 24 21:31:38 PDT 2017 ON: 20.03 +20.0 19.65 - 3.8 34.1 00 14 4808 090C Alarm State:  0
Wed May 24 21:30:37 PDT 2017 ON: 20.01 +20.0 19.66 - 3.9 33.9 02 14 4732 092B Alarm State:  0
Wed May 24 21:29:35 PDT 2017 ON: 20.02 +20.0 19.69 - 4.5 33.7 03 14 480F 0909 Alarm State:  0
Wed May 24 21:28:34 PDT 2017 ON: 20.01 +20.0 19.71 - 4.3 34.0 0D 13 4727 0911 Alarm State:  0
Wed May 24 21:27:32 PDT 2017 ON: 20.02 +20.0 19.70 - 4.9 33.7 0D 13 470F 0916 Alarm State:  0
Wed May 24 21:26:31 PDT 2017 ON: 19.98 +20.0 19.60 - 2.6 34.7 00 14 470C 090A Alarm State:  0
Wed May 24 21:25:29 PDT 2017 ON: 20.01 +20.0 19.68 - 4.4 33.9 00 14 4626 0A07 Alarm State:  0
Wed May 24 21:24:28 PDT 2017 ON: 20.01 +20.0 19.65 - 3.8 33.9 00 14 4714 0903 Alarm State:  0
Wed May 24 21:23:26 PDT 2017 ON: 20.00 +20.0 19.65 - 3.5 34.6 05 14 4720 0911 Alarm State:  0
Wed May 24 21:22:25 PDT 2017 ON: 20.02 +20.0 19.70 - 4.8 33.8 0D 13 4727 0920 Alarm State:  0
Wed May 24 21:21:23 PDT 2017 ON: 19.98 +20.0 19.60 - 2.4 34.8 05 14 4812 091C Alarm State:  0
Wed May 24 21:20:22 PDT 2017 ON: 20.00 +20.0 19.66 - 4.1 34.1 07 14 4732 091E Alarm State:  0
Wed May 24 21:19:20 PDT 2017 ON: 20.03 +20.0 19.71 - 5.1 33.2 0A 13 472A 0911 Alarm State:  0
Wed May 24 21:18:19 PDT 2017 ON: 19.97 +20.0 19.63 - 3.5 34.6 02 14 4804 0918 Alarm State:  0
Wed May 24 21:17:17 PDT 2017 ON: 20.01 +20.0 19.68 - 4.5 34.0 0D 14 4804 0903 Alarm State:  0
Wed May 24 21:16:16 PDT 2017 ON: 20.00 +20.0 19.69 - 4.2 34.1 0D 14 4732 0922 Alarm State:  0
Wed May 24 21:15:14 PDT 2017 ON: 20.03 +20.0 19.69 - 4.7 33.8 0D 14 4718 0904 Alarm State:  0
Wed May 24 21:14:13 PDT 2017 ON: 20.00 +20.0 19.61 - 2.8 34.5 05 14 472B 0919 Alarm State:  0
Wed May 24 21:13:11 PDT 2017 ON: 20.01 +20.0 19.64 - 3.6 34.5 07 14 4719 0918 Alarm State:  0
Wed May 24 21:12:10 PDT 2017 ON: 20.02 +20.0 19.69 - 4.9 33.8 0D 14 4708 0914 Alarm State:  0
Wed May 24 21:11:08 PDT 2017 ON: 20.00 +20.0 19.61 - 2.8 34.8 02 14 470E 0928 Alarm State:  0
Wed May 24 21:10:07 PDT 2017 ON: 20.02 +20.0 19.70 - 5.1 33.4 0A 14 4628 0A28 Alarm State:  0
Wed May 24 21:09:05 PDT 2017 ON: 19.98 +20.0 19.62 - 3.1 34.7 00 14 472B 092E Alarm State:  0
Wed May 24 21:08:04 PDT 2017 ON: 20.04 +20.0 19.69 - 4.6 33.8 0D 14 4730 090A Alarm State:  0
Wed May 24 21:07:02 PDT 2017 ON: 20.00 +20.0 19.62 - 2.6 34.5 00 14 4722 0905 Alarm State:  0
Wed May 24 21:06:01 PDT 2017 ON: 20.00 +20.0 19.66 - 4.2 33.9 00 14 4632 090F Alarm State:  0
Wed May 24 21:04:59 PDT 2017 ON: 20.01 +20.0 19.70 - 4.5 34.1 0D 13 470D 0919 Alarm State:  0
Wed May 24 21:03:58 PDT 2017 ON: 20.00 +20.0 19.69 - 4.4 33.7 0A 14 4706 091D Alarm State:  0
Wed May 24 21:02:56 PDT 2017 ON: 20.01 +20.0 19.67 - 4.0 33.9 00 14 471E 0923 Alarm State:  0
Wed May 24 21:01:55 PDT 2017 ON: 19.98 +20.0 19.61 - 3.0 34.7 05 14 471D 0919 Alarm State:  0
Wed May 24 21:00:53 PDT 2017 ON: 20.00 +20.0 19.68 - 4.7 33.8 0C 14 4707 091E Alarm State:  0
Wed May 24 20:59:52 PDT 2017 ON: 19.98 +20.0 19.60 - 2.4 34.7 05 14 4803 0905 Alarm State:  0
Wed May 24 20:58:50 PDT 2017 ON: 20.00 +20.0 19.65 - 3.8 34.4 07 14 4724 092B Alarm State:  0
Wed May 24 20:57:49 PDT 2017 ON: 20.02 +20.0 19.70 - 4.7 33.8 0D 13 4719 091F Alarm State:  0
Wed May 24 20:56:47 PDT 2017 ON: 20.03 +20.0 19.65 - 3.4 34.1 00 14 472B 090C Alarm State:  0
Wed May 24 20:55:46 PDT 2017 ON: 19.98 +20.0 19.65 - 3.9 33.9 07 14 4724 0930 Alarm State:  0
Wed May 24 20:54:44 PDT 2017 ON: 20.04 +20.0 19.68 - 4.3 33.8 08 14 4811 0903 Alarm State:  0
Wed May 24 20:53:43 PDT 2017 ON: 20.03 +20.0 19.66 - 3.8 34.3 02 14 4814 0922 Alarm State:  0
Wed May 24 20:52:41 PDT 2017 ON: 19.99 +20.0 19.64 - 3.7 34.6 0A 14 4725 0904 Alarm State:  0
Wed May 24 20:51:40 PDT 2017 ON: 20.02 +20.0 19.68 - 4.4 33.9 07 14 4712 0904 Alarm State:  0
Wed May 24 20:50:38 PDT 2017 ON: 20.03 +20.0 19.65 - 3.5 34.1 00 14 4720 090E Alarm State:  0
Wed May 24 20:49:37 PDT 2017 ON: 20.01 +20.0 19.66 - 3.7 34.6 0A 14 4707 090E Alarm State:  0
Wed May 24 20:48:35 PDT 2017 ON: 19.99 +20.0 19.69 - 4.8 33.6 0A 14 4703 092C Alarm State:  0
Wed May 24 20:47:34 PDT 2017 ON: 19.98 +20.0 19.56 - 2.3 34.8 07 14 4805 090C Alarm State:  0
Wed May 24 20:46:32 PDT 2017 ON: 19.99 +20.0 19.67 - 4.5 33.8 00 14 4724 0907 Alarm State:  0
Wed May 24 20:45:31 PDT 2017 ON: 20.00 +20.0 19.62 - 2.9 34.3 00 14 4810 0904 Alarm State:  0
Wed May 24 20:44:29 PDT 2017 ON: 19.98 +20.0 19.68 - 4.2 33.8 0A 14 472F 092C Alarm State:  0
Wed May 24 20:43:28 PDT 2017 ON: 19.99 +20.0 19.61 - 2.6 34.5 00 14 482B 0910 Alarm State:  0
Wed May 24 20:42:26 PDT 2017 ON: 20.00 +20.0 19.67 - 3.8 34.4 07 14 4815 0911 Alarm State:  0
Wed May 24 20:41:25 PDT 2017 ON: 20.02 +20.0 19.72 - 5.2 33.4 0D 13 480E 0A01 Alarm State:  0
Wed May 24 20:40:23 PDT 2017 ON: 19.98 +20.0 19.59 - 2.4 34.8 07 14 482C 092D Alarm State:  0
Wed May 24 20:39:22 PDT 2017 ON: 20.00 +20.0 19.67 - 3.7 34.6 07 14 4821 0923 Alarm State:  0
Wed May 24 20:38:20 PDT 2017 ON: 20.03 +20.0 19.68 - 4.0 34.5 0D 14 480B 0926 Alarm State:  0
Wed May 24 20:37:19 PDT 2017 ON: 20.01 +20.0 19.64 - 3.5 34.6 02 14 4727 090B Alarm State:  0
Wed May 24 20:36:17 PDT 2017 ON: 20.00 +20.0 19.66 - 4.4 33.9 07 14 4703 0916 Alarm State:  0
Wed May 24 20:35:16 PDT 2017 ON: 20.02 +20.0 19.63 - 3.0 34.3 00 14 472C 0903 Alarm State:  0
Wed May 24 20:34:14 PDT 2017 ON: 19.99 +20.0 19.64 - 3.7 34.6 00 14 471A 0904 Alarm State:  0
Wed May 24 20:33:13 PDT 2017 ON: 20.02 +20.0 19.69 - 5.0 33.8 0D 14 4705 0927 Alarm State:  0
Wed May 24 20:32:11 PDT 2017 ON: 19.97 +20.0 19.59 - 2.8 34.9 07 14 4725 092A Alarm State:  0
Wed May 24 20:31:10 PDT 2017 ON: 20.00 +20.0 19.68 - 4.8 33.8 05 14 4714 0924 Alarm State:  0
Wed May 24 20:30:08 PDT 2017 ON: 19.99 +20.0 19.61 - 2.3 34.7 02 14 480D 0916 Alarm State:  0
Wed May 24 20:29:07 PDT 2017 ON: 20.00 +20.0 19.65 - 3.7 34.5 05 14 4721 091C Alarm State:  0
Wed May 24 20:28:05 PDT 2017 ON: 20.01 +20.0 19.68 - 5.0 33.7 05 14 4632 092D Alarm State:  0
Wed May 24 20:27:04 PDT 2017 ON: 19.98 +20.0 19.60 - 2.4 34.8 04 14 4730 091D Alarm State:  0
Wed May 24 20:26:02 PDT 2017 ON: 20.01 +20.0 19.67 - 4.4 33.9 07 14 471E 091A Alarm State:  0
Wed May 24 20:25:01 PDT 2017 ON: 20.00 +20.0 19.61 - 2.3 34.5 02 14 4814 0905 Alarm State:  0
Wed May 24 20:23:59 PDT 2017 ON: 20.01 +20.0 19.63 - 3.4 34.3 00 14 4722 0914 Alarm State:  0
Wed May 24 20:22:58 PDT 2017 ON: 20.00 +20.0 19.65 - 4.1 33.8 07 14 471F 0A08 Alarm State:  0
Wed May 24 20:21:56 PDT 2017 ON: 20.02 +20.0 19.71 - 4.4 33.7 0A 13 480A 0A01 Alarm State:  0
Wed May 24 20:20:55 PDT 2017 ON: 19.99 +20.0 19.64 - 3.2 34.8 02 14 481F 0A00 Alarm State:  0
Wed May 24 20:19:53 PDT 2017 ON: 19.99 +20.0 19.67 - 4.2 33.9 00 14 4823 091F Alarm State:  0
Wed May 24 20:18:52 PDT 2017 ON: 20.02 +20.0 19.68 - 4.3 34.2 0D 14 4820 0915 Alarm State:  0
Wed May 24 20:17:50 PDT 2017 ON: 20.01 +20.0 19.69 - 4.3 33.9 0A 14 4727 0928 Alarm State:  0
Wed May 24 20:16:49 PDT 2017 ON: 20.01 +20.0 19.64 - 2.9 34.4 00 14 472C 091A Alarm State:  0
Wed May 24 20:15:47 PDT 2017 ON: 20.03 +20.0 19.65 - 3.8 34.0 00 14 4700 0904 Alarm State:  0
Wed May 24 20:14:46 PDT 2017 ON: 19.99 +20.0 19.64 - 3.8 34.2 07 14 4624 0929 Alarm State:  0
Wed May 24 20:13:44 PDT 2017 ON: 20.00 +20.0 19.69 - 4.7 33.5 0A 14 470B 091F Alarm State:  0
Wed May 24 20:12:43 PDT 2017 ON: 19.99 +20.0 19.61 - 3.3 34.6 05 14 472A 091A Alarm State:  0
Wed May 24 20:11:41 PDT 2017 ON: 20.02 +20.0 19.71 - 5.0 33.6 0D 13 4730 091E Alarm State:  0
Wed May 24 20:10:40 PDT 2017 ON: 19.98 +20.0 19.60 - 2.3 34.8 07 14 481A 092A Alarm State:  0
Wed May 24 20:09:38 PDT 2017 ON: 20.04 +20.0 19.68 - 4.3 33.9 07 14 4729 0908 Alarm State:  0
Wed May 24 20:08:37 PDT 2017 ON: 20.05 +20.0 19.65 - 3.7 34.1 00 14 471E 0908 Alarm State:  0
Wed May 24 20:07:35 PDT 2017 ON: 19.98 +20.0 19.65 - 3.9 34.4 00 14 4708 0909 Alarm State:  0
Wed May 24 20:06:34 PDT 2017 ON: 20.00 +20.0 19.69 - 4.8 33.7 0A 14 4709 091C Alarm State:  0
Wed May 24 20:05:32 PDT 2017 ON: 20.00 +20.0 19.60 - 2.4 34.8 0A 14 4808 090C Alarm State:  0
Wed May 24 20:04:31 PDT 2017 ON: 20.00 +20.0 19.65 - 3.6 34.3 00 14 4718 091A Alarm State:  0
Wed May 24 20:03:29 PDT 2017 ON: 20.01 +20.0 19.67 - 4.4 34.0 07 14 4625 0929 Alarm State:  0
Wed May 24 20:02:28 PDT 2017 ON: 20.03 +20.0 19.62 - 2.6 34.5 0A 14 471D 0921 Alarm State:  0
Wed May 24 20:01:26 PDT 2017 ON: 19.99 +20.0 19.67 - 4.3 33.9 00 14 462C 092A Alarm State:  0
Wed May 24 20:00:25 PDT 2017 ON: 19.98 +20.0 19.61 - 2.4 34.6 00 14 4728 090D Alarm State:  0
Wed May 24 19:59:23 PDT 2017 ON: 20.00 +20.0 19.65 - 3.8 34.2 0A 14 4716 0910 Alarm State:  0
Wed May 24 19:58:22 PDT 2017 ON: 20.02 +20.0 19.69 - 4.2 33.8 08 14 4721 0919 Alarm State:  0
Wed May 24 19:57:20 PDT 2017 ON: 20.00 +20.0 19.64 - 3.8 34.3 0C 14 471B 0A08 Alarm State:  0
Wed May 24 19:56:19 PDT 2017 ON: 20.04 +20.0 19.69 - 4.4 33.9 08 14 472E 0918 Alarm State:  0
Wed May 24 19:55:17 PDT 2017 ON: 20.00 +20.0 19.66 - 3.5 34.1 00 14 472A 0919 Alarm State:  0
Wed May 24 19:54:16 PDT 2017 ON: 19.99 +20.0 19.66 - 4.0 33.8 02 14 471D 0A13 Alarm State:  0
Wed May 24 19:53:14 PDT 2017 ON: 20.04 +20.0 19.69 - 4.3 33.6 00 14 480B 090B Alarm State:  0
Wed May 24 19:52:13 PDT 2017 ON: 19.97 +20.0 19.63 - 3.6 34.4 05 14 480B 091F Alarm State:  0
Wed May 24 19:51:11 PDT 2017 ON: 20.00 +20.0 19.71 - 4.4 33.8 0A 13 481A 0924 Alarm State:  0
Wed May 24 19:50:10 PDT 2017 ON: 20.01 +20.0 19.64 - 2.8 34.5 02 14 481E 0919 Alarm State:  0
Wed May 24 19:49:08 PDT 2017 ON: 20.02 +20.0 19.66 - 4.1 33.8 07 14 472B 0928 Alarm State:  0
Wed May 24 19:48:07 PDT 2017 ON: 20.04 +20.0 19.69 - 4.1 33.8 0D 14 4732 090E Alarm State:  0
Wed May 24 19:47:05 PDT 2017 ON: 20.01 +20.0 19.63 - 3.0 34.8 07 14 4801 0922 Alarm State:  0
Wed May 24 19:46:04 PDT 2017 ON: 20.01 +20.0 19.66 - 3.5 34.6 0C 14 480C 0908 Alarm State:  0
Wed May 24 19:45:02 PDT 2017 ON: 20.02 +20.0 19.68 - 4.6 33.7 02 14 4729 0928 Alarm State:  0
Wed May 24 19:44:01 PDT 2017 ON: 20.04 +20.0 19.66 - 3.3 34.3 00 14 4732 0920 Alarm State:  0
Wed May 24 19:42:59 PDT 2017 ON: 20.00 +20.0 19.61 - 2.6 34.5 00 14 471A 0925 Alarm State:  0
Wed May 24 19:41:58 PDT 2017 ON: 20.01 +20.0 19.68 - 4.3 34.2 05 14 461C 090E Alarm State:  0
Wed May 24 19:40:56 PDT 2017 ON: 20.01 +20.0 19.68 - 3.9 33.9 00 14 4620 0926 Alarm State:  0
Wed May 24 19:39:55 PDT 2017 ON: 19.98 +20.0 19.66 - 3.9 34.1 00 14 4613 0A16 Alarm State:  0
Wed May 24 19:38:53 PDT 2017 ON: 20.01 +20.0 19.66 - 3.6 34.0 00 14 4710 0926 Alarm State:  0
Wed May 24 19:37:52 PDT 2017 ON: 19.97 +20.0 19.62 - 3.5 34.3 00 14 471B 0A0C Alarm State:  0
Wed May 24 19:36:50 PDT 2017 ON: 20.02 +20.0 19.67 - 3.9 33.8 00 14 4804 090B Alarm State:  0
Wed May 24 19:35:49 PDT 2017 ON: 19.98 +20.0 19.64 - 3.7 34.4 05 14 472A 0A07 Alarm State:  0
Wed May 24 19:34:47 PDT 2017 ON: 20.00 +20.0 19.69 - 3.9 34.5 0D 14 4800 091B Alarm State:  0
Wed May 24 19:33:46 PDT 2017 ON: 20.00 +20.0 19.67 - 4.2 34.1 05 14 4717 092A Alarm State:  0
Wed May 24 19:32:44 PDT 2017 ON: 20.01 +20.0 19.69 - 4.5 33.4 05 14 472E 0A0A Alarm State:  0
Wed May 24 19:31:43 PDT 2017 ON: 19.97 +20.0 19.62 - 3.5 34.1 07 14 481B 092E Alarm State:  0
Wed May 24 19:30:41 PDT 2017 ON: 20.02 +20.0 19.70 - 4.3 33.9 0A 13 4906 091F Alarm State:  0
Wed May 24 19:29:40 PDT 2017 ON: 20.02 +20.0 19.68 - 3.9 34.1 0D 14 4823 0903 Alarm State:  0
Wed May 24 19:28:38 PDT 2017 ON: 20.03 +20.0 19.69 - 4.2 34.0 0D 14 4822 0918 Alarm State:  0
Wed May 24 19:27:37 PDT 2017 ON: 20.02 +20.0 19.62 - 2.7 34.5 00 14 481A 0915 Alarm State:  0
Wed May 24 19:26:35 PDT 2017 ON: 20.02 +20.0 19.66 - 4.0 34.1 00 14 4801 0923 Alarm State:  0
Wed May 24 19:25:34 PDT 2017 ON: 20.01 +20.0 19.70 - 4.6 33.7 05 13 4801 0912 Alarm State:  0
Wed May 24 19:24:32 PDT 2017 ON: 19.98 +20.0 19.62 - 2.7 34.7 00 14 4802 0923 Alarm State:  0
Wed May 24 19:23:31 PDT 2017 ON: 19.98 +20.0 19.66 - 4.5 33.9 0A 14 472D 0A22 Alarm State:  0
Wed May 24 19:22:29 PDT 2017 ON: 19.97 +20.0 19.57 - 2.0 34.8 01 14 4900 0925 Alarm State:  0
Wed May 24 19:21:28 PDT 2017 ON: 20.00 +20.0 19.65 - 3.9 34.3 05 14 4825 0922 Alarm State:  0
Wed May 24 19:20:26 PDT 2017 ON: 20.02 +20.0 19.69 - 4.5 33.9 0D 14 4818 0920 Alarm State:  0
Wed May 24 19:19:25 PDT 2017 ON: 20.03 +20.0 19.63 - 3.1 34.3 02 14 481A 0917 Alarm State:  0
Wed May 24 19:18:23 PDT 2017 ON: 20.00 +20.0 19.61 - 3.0 34.6 07 14 4809 0915 Alarm State:  0
Wed May 24 19:17:22 PDT 2017 ON: 19.99 +20.0 19.63 - 3.0 34.8 05 14 4819 0906 Alarm State:  0
Wed May 24 19:16:20 PDT 2017 ON: 20.02 +20.0 19.67 - 4.1 33.9 02 14 480E 0929 Alarm State:  0
Wed May 24 19:15:19 PDT 2017 ON: 20.01 +20.0 19.72 - 5.0 33.5 0D 12 480A 0914 Alarm State:  0
Wed May 24 19:14:17 PDT 2017 ON: 19.98 +20.0 19.64 - 3.1 34.9 02 14 480D 091F Alarm State:  0
Wed May 24 19:13:16 PDT 2017 ON: 20.02 +20.0 19.69 - 4.4 34.1 0D 14 4728 0916 Alarm State:  0
Wed May 24 19:12:14 PDT 2017 ON: 20.01 +20.0 19.66 - 3.8 34.1 00 14 4717 091E Alarm State:  0
Wed May 24 19:11:13 PDT 2017 ON: 19.99 +20.0 19.64 - 3.9 34.1 07 14 470B 0A13 Alarm State:  0
Wed May 24 19:10:11 PDT 2017 ON: 20.02 +20.0 19.62 - 2.6 34.5 00 14 480D 0928 Alarm State:  0
Wed May 24 19:09:10 PDT 2017 ON: 20.02 +20.0 19.69 - 4.6 33.7 0D 14 4714 0A0A Alarm State:  0
Wed May 24 19:08:08 PDT 2017 ON: 20.00 +20.0 19.60 - 2.3 34.9 05 14 4814 091F Alarm State:  0
Wed May 24 19:07:07 PDT 2017 ON: 20.00 +20.0 19.68 - 4.5 34.0 00 14 4725 091E Alarm State:  0
Wed May 24 19:06:05 PDT 2017 ON: 20.01 +20.0 19.69 - 4.4 33.7 03 14 4716 0903 Alarm State:  0
Wed May 24 19:05:04 PDT 2017 ON: 19.98 +20.0 19.61 - 2.8 34.7 05 14 4728 090D Alarm State:  0
Wed May 24 19:04:02 PDT 2017 ON: 19.98 +20.0 19.67 - 4.2 34.0 00 14 472B 092A Alarm State:  0
Wed May 24 19:03:01 PDT 2017 ON: 20.02 +20.0 19.60 - 2.0 34.7 05 14 482E 090B Alarm State:  0
Wed May 24 19:01:59 PDT 2017 ON: 20.02 +20.0 19.67 - 4.1 34.0 07 14 4805 0915 Alarm State:  0
Wed May 24 19:00:58 PDT 2017 ON: 20.02 +20.0 19.68 - 4.6 33.8 02 14 4730 090E Alarm State:  0
Wed May 24 18:59:56 PDT 2017 ON: 20.03 +20.0 19.70 - 4.7 33.9 0A 13 4717 091C Alarm State:  0
Wed May 24 18:58:55 PDT 2017 ON: 19.99 +20.0 19.62 - 2.6 34.5 00 14 4725 0A0B Alarm State:  0
Wed May 24 18:57:53 PDT 2017 ON: 19.97 +20.0 19.66 - 4.3 33.7 07 14 4714 0A2C Alarm State:  0
Wed May 24 18:56:52 PDT 2017 ON: 19.99 +20.0 19.59 - 2.2 34.6 04 14 481D 0928 Alarm State:  0
Wed May 24 18:55:50 PDT 2017 ON: 19.98 +20.0 19.65 - 3.8 34.1 00 14 4814 0922 Alarm State:  0
Wed May 24 18:54:49 PDT 2017 ON: 20.05 +20.0 19.69 - 4.4 33.8 05 14 4812 090B Alarm State:  0
Wed May 24 18:53:47 PDT 2017 ON: 20.03 +20.0 19.70 - 4.9 33.7 0D 13 470C 091F Alarm State:  0
Wed May 24 18:52:46 PDT 2017 ON: 20.01 +20.0 19.64 - 3.0 34.7 05 14 470A 0906 Alarm State:  0
Wed May 24 18:51:44 PDT 2017 ON: 20.02 +20.0 19.69 - 5.0 33.6 0C 14 461D 090E Alarm State:  0
Wed May 24 18:50:43 PDT 2017 ON: 19.99 +20.0 19.60 - 2.7 34.8 04 14 470E 090A Alarm State:  0
Wed May 24 18:49:41 PDT 2017 ON: 20.01 +20.0 19.68 - 4.5 33.8 07 14 4705 0930 Alarm State:  0
Wed May 24 18:48:40 PDT 2017 ON: 19.98 +20.0 19.61 - 2.4 34.7 05 14 4802 0912 Alarm State:  0
Wed May 24 18:47:38 PDT 2017 ON: 19.98 +20.0 19.62 - 2.8 34.7 00 14 4803 0912 Alarm State:  0
Wed May 24 18:46:37 PDT 2017 ON: 20.00 +20.0 19.68 - 4.0 34.1 00 14 4728 0913 Alarm State:  0
Wed May 24 18:45:35 PDT 2017 ON: 20.00 +20.0 19.71 - 4.8 33.8 0A 13 4725 0905 Alarm State:  0
Wed May 24 18:44:34 PDT 2017 ON: 19.99 +20.0 19.62 - 3.0 34.7 02 14 471F 0923 Alarm State:  0
Wed May 24 18:43:32 PDT 2017 ON: 19.99 +20.0 19.69 - 4.4 34.0 0D 14 4714 091F Alarm State:  0
Wed May 24 18:42:31 PDT 2017 ON: 20.00 +20.0 19.59 - 2.3 34.5 04 14 480B 0903 Alarm State:  0
Wed May 24 18:41:29 PDT 2017 ON: 19.99 +20.0 19.67 - 4.1 33.9 07 14 4725 092A Alarm State:  0
Wed May 24 18:40:28 PDT 2017 ON: 20.04 +20.0 19.65 - 3.3 34.1 00 14 480C 0920 Alarm State:  0
Wed May 24 18:39:27 PDT 2017 ON: 19.99 +20.0 19.66 - 3.7 34.3 0C 14 472E 0914 Alarm State:  0
Wed May 24 18:38:25 PDT 2017 ON: 20.04 +20.0 19.69 - 4.3 34.1 0A 14 4807 0924 Alarm State:  0
Wed May 24 18:37:24 PDT 2017 ON: 20.02 +20.0 19.63 - 3.6 34.1 00 14 480E 091A Alarm State:  0
Wed May 24 18:36:22 PDT 2017 ON: 20.00 +20.0 19.65 - 3.6 34.4 00 14 4731 090D Alarm State:  0
Wed May 24 18:35:21 PDT 2017 ON: 20.04 +20.0 19.70 - 4.5 33.6 0D 13 480B 0918 Alarm State:  0
Wed May 24 18:34:19 PDT 2017 ON: 20.00 +20.0 19.62 - 2.7 34.8 00 14 4819 0926 Alarm State:  0
Wed May 24 18:33:18 PDT 2017 ON: 20.01 +20.0 19.65 - 3.2 34.8 05 14 4816 091E Alarm State:  0
Wed May 24 18:32:16 PDT 2017 ON: 20.00 +20.0 19.63 - 3.1 34.6 00 14 4804 0921 Alarm State:  0
Wed May 24 18:31:15 PDT 2017 ON: 20.00 +20.0 19.67 - 3.8 34.4 00 14 4724 0923 Alarm State:  0
Wed May 24 18:30:13 PDT 2017 ON: 20.00 +20.0 19.67 - 4.5 34.0 00 14 471A 0918 Alarm State:  0
Wed May 24 18:29:12 PDT 2017 ON: 19.99 +20.0 19.61 - 2.4 34.8 00 14 472F 0923 Alarm State:  0
Wed May 24 18:28:10 PDT 2017 ON: 20.00 +20.0 19.67 - 3.9 34.5 05 14 471D 0926 Alarm State:  0
Wed May 24 18:27:09 PDT 2017 ON: 20.01 +20.0 19.69 - 4.6 33.8 0A 14 4708 0A03 Alarm State:  0
Wed May 24 18:26:07 PDT 2017 ON: 19.99 +20.0 19.64 - 3.0 34.4 00 14 472A 0925 Alarm State:  0
Wed May 24 18:25:06 PDT 2017 ON: 20.00 +20.0 19.63 - 3.1 34.8 05 14 472B 0915 Alarm State:  0
Wed May 24 18:24:04 PDT 2017 ON: 19.99 +20.0 19.68 - 4.4 34.0 05 14 471B 0918 Alarm State:  0
Wed May 24 18:23:03 PDT 2017 ON: 20.02 +20.0 19.61 - 2.5 34.6 00 14 480D 0907 Alarm State:  0
Wed May 24 18:22:01 PDT 2017 ON: 19.99 +20.0 19.64 - 3.3 34.8 02 14 4730 090C Alarm State:  0
Wed May 24 18:21:00 PDT 2017 ON: 20.02 +20.0 19.67 - 4.2 34.1 07 14 4719 090C Alarm State:  0
Wed May 24 18:19:58 PDT 2017 ON: 20.02 +20.0 19.70 - 4.6 34.0 0A 13 470D 090D Alarm State:  0
Wed May 24 18:18:57 PDT 2017 ON: 20.03 +20.0 19.67 - 4.0 33.9 07 14 4706 090D Alarm State:  0
Wed May 24 18:17:55 PDT 2017 ON: 20.01 +20.0 19.61 - 2.6 34.5 02 14 4723 0910 Alarm State:  0
Wed May 24 18:16:54 PDT 2017 ON: 20.00 +20.0 19.65 - 4.0 34.0 07 14 470B 0A0F Alarm State:  0
Wed May 24 18:15:42 PDT 2017 ON: 20.04 +20.0 19.66 - 3.3 34.4 00 14 480F 0926 Alarm State:  0
Wed May 24 18:14:41 PDT 2017 ON: 19.99 +20.0 19.66 - 3.6 34.7 0A 14 4728 092D Alarm State:  0
Wed May 24 18:13:39 PDT 2017 ON: 20.03 +20.0 19.69 - 4.5 33.6 0D 14 471F 091D Alarm State:  0
Wed May 24 18:12:38 PDT 2017 ON: 20.00 +20.0 19.64 - 3.3 34.2 00 14 480C 090F Alarm State:  0
Wed May 24 18:11:36 PDT 2017 ON: 20.05 +20.0 19.68 - 4.0 34.1 00 14 4732 0913 Alarm State:  0
Wed May 24 18:10:35 PDT 2017 ON: 20.01 +20.0 19.65 - 3.5 34.1 00 14 4720 0918 Alarm State:  0
Wed May 24 18:09:33 PDT 2017 ON: 20.00 +20.0 19.65 - 3.9 34.1 07 14 4713 0A08 Alarm State:  0
Wed May 24 18:08:32 PDT 2017 ON: 20.01 +20.0 19.68 - 4.1 33.9 0A 14 480A 0901 Alarm State:  0
Wed May 24 18:07:30 PDT 2017 ON: 20.03 +20.0 19.66 - 3.4 34.3 00 14 480B 091A Alarm State:  0
Wed May 24 18:06:29 PDT 2017 ON: 20.00 +20.0 19.63 - 3.3 34.3 00 14 4728 0923 Alarm State:  0
Wed May 24 18:05:27 PDT 2017 ON: 20.03 +20.0 19.63 - 3.2 34.3 00 14 4717 0927 Alarm State:  0
Wed May 24 18:04:26 PDT 2017 ON: 19.99 +20.0 19.65 - 3.4 34.5 00 14 4715 091E Alarm State:  0
Wed May 24 18:03:24 PDT 2017 ON: 20.05 +20.0 19.70 - 4.4 33.9 0A 13 4718 0902 Alarm State:  0
Wed May 24 18:02:23 PDT 2017 ON: 20.02 +20.0 19.69 - 4.5 33.7 08 14 470E 0901 Alarm State:  0
Wed May 24 18:01:21 PDT 2017 ON: 20.01 +20.0 19.60 - 2.6 34.8 09 14 4723 0906 Alarm State:  0
Wed May 24 18:00:20 PDT 2017 ON: 20.00 +20.0 19.67 - 4.5 34.0 05 14 4711 0903 Alarm State:  0
Wed May 24 17:59:18 PDT 2017 ON: 20.02 +20.0 19.62 - 2.8 34.4 00 14 4730 0906 Alarm State:  0
Wed May 24 17:58:17 PDT 2017 ON: 19.99 +20.0 19.65 - 4.1 33.8 00 14 4720 092C Alarm State:  0
Wed May 24 17:57:15 PDT 2017 ON: 20.06 +20.0 19.68 - 4.2 33.7 0A 14 480A 091D Alarm State:  0
Wed May 24 17:56:14 PDT 2017 ON: 20.01 +20.0 19.66 - 3.4 34.7 05 14 4727 0922 Alarm State:  0
Wed May 24 17:55:13 PDT 2017 ON: 20.02 +20.0 19.68 - 4.3 34.0 07 14 471C 0920 Alarm State:  0
Wed May 24 17:54:11 PDT 2017 ON: 20.01 +20.0 19.64 - 3.4 34.2 00 14 472E 0909 Alarm State:  0
Wed May 24 17:53:10 PDT 2017 ON: 20.00 +20.0 19.64 - 3.7 34.2 07 14 4727 092F Alarm State:  0
Wed May 24 17:52:08 PDT 2017 ON: 20.03 +20.0 19.70 - 4.2 33.8 0D 13 480E 0925 Alarm State:  0
Wed May 24 17:51:07 PDT 2017 ON: 20.01 +20.0 19.63 - 3.1 34.8 0A 14 480F 0917 Alarm State:  0
Wed May 24 17:50:05 PDT 2017 ON: 20.01 +20.0 19.69 - 4.4 34.0 0A 14 4726 0916 Alarm State:  0
Wed May 24 17:49:04 PDT 2017 ON: 20.00 +20.0 19.62 - 2.7 34.5 02 14 4731 0902 Alarm State:  0
Wed May 24 17:48:02 PDT 2017 ON: 19.98 +20.0 19.66 - 3.9 34.3 00 14 4715 090D Alarm State:  0
Wed May 24 17:47:01 PDT 2017 ON: 20.02 +20.0 19.69 - 4.7 33.7 0D 14 4716 091C Alarm State:  0
Wed May 24 17:45:59 PDT 2017 ON: 19.98 +20.0 19.60 - 2.6 34.6 00 14 4730 091E Alarm State:  0
Wed May 24 17:44:58 PDT 2017 ON: 19.99 +20.0 19.65 - 4.2 33.7 00 14 471F 091A Alarm State:  0
Wed May 24 17:43:56 PDT 2017 ON: 20.01 +20.0 19.64 - 3.0 34.3 00 14 481A 090C Alarm State:  0
Wed May 24 17:42:55 PDT 2017 ON: 20.01 +20.0 19.65 - 3.4 34.6 00 14 4732 090C Alarm State:  0
Wed May 24 17:41:53 PDT 2017 ON: 20.01 +20.0 19.67 - 4.5 33.8 00 14 4722 0905 Alarm State:  0
Wed May 24 17:40:52 PDT 2017 ON: 20.05 +20.0 19.67 - 4.5 33.5 00 14 470D 090D Alarm State:  0
Wed May 24 17:39:50 PDT 2017 ON: 19.97 +20.0 19.65 - 3.8 34.1 05 14 4631 0A05 Alarm State:  0
Wed May 24 17:38:49 PDT 2017 ON: 20.02 +20.0 19.66 - 3.7 34.0 00 14 471A 090A Alarm State:  0
Wed May 24 17:37:47 PDT 2017 ON: 19.98 +20.0 19.64 - 3.6 34.6 00 14 4705 0906 Alarm State:  0
Wed May 24 17:36:46 PDT 2017 ON: 20.00 +20.0 19.68 - 4.6 33.7 00 14 462C 0928 Alarm State:  0
Wed May 24 17:35:44 PDT 2017 ON: 20.01 +20.0 19.68 - 4.2 33.6 00 14 4712 0A0A Alarm State:  0
Wed May 24 17:34:43 PDT 2017 ON: 19.94 +20.0 19.61 - 3.6 34.1 05 14 472C 092E Alarm State:  0
Wed May 24 17:33:41 PDT 2017 ON: 20.01 +20.0 19.64 - 3.0 34.3 00 14 4822 090F Alarm State:  0
Wed May 24 17:32:40 PDT 2017 ON: 20.01 +20.0 19.66 - 3.7 34.1 00 14 472F 091C Alarm State:  0
Wed May 24 17:31:38 PDT 2017 ON: 19.98 +20.0 19.63 - 2.9 34.6 07 14 471C 0922 Alarm State:  0
Wed May 24 17:30:37 PDT 2017 ON: 19.98 +20.0 19.68 - 4.5 33.8 00 14 4708 0A29 Alarm State:  0
Wed May 24 17:29:35 PDT 2017 ON: 19.97 +20.0 19.58 - 2.0 34.9 01 14 480C 092C Alarm State:  0
Wed May 24 17:28:34 PDT 2017 ON: 20.01 +20.0 19.68 - 4.1 34.4 05 14 472F 0923 Alarm State:  0
Wed May 24 17:27:32 PDT 2017 ON: 20.02 +20.0 19.69 - 4.3 33.8 0D 14 4722 092D Alarm State:  0
Wed May 24 17:26:31 PDT 2017 ON: 20.01 +20.0 19.64 - 3.3 34.2 00 14 480B 0927 Alarm State:  0
Wed May 24 17:25:29 PDT 2017 ON: 19.99 +20.0 19.63 - 3.7 34.4 05 14 472B 091B Alarm State:  0
Wed May 24 17:24:28 PDT 2017 ON: 20.01 +20.0 19.69 - 4.5 33.9 0A 14 4731 0927 Alarm State:  0
Wed May 24 17:23:26 PDT 2017 ON: 20.00 +20.0 19.60 - 2.5 34.5 00 14 4813 0909 Alarm State:  0
Wed May 24 17:22:25 PDT 2017 ON: 19.99 +20.0 19.68 - 4.3 33.7 00 14 4726 0914 Alarm State:  0
Wed May 24 17:21:23 PDT 2017 ON: 20.02 +20.0 19.68 - 4.3 33.9 0A 14 4806 091B Alarm State:  0
Wed May 24 17:20:22 PDT 2017 ON: 19.99 +20.0 19.62 - 2.6 34.6 00 14 4806 090E Alarm State:  0
Wed May 24 17:19:20 PDT 2017 ON: 20.00 +20.0 19.66 - 4.2 33.7 02 14 471C 0914 Alarm State:  0
Wed May 24 17:18:19 PDT 2017 ON: 20.02 +20.0 19.67 - 4.2 33.8 00 14 4807 0918 Alarm State:  0
Wed May 24 17:17:17 PDT 2017 ON: 20.00 +20.0 19.63 - 3.0 34.7 00 14 4808 090C Alarm State:  0
Wed May 24 17:16:16 PDT 2017 ON: 19.99 +20.0 19.68 - 4.6 33.9 05 14 471D 0911 Alarm State:  0
Wed May 24 17:15:14 PDT 2017 ON: 20.00 +20.0 19.61 - 2.6 34.5 00 14 472E 091E Alarm State:  0
Wed May 24 17:14:13 PDT 2017 ON: 20.00 +20.0 19.65 - 3.7 34.4 00 14 470E 0925 Alarm State:  0
Wed May 24 17:13:11 PDT 2017 ON: 20.01 +20.0 19.70 - 5.1 33.5 0D 13 4705 091F Alarm State:  0
Wed May 24 17:12:10 PDT 2017 ON: 19.98 +20.0 19.62 - 3.2 34.7 0C 14 471D 0927 Alarm State:  0
Wed May 24 17:11:08 PDT 2017 ON: 19.99 +20.0 19.68 - 4.3 34.0 05 14 4726 0A0D Alarm State:  0
Wed May 24 17:10:07 PDT 2017 ON: 20.02 +20.0 19.60 - 2.2 34.7 00 14 481F 0900 Alarm State:  0
Wed May 24 17:09:05 PDT 2017 ON: 20.03 +20.0 19.66 - 2.9 34.6 05 14 480C 0908 Alarm State:  0
Wed May 24 17:08:04 PDT 2017 ON: 20.02 +20.0 19.67 - 3.9 34.5 00 14 471F 0913 Alarm State:  0
Wed May 24 17:07:03 PDT 2017 ON: 20.05 +20.0 19.71 - 4.9 33.8 0D 13 4700 0913 Alarm State:  0
Wed May 24 17:06:01 PDT 2017 ON: 19.96 +20.0 19.63 - 3.0 34.8 00 14 4716 092F Alarm State:  0
Wed May 24 17:05:00 PDT 2017 ON: 20.02 +20.0 19.68 - 4.5 33.8 02 14 4709 0921 Alarm State:  0
Wed May 24 17:03:58 PDT 2017 ON: 20.00 +20.0 19.62 - 2.6 34.4 00 14 4725 0925 Alarm State:  0
Wed May 24 17:02:57 PDT 2017 ON: 20.01 +20.0 19.66 - 4.1 33.9 00 14 4718 0929 Alarm State:  0
Wed May 24 17:01:55 PDT 2017 ON: 20.03 +20.0 19.67 - 4.2 33.8 02 14 472C 0925 Alarm State:  0
Wed May 24 17:00:54 PDT 2017 ON: 19.99 +20.0 19.62 - 2.8 34.5 07 14 472D 091B Alarm State:  0
Wed May 24 16:59:52 PDT 2017 ON: 20.01 +20.0 19.62 - 2.6 34.5 02 14 4723 091C Alarm State:  0
Wed May 24 16:58:51 PDT 2017 ON: 20.00 +20.0 19.65 - 4.0 34.0 00 14 462D 0905 Alarm State:  0
Wed May 24 16:57:49 PDT 2017 ON: 20.01 +20.0 19.64 - 3.7 34.2 07 14 4628 092B Alarm State:  0
Wed May 24 16:56:48 PDT 2017 ON: 20.05 +20.0 19.69 - 4.2 33.8 08 14 4715 091F Alarm State:  0
Wed May 24 16:55:46 PDT 2017 ON: 19.99 +20.0 19.64 - 3.5 34.7 0A 14 470E 0917 Alarm State:  0
Wed May 24 16:54:45 PDT 2017 ON: 20.00 +20.0 19.70 - 4.9 33.7 0D 13 470E 092F Alarm State:  0
Wed May 24 16:53:43 PDT 2017 ON: 19.96 +20.0 19.62 - 2.5 34.9 00 14 4812 090E Alarm State:  0
Wed May 24 16:52:42 PDT 2017 ON: 19.99 +20.0 19.66 - 3.9 34.4 00 14 4814 0928 Alarm State:  0
Wed May 24 16:51:40 PDT 2017 ON: 19.99 +20.0 19.68 - 3.9 34.4 08 14 480F 0928 Alarm State:  0
Wed May 24 16:50:39 PDT 2017 ON: 20.00 +20.0 19.69 - 4.7 33.9 0A 14 4724 0904 Alarm State:  0
Wed May 24 16:49:37 PDT 2017 ON: 20.00 +20.0 19.61 - 2.4 34.8 00 14 472B 0911 Alarm State:  0
Wed May 24 16:48:36 PDT 2017 ON: 19.98 +20.0 19.68 - 4.9 33.6 00 14 470D 0A18 Alarm State:  0
Wed May 24 16:47:34 PDT 2017 ON: 19.98 +20.0 19.60 - 2.4 34.9 00 14 480B 092B Alarm State:  0
Wed May 24 16:46:33 PDT 2017 ON: 19.99 +20.0 19.66 - 3.9 34.3 00 14 4809 091E Alarm State:  0
Wed May 24 16:45:31 PDT 2017 ON: 20.04 +20.0 19.69 - 4.7 33.7 0D 14 472D 091C Alarm State:  0
Wed May 24 16:44:30 PDT 2017 ON: 20.00 +20.0 19.60 - 2.5 34.5 00 14 4818 091C Alarm State:  0
Wed May 24 16:43:28 PDT 2017 ON: 20.01 +20.0 19.66 - 4.0 34.3 02 14 472A 0924 Alarm State:  0
Wed May 24 16:42:27 PDT 2017 ON: 20.01 +20.0 19.72 - 5.3 33.6 0D 12 471A 091D Alarm State:  0
Wed May 24 16:41:25 PDT 2017 ON: 20.00 +20.0 19.60 - 2.8 34.8 01 14 472D 091E Alarm State:  0
Wed May 24 16:40:24 PDT 2017 ON: 20.01 +20.0 19.67 - 4.4 34.0 05 14 4729 0913 Alarm State:  0
Wed May 24 16:39:22 PDT 2017 ON: 20.03 +20.0 19.61 - 2.4 34.5 00 14 481F 0906 Alarm State:  0
Wed May 24 16:38:21 PDT 2017 ON: 20.03 +20.0 19.66 - 3.6 34.6 0C 14 4722 0919 Alarm State:  0
Wed May 24 16:37:19 PDT 2017 ON: 20.00 +20.0 19.67 - 4.6 33.8 05 14 4701 0927 Alarm State:  0
Wed May 24 16:36:18 PDT 2017 ON: 20.00 +20.0 19.60 - 2.3 34.7 05 14 4806 091E Alarm State:  0
Wed May 24 16:35:16 PDT 2017 ON: 19.99 +20.0 19.67 - 4.1 33.9 00 14 472A 0920 Alarm State:  0
Wed May 24 16:34:15 PDT 2017 ON: 20.03 +20.0 19.67 - 3.6 34.1 00 14 480F 0924 Alarm State:  0
Wed May 24 16:33:13 PDT 2017 ON: 19.98 +20.0 19.64 - 3.2 34.8 00 14 472D 0920 Alarm State:  0
Wed May 24 16:32:12 PDT 2017 ON: 20.01 +20.0 19.68 - 4.4 33.8 07 14 4717 091F Alarm State:  0
Wed May 24 16:31:10 PDT 2017 ON: 20.01 +20.0 19.67 - 3.9 34.0 00 14 471E 0A0B Alarm State:  0
Wed May 24 16:30:09 PDT 2017 ON: 19.97 +20.0 19.63 - 3.8 33.8 00 14 4724 0A1D Alarm State:  0
Wed May 24 16:29:07 PDT 2017 ON: 20.02 +20.0 19.68 - 3.6 34.3 00 14 4816 090B Alarm State:  0
Wed May 24 16:28:06 PDT 2017 ON: 20.00 +20.0 19.67 - 4.2 33.8 00 14 4729 091A Alarm State:  0
Wed May 24 16:27:04 PDT 2017 ON: 19.96 +20.0 19.62 - 3.4 34.6 05 14 4809 0919 Alarm State:  0
Wed May 24 16:26:03 PDT 2017 ON: 20.00 +20.0 19.71 - 5.1 33.5 0D 13 480F 091B Alarm State:  0
Wed May 24 16:25:01 PDT 2017 ON: 19.99 +20.0 19.62 - 2.7 34.9 05 14 4901 0910 Alarm State:  0
Wed May 24 16:24:00 PDT 2017 ON: 20.01 +20.0 19.65 - 3.3 34.6 00 14 481C 0913 Alarm State:  0
Wed May 24 16:22:58 PDT 2017 ON: 20.01 +20.0 19.66 - 4.2 34.2 05 14 4726 0927 Alarm State:  0
Wed May 24 16:21:57 PDT 2017 ON: 20.00 +20.0 19.69 - 4.4 33.8 0D 14 471E 0916 Alarm State:  0
Wed May 24 16:20:55 PDT 2017 ON: 20.01 +20.0 19.67 - 4.1 33.9 00 14 4729 0904 Alarm State:  0
Wed May 24 16:19:54 PDT 2017 ON: 19.99 +20.0 19.65 - 3.8 34.6 05 14 471B 092A Alarm State:  0
Wed May 24 16:18:52 PDT 2017 ON: 19.98 +20.0 19.71 - 5.1 33.4 0D 13 471C 0A1A Alarm State:  0
Wed May 24 16:17:51 PDT 2017 ON: 19.95 +20.0 19.57 - 2.2 35.0 07 14 4827 0914 Alarm State:  0
Wed May 24 16:16:49 PDT 2017 ON: 20.01 +20.0 19.69 - 4.1 34.3 0D 14 4826 091F Alarm State:  0
Wed May 24 16:15:48 PDT 2017 ON: 20.04 +20.0 19.70 - 4.6 33.8 0D 13 4800 0926 Alarm State:  0
Wed May 24 16:14:47 PDT 2017 ON: 20.01 +20.0 19.64 - 3.6 34.1 00 14 4730 0920 Alarm State:  0
Wed May 24 16:13:45 PDT 2017 ON: 19.99 +20.0 19.65 - 3.7 34.5 05 14 4725 0918 Alarm State:  0
Wed May 24 16:12:44 PDT 2017 ON: 20.01 +20.0 19.71 - 4.7 33.9 0D 13 4723 090D Alarm State:  0
Wed May 24 16:11:42 PDT 2017 ON: 19.97 +20.0 19.58 - 2.5 34.8 00 14 480D 0918 Alarm State:  0
Wed May 24 16:10:41 PDT 2017 ON: 19.99 +20.0 19.69 - 4.2 34.0 0A 14 4728 0919 Alarm State:  0
Wed May 24 16:09:39 PDT 2017 ON: 20.01 +20.0 19.60 - 2.6 34.5 00 14 4812 0916 Alarm State:  0
Wed May 24 16:08:38 PDT 2017 ON: 20.00 +20.0 19.64 - 3.9 34.0 00 14 4725 091F Alarm State:  0
Wed May 24 16:07:36 PDT 2017 ON: 20.03 +20.0 19.63 - 3.0 34.3 00 14 480F 0926 Alarm State:  0
Wed May 24 16:06:35 PDT 2017 ON: 19.99 +20.0 19.64 - 3.5 34.5 00 14 4730 0925 Alarm State:  0
Wed May 24 16:05:33 PDT 2017 ON: 20.05 +20.0 19.70 - 4.8 33.3 0D 13 4800 0909 Alarm State:  0
Wed May 24 16:04:32 PDT 2017 ON: 20.01 +20.0 19.61 - 2.7 34.6 00 14 480E 091F Alarm State:  0
Wed May 24 16:03:30 PDT 2017 ON: 20.01 +20.0 19.64 - 3.4 34.5 05 14 4817 0A09 Alarm State:  0
Wed May 24 16:02:29 PDT 2017 ON: 20.01 +20.0 19.67 - 4.0 33.9 03 14 4900 0910 Alarm State:  0
Wed May 24 16:01:27 PDT 2017 ON: 20.04 +20.0 19.67 - 3.5 34.5 05 14 4820 0916 Alarm State:  0
Wed May 24 16:00:26 PDT 2017 ON: 20.01 +20.0 19.65 - 3.9 34.2 00 14 4816 0923 Alarm State:  0
Wed May 24 15:59:24 PDT 2017 ON: 20.05 +20.0 19.72 - 4.5 34.1 0A 12 4813 0915 Alarm State:  0
Wed May 24 15:58:23 PDT 2017 ON: 20.01 +20.0 19.68 - 4.6 33.6 02 14 4720 0926 Alarm State:  0
Wed May 24 15:57:21 PDT 2017 ON: 20.03 +20.0 19.63 - 3.1 34.3 00 14 4804 0905 Alarm State:  0
Wed May 24 15:56:20 PDT 2017 ON: 20.02 +20.0 19.66 - 3.2 34.7 0A 14 471D 0908 Alarm State:  0
Wed May 24 15:55:18 PDT 2017 ON: 20.00 +20.0 19.67 - 3.7 34.7 0D 14 4716 0904 Alarm State:  0
Wed May 24 15:54:17 PDT 2017 ON: 20.02 +20.0 19.69 - 4.5 33.8 0D 14 4710 0928 Alarm State:  0
Wed May 24 15:53:15 PDT 2017 ON: 19.97 +20.0 19.61 - 2.5 34.7 0D 14 4810 0907 Alarm State:  0
Wed May 24 15:52:14 PDT 2017 ON: 19.99 +20.0 19.64 - 3.9 34.1 07 14 4816 0923 Alarm State:  0
Wed May 24 15:51:12 PDT 2017 ON: 20.00 +20.0 19.62 - 3.3 34.2 00 14 4906 0910 Alarm State:  0
Wed May 24 15:50:11 PDT 2017 ON: 20.00 +20.0 19.66 - 4.0 33.9 05 14 4821 0911 Alarm State:  0
Wed May 24 15:49:09 PDT 2017 ON: 20.01 +20.0 19.69 - 4.3 33.9 05 14 480E 0915 Alarm State:  0
Wed May 24 15:48:08 PDT 2017 ON: 20.02 +20.0 19.70 - 4.2 34.4 0A 13 4725 0924 Alarm State:  0
Wed May 24 15:47:06 PDT 2017 ON: 20.01 +20.0 19.70 - 5.1 33.6 05 13 4623 090F Alarm State:  0
Wed May 24 15:46:05 PDT 2017 ON: 19.97 +20.0 19.63 - 3.2 34.8 02 14 470E 0913 Alarm State:  0
Wed May 24 15:45:03 PDT 2017 ON: 20.00 +20.0 19.71 - 4.5 34.1 08 13 4719 091E Alarm State:  0
Wed May 24 15:44:02 PDT 2017 ON: 19.98 +20.0 19.66 - 4.0 34.1 02 14 4806 0924 Alarm State:  0
Wed May 24 15:43:00 PDT 2017 ON: 20.01 +20.0 19.70 - 4.5 33.8 0D 13 480F 0902 Alarm State:  0
Wed May 24 15:41:58 PDT 2017 ON: 20.02 +20.0 19.65 - 4.0 33.9 00 14 4815 0918 Alarm State:  0
Wed May 24 15:40:57 PDT 2017 ON: 19.97 +20.0 19.65 - 3.9 34.3 00 14 4806 091A Alarm State:  0
Wed May 24 15:39:55 PDT 2017 ON: 20.04 +20.0 19.70 - 5.2 33.7 0D 13 4806 0905 Alarm State:  0
Wed May 24 15:38:54 PDT 2017 ON: 19.99 +20.0 19.64 - 3.7 34.6 02 14 472E 0928 Alarm State:  0
Wed May 24 15:37:52 PDT 2017 ON: 20.02 +20.0 19.69 - 5.0 33.7 0D 14 4718 0929 Alarm State:  0
Wed May 24 15:36:51 PDT 2017 ON: 20.02 +20.0 19.61 - 2.7 34.5 00 14 4810 0916 Alarm State:  0
Wed May 24 15:35:49 PDT 2017 ON: 20.00 +20.0 19.64 - 4.1 34.3 07 14 4800 0913 Alarm State:  0
Wed May 24 15:34:48 PDT 2017 ON: 20.03 +20.0 19.69 - 4.7 34.0 0D 14 4730 0909 Alarm State:  0
Wed May 24 15:33:46 PDT 2017 ON: 20.02 +20.0 19.69 - 4.9 33.8 0D 14 4710 090E Alarm State:  0
Wed May 24 15:32:45 PDT 2017 ON: 20.02 +20.0 19.67 - 4.8 33.8 07 14 4707 0910 Alarm State:  0
Wed May 24 15:31:44 PDT 2017 ON: 20.00 +20.0 19.62 - 3.4 34.8 07 14 4721 091A Alarm State:  0
Wed May 24 15:30:42 PDT 2017 ON: 20.00 +20.0 19.67 - 4.7 33.8 02 14 471C 0914 Alarm State:  0
Wed May 24 15:29:41 PDT 2017 ON: 20.00 +20.0 19.61 - 2.8 34.5 00 14 480F 090C Alarm State:  0
Wed May 24 15:28:39 PDT 2017 ON: 20.00 +20.0 19.66 - 4.2 34.5 00 14 4717 091C Alarm State:  0
Wed May 24 15:27:38 PDT 2017 ON: 20.01 +20.0 19.70 - 5.1 33.8 08 13 4703 0923 Alarm State:  0
Wed May 24 15:26:36 PDT 2017 ON: 20.00 +20.0 19.61 - 3.1 34.6 0A 14 471A 0907 Alarm State:  0
Wed May 24 15:25:35 PDT 2017 ON: 20.01 +20.0 19.66 - 4.6 33.9 02 14 470E 0A0C Alarm State:  0
Wed May 24 15:24:33 PDT 2017 ON: 20.01 +20.0 19.60 - 3.0 34.3 00 14 4812 0919 Alarm State:  0
Wed May 24 15:23:32 PDT 2017 ON: 20.01 +20.0 19.65 - 3.7 34.7 07 14 480A 090E Alarm State:  0
Wed May 24 15:22:30 PDT 2017 ON: 20.00 +20.0 19.67 - 4.6 33.9 02 14 4732 0900 Alarm State:  0
Wed May 24 15:21:29 PDT 2017 ON: 20.02 +20.0 19.70 - 5.5 33.4 0D 13 4728 0926 Alarm State:  0
Wed May 24 15:20:27 PDT 2017 ON: 19.98 +20.0 19.63 - 3.8 34.5 05 14 472D 090C Alarm State:  0
Wed May 24 15:19:26 PDT 2017 ON: 20.01 +20.0 19.70 - 5.0 33.8 0D 13 472B 0922 Alarm State:  0
Wed May 24 15:18:24 PDT 2017 ON: 20.00 +20.0 19.60 - 3.0 34.4 00 14 4730 091C Alarm State:  0
Wed May 24 15:17:23 PDT 2017 ON: 20.00 +20.0 19.64 - 4.5 34.0 00 14 470A 0929 Alarm State:  0
Wed May 24 15:16:21 PDT 2017 ON: 20.00 +20.0 19.61 - 3.3 34.2 02 14 472D 0901 Alarm State:  0
Wed May 24 15:15:20 PDT 2017 ON: 19.99 +20.0 19.65 - 4.1 33.8 07 14 4725 0925 Alarm State:  0
Wed May 24 15:14:18 PDT 2017 ON: 20.02 +20.0 19.67 - 4.2 33.9 00 14 4807 0922 Alarm State:  0
Wed May 24 15:13:17 PDT 2017 ON: 19.98 +20.0 19.63 - 3.4 34.6 05 14 471A 0923 Alarm State:  0
Wed May 24 15:12:15 PDT 2017 ON: 20.00 +20.0 19.68 - 4.4 33.7 00 14 4713 0925 Alarm State:  0
Wed May 24 15:11:14 PDT 2017 ON: 20.00 +20.0 19.67 - 3.8 34.1 00 14 4808 0913 Alarm State:  0
Wed May 24 15:10:12 PDT 2017 ON: 20.00 +20.0 19.61 - 2.5 34.7 05 14 4801 0903 Alarm State:  0
Wed May 24 15:09:11 PDT 2017 ON: 20.00 +20.0 19.66 - 4.1 34.2 05 14 471E 090E Alarm State:  0
Wed May 24 15:08:09 PDT 2017 ON: 20.01 +20.0 19.72 - 5.2 33.5 0D 12 471F 0925 Alarm State:  0
Wed May 24 15:07:08 PDT 2017 ON: 19.97 +20.0 19.59 - 2.7 35.0 07 14 480E 0926 Alarm State:  0
Wed May 24 15:06:06 PDT 2017 ON: 20.01 +20.0 19.67 - 3.6 34.6 0A 14 4811 0910 Alarm State:  0
Wed May 24 15:04:55 PDT 2017 ON: 19.99 +20.0 19.62 - 2.9 34.7 02 14 4800 0914 Alarm State:  0
Wed May 24 15:03:53 PDT 2017 ON: 20.01 +20.0 19.65 - 3.4 34.5 07 14 4719 091F Alarm State:  0
Wed May 24 15:02:52 PDT 2017 ON: 20.01 +20.0 19.68 - 4.6 33.9 07 14 462F 0929 Alarm State:  0
Wed May 24 15:01:50 PDT 2017 ON: 20.00 +20.0 19.59 - 2.0 34.8 04 14 4803 090C Alarm State:  0
Wed May 24 15:00:49 PDT 2017 ON: 19.98 +20.0 19.68 - 4.3 33.8 00 14 4727 0A08 Alarm State:  0
Wed May 24 14:59:47 PDT 2017 ON: 19.98 +20.0 19.60 - 2.3 34.7 02 14 4828 0927 Alarm State:  0
Wed May 24 14:58:46 PDT 2017 ON: 20.04 +20.0 19.68 - 3.5 34.5 0D 14 480F 0902 Alarm State:  0
Wed May 24 14:57:44 PDT 2017 ON: 20.02 +20.0 19.68 - 4.2 34.0 0D 14 4803 0907 Alarm State:  0
Wed May 24 14:56:43 PDT 2017 ON: 19.99 +20.0 19.62 - 2.8 34.5 00 14 4828 0904 Alarm State:  0
Wed May 24 14:55:42 PDT 2017 ON: 20.00 +20.0 19.64 - 3.1 34.4 00 14 4814 090F Alarm State:  0
Wed May 24 14:54:40 PDT 2017 ON: 20.01 +20.0 19.66 - 3.9 34.2 00 14 472E 090D Alarm State:  0
Wed May 24 14:53:39 PDT 2017 ON: 20.02 +20.0 19.69 - 4.3 33.9 0D 14 4732 091D Alarm State:  0
Wed May 24 14:52:37 PDT 2017 ON: 20.02 +20.0 19.65 - 3.5 34.1 00 14 4802 090D Alarm State:  0
Wed May 24 14:51:36 PDT 2017 ON: 19.99 +20.0 19.65 - 3.7 34.3 05 14 4729 092B Alarm State:  0
Wed May 24 14:50:34 PDT 2017 ON: 20.01 +20.0 19.70 - 4.4 33.9 0A 13 4732 090F Alarm State:  0
Wed May 24 14:49:33 PDT 2017 ON: 20.00 +20.0 19.68 - 4.7 33.3 00 14 472A 0A08 Alarm State:  0
Wed May 24 14:48:31 PDT 2017 ON: 19.96 +20.0 19.62 - 3.2 34.2 00 14 481A 0929 Alarm State:  0
Wed May 24 14:47:30 PDT 2017 ON: 20.02 +20.0 19.68 - 3.8 34.2 0D 14 4901 0913 Alarm State:  0
Wed May 24 14:46:28 PDT 2017 ON: 20.00 +20.0 19.64 - 2.8 34.7 02 14 4815 0921 Alarm State:  0
Wed May 24 14:45:26 PDT 2017 ON: 19.99 +20.0 19.67 - 3.7 34.6 02 14 471A 090D Alarm State:  0
Wed May 24 14:44:25 PDT 2017 ON: 20.01 +20.0 19.68 - 4.1 34.2 05 14 4711 0913 Alarm State:  0
Wed May 24 14:43:23 PDT 2017 ON: 20.01 +20.0 19.64 - 3.5 34.2 00 14 4727 090F Alarm State:  0
Wed May 24 14:42:22 PDT 2017 ON: 19.99 +20.0 19.64 - 3.9 34.2 05 14 471E 0A05 Alarm State:  0
Wed May 24 14:41:20 PDT 2017 ON: 20.02 +20.0 19.72 - 4.6 33.8 0D 12 4732 0912 Alarm State:  0
Wed May 24 14:40:19 PDT 2017 ON: 19.99 +20.0 19.60 - 2.3 34.6 00 14 4818 091B Alarm State:  0
Wed May 24 14:39:17 PDT 2017 ON: 19.99 +20.0 19.67 - 4.3 33.7 07 14 472F 0922 Alarm State:  0
Wed May 24 14:38:16 PDT 2017 ON: 20.00 +20.0 19.66 - 3.7 34.2 00 14 481F 0915 Alarm State:  0
Wed May 24 14:37:14 PDT 2017 ON: 19.99 +20.0 19.64 - 3.0 34.7 00 14 4819 0914 Alarm State:  0
Wed May 24 14:36:13 PDT 2017 ON: 20.00 +20.0 19.64 - 3.1 34.5 00 14 4808 0916 Alarm State:  0
Wed May 24 14:35:12 PDT 2017 ON: 19.99 +20.0 19.65 - 3.2 34.5 00 14 4725 091F Alarm State:  0
Wed May 24 14:34:10 PDT 2017 ON: 20.01 +20.0 19.66 - 4.3 33.9 05 14 4716 0927 Alarm State:  0
Wed May 24 14:33:08 PDT 2017 ON: 20.02 +20.0 19.72 - 5.1 33.5 0D 12 4724 0923 Alarm State:  0
Wed May 24 14:32:07 PDT 2017 ON: 20.00 +20.0 19.60 - 2.9 34.8 05 14 4810 0920 Alarm State:  0
Wed May 24 14:31:05 PDT 2017 ON: 20.02 +20.0 19.65 - 4.0 34.0 07 14 4818 0930 Alarm State:  0
Wed May 24 14:30:04 PDT 2017 ON: 20.00 +20.0 19.63 - 2.9 34.4 02 14 490C 0907 Alarm State:  0
Wed May 24 14:29:02 PDT 2017 ON: 20.02 +20.0 19.68 - 3.9 34.3 0D 14 480F 091C Alarm State:  0
Wed May 24 14:28:01 PDT 2017 ON: 19.99 +20.0 19.64 - 2.9 34.6 00 14 471F 0928 Alarm State:  0
Wed May 24 14:26:59 PDT 2017 ON: 19.99 +20.0 19.67 - 3.9 34.2 00 14 4630 090E Alarm State:  0
Wed May 24 14:25:58 PDT 2017 ON: 20.03 +20.0 19.68 - 4.7 33.5 00 14 4700 0A00 Alarm State:  0
Wed May 24 14:24:56 PDT 2017 ON: 19.97 +20.0 19.64 - 3.9 34.2 00 14 470C 0A08 Alarm State:  0
Wed May 24 14:23:55 PDT 2017 ON: 20.03 +20.0 19.69 - 4.4 34.0 0D 14 4725 0906 Alarm State:  0
Wed May 24 14:22:54 PDT 2017 ON: 20.01 +20.0 19.59 - 2.3 34.6 00 14 4814 0908 Alarm State:  0
Wed May 24 14:21:52 PDT 2017 ON: 19.99 +20.0 19.67 - 4.0 33.9 00 14 480B 0931 Alarm State:  0
Wed May 24 14:20:51 PDT 2017 ON: 20.03 +20.0 19.70 - 4.4 33.8 0A 13 4813 0912 Alarm State:  0
Wed May 24 14:19:49 PDT 2017 ON: 20.00 +20.0 19.63 - 3.2 34.4 00 14 4802 090C Alarm State:  0
Wed May 24 14:18:48 PDT 2017 ON: 20.00 +20.0 19.61 - 2.6 34.6 00 14 4729 0903 Alarm State:  0
Wed May 24 14:17:46 PDT 2017 ON: 20.02 +20.0 19.66 - 3.8 34.6 0D 14 4712 0905 Alarm State:  0
Wed May 24 14:16:45 PDT 2017 ON: 20.04 +20.0 19.72 - 5.4 33.4 0D 13 4702 0A00 Alarm State:  0
Wed May 24 14:15:43 PDT 2017 ON: 19.98 +20.0 19.64 - 3.0 34.7 07 14 4723 0929 Alarm State:  0
Wed May 24 14:14:42 PDT 2017 ON: 20.03 +20.0 19.71 - 5.0 33.5 0D 13 4727 090E Alarm State:  0
Wed May 24 14:13:40 PDT 2017 ON: 19.98 +20.0 19.63 - 3.2 34.8 00 14 4732 0919 Alarm State:  0
Wed May 24 14:12:39 PDT 2017 ON: 20.00 +20.0 19.70 - 4.6 34.0 0D 13 4722 090A Alarm State:  0
Wed May 24 14:11:37 PDT 2017 ON: 19.98 +20.0 19.62 - 2.7 34.9 02 14 480A 090F Alarm State:  0
Wed May 24 14:10:36 PDT 2017 ON: 20.01 +20.0 19.68 - 4.4 33.9 00 14 472D 090A Alarm State:  0
Wed May 24 14:09:34 PDT 2017 ON: 20.01 +20.0 19.61 - 2.5 34.6 07 14 4809 091B Alarm State:  0
Wed May 24 14:08:33 PDT 2017 ON: 20.02 +20.0 19.68 - 4.2 33.9 07 14 4715 0928 Alarm State:  0
Wed May 24 14:07:31 PDT 2017 ON: 20.00 +20.0 19.65 - 3.0 34.4 00 14 4809 091B Alarm State:  0
Wed May 24 14:06:30 PDT 2017 ON: 19.99 +20.0 19.64 - 3.2 34.7 05 14 4803 0916 Alarm State:  0
Wed May 24 14:05:28 PDT 2017 ON: 20.02 +20.0 19.71 - 4.7 33.9 0D 13 471B 0914 Alarm State:  0
Wed May 24 14:04:27 PDT 2017 ON: 20.00 +20.0 19.61 - 2.6 34.6 00 14 472F 091E Alarm State:  0
Wed May 24 14:03:25 PDT 2017 ON: 20.00 +20.0 19.67 - 4.1 34.1 00 14 471C 0926 Alarm State:  0
Wed May 24 14:02:24 PDT 2017 ON: 19.99 +20.0 19.62 - 2.4 34.7 00 14 481B 090A Alarm State:  0
Wed May 24 14:01:22 PDT 2017 ON: 20.01 +20.0 19.64 - 3.4 34.7 07 14 4816 090A Alarm State:  0
Wed May 24 14:00:21 PDT 2017 ON: 20.00 +20.0 19.71 - 5.2 33.5 0D 13 472F 0907 Alarm State:  0
Wed May 24 13:59:19 PDT 2017 ON: 19.99 +20.0 19.64 - 3.2 34.7 00 14 4807 0918 Alarm State:  0
Wed May 24 13:58:18 PDT 2017 ON: 20.00 +20.0 19.69 - 4.3 34.1 0A 14 472E 090B Alarm State:  0
Wed May 24 13:57:16 PDT 2017 ON: 20.01 +20.0 19.64 - 3.7 34.1 00 14 4802 0920 Alarm State:  0
Wed May 24 13:56:15 PDT 2017 ON: 19.98 +20.0 19.61 - 2.7 34.8 02 14 472D 091B Alarm State:  0
Wed May 24 13:55:13 PDT 2017 ON: 19.99 +20.0 19.64 - 4.1 34.0 00 14 471A 0917 Alarm State:  0
Wed May 24 13:54:12 PDT 2017 ON: 19.99 +20.0 19.64 - 2.8 34.6 00 14 4803 0921 Alarm State:  0
Wed May 24 13:53:10 PDT 2017 ON: 20.02 +20.0 19.68 - 4.0 34.4 05 14 4713 0908 Alarm State:  0
Wed May 24 13:52:09 PDT 2017 ON: 20.03 +20.0 19.69 - 5.2 33.3 02 14 4632 090F Alarm State:  0
Wed May 24 13:51:07 PDT 2017 ON: 19.98 +20.0 19.63 - 2.9 34.8 05 14 4718 090E Alarm State:  0
Wed May 24 13:50:06 PDT 2017 ON: 19.99 +20.0 19.68 - 4.4 33.9 05 14 4718 092A Alarm State:  0
Wed May 24 13:49:04 PDT 2017 ON: 19.99 +20.0 19.59 - 2.3 34.7 00 14 4818 0914 Alarm State:  0
Wed May 24 13:48:03 PDT 2017 ON: 20.01 +20.0 19.62 - 2.9 34.5 00 14 472F 091D Alarm State:  0
Wed May 24 13:47:01 PDT 2017 ON: 20.02 +20.0 19.65 - 3.6 34.1 00 14 4700 0908 Alarm State:  0
Wed May 24 13:46:00 PDT 2017 ON: 20.00 +20.0 19.68 - 4.2 33.8 07 14 461D 0A0B Alarm State:  0
Wed May 24 13:44:58 PDT 2017 ON: 20.00 +20.0 19.61 - 2.5 34.5 02 14 4725 091A Alarm State:  0
Wed May 24 13:43:57 PDT 2017 ON: 19.99 +20.0 19.65 - 4.0 34.2 0C 14 4717 0A11 Alarm State:  0
Wed May 24 13:42:55 PDT 2017 ON: 19.99 +20.0 19.62 - 2.6 34.5 02 14 481B 091E Alarm State:  0
Wed May 24 13:41:54 PDT 2017 ON: 19.98 +20.0 19.64 - 3.6 34.6 05 14 480D 0913 Alarm State:  0
Wed May 24 13:40:52 PDT 2017 ON: 20.00 +20.0 19.68 - 3.6 34.6 08 14 481A 0926 Alarm State:  0
Wed May 24 13:39:51 PDT 2017 ON: 19.99 +20.0 19.65 - 3.6 34.7 0A 14 4808 0925 Alarm State:  0
Wed May 24 13:38:49 PDT 2017 ON: 20.03 +20.0 19.67 - 4.3 33.9 00 14 4726 0906 Alarm State:  0
Wed May 24 13:37:48 PDT 2017 ON: 20.02 +20.0 19.66 - 3.8 33.9 00 14 4732 091A Alarm State:  0
Wed May 24 13:36:46 PDT 2017 ON: 20.05 +20.0 19.66 - 3.8 34.0 00 14 471F 0918 Alarm State:  0
Wed May 24 13:35:45 PDT 2017 ON: 20.00 +20.0 19.65 - 4.0 33.8 07 14 471F 0A03 Alarm State:  0
Wed May 24 13:34:43 PDT 2017 ON: 20.04 +20.0 19.68 - 3.8 34.0 0D 14 4811 091E Alarm State:  0
Wed May 24 13:33:42 PDT 2017 ON: 20.02 +20.0 19.64 - 3.1 34.6 02 14 4809 0913 Alarm State:  0
Wed May 24 13:32:40 PDT 2017 ON: 20.00 +20.0 19.64 - 3.1 34.8 0A 14 480E 092C Alarm State:  0
Wed May 24 13:31:39 PDT 2017 ON: 20.02 +20.0 19.65 - 3.9 34.5 00 14 4804 0900 Alarm State:  0
Wed May 24 13:30:37 PDT 2017 ON: 20.03 +20.0 19.68 - 4.2 34.2 02 14 4722 0904 Alarm State:  0
Wed May 24 13:29:36 PDT 2017 ON: 19.98 +20.0 19.62 - 3.0 34.7 00 14 4729 092C Alarm State:  0
Wed May 24 13:28:34 PDT 2017 ON: 19.99 +20.0 19.68 - 4.5 33.8 02 14 4711 0929 Alarm State:  0
Wed May 24 13:27:33 PDT 2017 ON: 20.01 +20.0 19.65 - 3.5 34.0 00 14 4803 0A02 Alarm State:  0
Wed May 24 13:26:31 PDT 2017 ON: 19.97 +20.0 19.63 - 3.1 34.7 05 14 481F 0A02 Alarm State:  0
Wed May 24 13:25:30 PDT 2017 ON: 20.02 +20.0 19.69 - 4.0 34.1 0D 14 4826 091C Alarm State:  0
Wed May 24 13:24:28 PDT 2017 ON: 20.03 +20.0 19.69 - 4.1 34.3 0D 14 4814 091D Alarm State:  0
Wed May 24 13:23:27 PDT 2017 ON: 19.99 +20.0 19.68 - 4.3 34.0 07 14 4722 092D Alarm State:  0
Wed May 24 13:22:25 PDT 2017 ON: 20.01 +20.0 19.61 - 2.2 34.8 05 14 4811 0919 Alarm State:  0
Wed May 24 13:21:24 PDT 2017 ON: 19.99 +20.0 19.68 - 4.3 34.1 07 14 4712 0929 Alarm State:  0
Wed May 24 13:20:22 PDT 2017 ON: 19.99 +20.0 19.61 - 2.2 34.7 00 14 4728 090A Alarm State:  0
Wed May 24 13:19:21 PDT 2017 ON: 19.99 +20.0 19.65 - 4.0 34.2 00 14 4705 0914 Alarm State:  0
Wed May 24 13:18:19 PDT 2017 ON: 20.00 +20.0 19.65 - 3.4 34.1 00 14 471B 0922 Alarm State:  0
Wed May 24 13:17:18 PDT 2017 ON: 19.97 +20.0 19.64 - 3.9 34.2 07 14 4714 0A1E Alarm State:  0
Wed May 24 13:16:16 PDT 2017 ON: 20.00 +20.0 19.62 - 2.2 34.5 00 14 4819 0920 Alarm State:  0
Wed May 24 13:15:15 PDT 2017 ON: 20.01 +20.0 19.66 - 4.2 33.9 00 14 472D 0928 Alarm State:  0
Wed May 24 13:14:13 PDT 2017 ON: 20.00 +20.0 19.60 - 2.3 34.7 00 14 482C 091B Alarm State:  0
Wed May 24 13:13:12 PDT 2017 ON: 20.00 +20.0 19.63 - 2.9 34.6 02 14 4828 090E Alarm State:  0
Wed May 24 13:12:10 PDT 2017 ON: 20.02 +20.0 19.61 - 2.5 34.6 05 14 482F 0921 Alarm State:  0
Wed May 24 13:11:08 PDT 2017 ON: 20.02 +20.0 19.66 - 3.7 34.2 00 14 4803 0909 Alarm State:  0
Wed May 24 13:10:07 PDT 2017 ON: 20.00 +20.0 19.64 - 3.0 34.7 07 14 4729 0903 Alarm State:  0
Wed May 24 13:09:05 PDT 2017 ON: 20.00 +20.0 19.65 - 3.2 34.7 07 14 4727 0929 Alarm State:  0
Wed May 24 13:08:03 PDT 2017 ON: 20.01 +20.0 19.63 - 2.7 34.8 0A 14 471F 0922 Alarm State:  0
Wed May 24 13:07:02 PDT 2017 ON: 20.01 +20.0 19.69 - 4.5 34.0 00 14 462B 0907 Alarm State:  0
Wed May 24 13:06:00 PDT 2017 ON: 20.01 +20.0 19.63 - 3.0 34.3 02 14 4702 0917 Alarm State:  0
Wed May 24 13:04:58 PDT 2017 ON: 19.98 +20.0 19.67 - 4.1 34.0 00 14 461D 0A1C Alarm State:  0
Wed May 24 13:03:57 PDT 2017 ON: 20.04 +20.0 19.70 - 5.0 33.2 0D 14 4632 0A1D Alarm State:  0
Wed May 24 13:02:55 PDT 2017 ON: 19.97 +20.0 19.60 - 3.2 34.2 00 14 4729 0A1D Alarm State:  0
Wed May 24 13:01:53 PDT 2017 ON: 20.02 +20.0 19.67 - 3.6 34.2 00 14 4816 090C Alarm State:  0
Wed May 24 13:00:52 PDT 2017 ON: 20.02 +20.0 19.65 - 2.9 34.6 07 14 4728 091A Alarm State:  0
Wed May 24 12:59:50 PDT 2017 ON: 20.01 +20.0 19.68 - 4.4 34.0 07 14 462D 0927 Alarm State:  0
Wed May 24 12:58:48 PDT 2017 ON: 20.01 +20.0 19.63 - 2.6 34.5 07 14 4720 0915 Alarm State:  0
Wed May 24 12:57:47 PDT 2017 ON: 19.99 +20.0 19.65 - 4.1 33.8 07 14 470C 0A14 Alarm State:  0
Wed May 24 12:56:45 PDT 2017 ON: 20.00 +20.0 19.64 - 3.4 34.1 00 14 4808 0925 Alarm State:  0
Wed May 24 12:55:34 PDT 2017 ON: 19.98 +20.0 19.61 - 2.9 34.9 02 14 4811 090D Alarm State:  0
Wed May 24 12:54:32 PDT 2017 ON: 20.01 +20.0 19.67 - 3.7 34.5 00 14 4803 0900 Alarm State:  0
Wed May 24 12:53:31 PDT 2017 ON: 20.02 +20.0 19.66 - 3.7 34.6 0D 14 470D 0912 Alarm State:  0
Wed May 24 12:52:29 PDT 2017 ON: 20.03 +20.0 19.70 - 4.8 33.9 0D 14 4630 0A13 Alarm State:  0
Wed May 24 12:51:28 PDT 2017 ON: 19.97 +20.0 19.59 - 2.5 34.8 01 14 4730 0922 Alarm State:  0
Wed May 24 12:50:26 PDT 2017 ON: 19.99 +20.0 19.60 - 2.4 34.8 07 14 4811 090D Alarm State:  0
Wed May 24 12:49:25 PDT 2017 ON: 20.00 +20.0 19.68 - 4.1 34.0 00 14 471D 0919 Alarm State:  0
Wed May 24 12:48:23 PDT 2017 ON: 20.00 +20.0 19.63 - 3.2 34.3 00 14 4806 090F Alarm State:  0
Wed May 24 12:47:22 PDT 2017 ON: 19.98 +20.0 19.64 - 3.5 34.3 00 14 4732 0928 Alarm State:  0
Wed May 24 12:46:20 PDT 2017 ON: 20.02 +20.0 19.69 - 4.4 34.1 08 14 480D 090D Alarm State:  0
Wed May 24 12:45:19 PDT 2017 ON: 20.02 +20.0 19.71 - 5.0 33.5 0D 13 4715 0921 Alarm State:  0
Wed May 24 12:44:17 PDT 2017 ON: 19.97 +20.0 19.62 - 2.8 34.8 02 14 480E 092B Alarm State:  0
Wed May 24 12:43:16 PDT 2017 ON: 20.02 +20.0 19.68 - 4.1 33.9 0A 14 4809 091B Alarm State:  0
Wed May 24 12:42:14 PDT 2017 ON: 20.04 +20.0 19.70 - 4.5 33.8 0D 13 480B 0908 Alarm State:  0
Wed May 24 12:41:13 PDT 2017 ON: 20.00 +20.0 19.60 - 2.8 34.6 02 14 4808 0923 Alarm State:  0
Wed May 24 12:40:11 PDT 2017 ON: 19.98 +20.0 19.64 - 3.8 34.5 00 14 471D 092A Alarm State:  0
Wed May 24 12:39:10 PDT 2017 ON: 20.03 +20.0 19.70 - 4.6 33.7 0A 13 4720 091E Alarm State:  0
Wed May 24 12:38:08 PDT 2017 ON: 20.00 +20.0 19.60 - 2.5 34.9 0C 14 481D 0910 Alarm State:  0
Wed May 24 12:37:07 PDT 2017 ON: 20.00 +20.0 19.67 - 4.2 34.1 05 14 4802 0916 Alarm State:  0
Wed May 24 12:36:05 PDT 2017 ON: 20.01 +20.0 19.63 - 2.7 34.4 02 14 4818 0928 Alarm State:  0
Wed May 24 12:35:04 PDT 2017 ON: 20.01 +20.0 19.65 - 3.6 34.3 07 14 4805 0905 Alarm State:  0
Wed May 24 12:34:02 PDT 2017 ON: 20.05 +20.0 19.71 - 4.8 33.5 0A 13 480F 0919 Alarm State:  0
Wed May 24 12:33:01 PDT 2017 ON: 19.96 +20.0 19.64 - 3.1 34.9 07 14 4810 0928 Alarm State:  0
Wed May 24 12:31:59 PDT 2017 ON: 20.00 +20.0 19.68 - 4.1 34.2 0D 14 480C 0915 Alarm State:  0
Wed May 24 12:30:57 PDT 2017 ON: 20.01 +20.0 19.70 - 4.8 33.5 0A 13 4727 091E Alarm State:  0
Wed May 24 12:29:56 PDT 2017 ON: 19.99 +20.0 19.60 - 2.9 34.9 09 14 472C 090C Alarm State:  0
Wed May 24 12:28:54 PDT 2017 ON: 20.03 +20.0 19.69 - 4.2 33.9 0D 14 4726 0A03 Alarm State:  0
Wed May 24 12:27:52 PDT 2017 ON: 20.03 +20.0 19.62 - 2.9 34.3 00 14 4811 0900 Alarm State:  0
Wed May 24 12:26:51 PDT 2017 ON: 19.98 +20.0 19.65 - 3.6 34.3 00 14 4802 092B Alarm State:  0
Wed May 24 12:25:49 PDT 2017 ON: 20.00 +20.0 19.69 - 4.4 34.0 0A 14 4804 0912 Alarm State:  0
Wed May 24 12:24:47 PDT 2017 ON: 20.01 +20.0 19.66 - 3.6 34.1 00 14 4729 0915 Alarm State:  0
Wed May 24 12:23:46 PDT 2017 ON: 20.01 +20.0 19.65 - 3.2 34.7 0A 14 4718 0915 Alarm State:  0
Wed May 24 12:22:44 PDT 2017 ON: 20.03 +20.0 19.68 - 4.2 34.1 05 14 470C 0910 Alarm State:  0
Wed May 24 12:21:43 PDT 2017 ON: 20.00 +20.0 19.67 - 4.0 33.9 00 14 4713 0900 Alarm State:  0
Wed May 24 12:20:41 PDT 2017 ON: 19.97 +20.0 19.64 - 3.1 34.8 02 14 471F 0912 Alarm State:  0
Wed May 24 12:19:39 PDT 2017 ON: 20.01 +20.0 19.70 - 4.6 33.9 0A 13 4705 090F Alarm State:  0
Wed May 24 12:18:38 PDT 2017 ON: 20.00 +20.0 19.60 - 2.4 34.8 00 14 471C 0910 Alarm State:  0
Wed May 24 12:17:36 PDT 2017 ON: 20.00 +20.0 19.67 - 4.4 34.0 00 14 4706 0A0F Alarm State:  0
Wed May 24 12:16:34 PDT 2017 ON: 20.00 +20.0 19.60 - 2.3 34.7 00 14 4805 0927 Alarm State:  0
Wed May 24 12:15:33 PDT 2017 ON: 20.00 +20.0 19.68 - 3.8 34.2 00 14 4727 0900 Alarm State:  0
Wed May 24 12:14:31 PDT 2017 ON: 20.04 +20.0 19.71 - 4.8 33.6 05 13 4721 0924 Alarm State:  0
Wed May 24 12:13:30 PDT 2017 ON: 19.98 +20.0 19.63 - 3.1 34.8 00 14 471A 0916 Alarm State:  0
Wed May 24 12:12:28 PDT 2017 ON: 20.00 +20.0 19.69 - 4.8 33.8 08 14 4710 0A0D Alarm State:  0
Wed May 24 12:11:27 PDT 2017 ON: 20.00 +20.0 19.59 - 2.2 34.8 09 14 480C 0926 Alarm State:  0
Wed May 24 12:10:25 PDT 2017 ON: 19.99 +20.0 19.67 - 4.0 34.1 05 14 4725 0929 Alarm State:  0
Wed May 24 12:09:24 PDT 2017 ON: 20.00 +20.0 19.62 - 2.5 34.6 00 14 4817 091C Alarm State:  0
Wed May 24 12:08:22 PDT 2017 ON: 20.00 +20.0 19.68 - 4.3 33.8 02 14 471E 0908 Alarm State:  0
Wed May 24 12:07:21 PDT 2017 ON: 20.01 +20.0 19.62 - 2.9 34.5 00 14 480A 0913 Alarm State:  0
Wed May 24 12:06:19 PDT 2017 ON: 20.00 +20.0 19.65 - 3.9 34.1 07 14 471F 091A Alarm State:  0
Wed May 24 12:05:18 PDT 2017 ON: 20.00 +20.0 19.70 - 4.7 33.7 08 13 4726 0902 Alarm State:  0
Wed May 24 12:04:16 PDT 2017 ON: 19.97 +20.0 19.59 - 2.4 34.8 00 14 4813 0904 Alarm State:  0
Wed May 24 12:03:15 PDT 2017 ON: 20.03 +20.0 19.65 - 3.2 34.4 00 14 4808 0902 Alarm State:  0
Wed May 24 12:02:13 PDT 2017 ON: 20.03 +20.0 19.64 - 3.7 34.1 07 14 471B 090B Alarm State:  0
Wed May 24 12:01:12 PDT 2017 ON: 20.01 +20.0 19.64 - 3.3 34.3 02 14 4720 0928 Alarm State:  0
Wed May 24 12:00:10 PDT 2017 ON: 20.03 +20.0 19.66 - 3.7 34.0 00 14 470A 0908 Alarm State:  0
Wed May 24 11:59:09 PDT 2017 ON: 19.97 +20.0 19.65 - 3.6 34.3 00 14 4630 0923 Alarm State:  0
Wed May 24 11:58:07 PDT 2017 ON: 20.01 +20.0 19.70 - 4.4 33.9 08 13 4711 0927 Alarm State:  0
Wed May 24 11:57:06 PDT 2017 ON: 19.99 +20.0 19.60 - 2.3 34.7 05 14 4801 0923 Alarm State:  0
Wed May 24 11:56:04 PDT 2017 ON: 20.01 +20.0 19.68 - 4.2 33.8 0A 14 471A 0924 Alarm State:  0
Wed May 24 11:55:03 PDT 2017 ON: 20.01 +20.0 19.63 - 3.2 34.3 00 14 480C 0917 Alarm State:  0
Wed May 24 11:54:01 PDT 2017 ON: 19.98 +20.0 19.62 - 3.2 34.7 02 14 471F 091C Alarm State:  0
Wed May 24 11:53:00 PDT 2017 ON: 20.00 +20.0 19.66 - 4.3 34.0 00 14 470E 091A Alarm State:  0
Wed May 24 11:51:58 PDT 2017 ON: 19.98 +20.0 19.59 - 2.2 34.8 09 14 480D 090A Alarm State:  0
Wed May 24 11:50:57 PDT 2017 ON: 20.01 +20.0 19.66 - 3.4 34.4 00 14 4727 090A Alarm State:  0
Wed May 24 11:49:55 PDT 2017 ON: 20.02 +20.0 19.64 - 3.6 34.1 00 14 4713 0917 Alarm State:  0
Wed May 24 11:48:54 PDT 2017 ON: 20.01 +20.0 19.67 - 4.1 34.2 05 14 462F 091D Alarm State:  0
Wed May 24 11:47:52 PDT 2017 ON: 20.01 +20.0 19.60 - 2.2 34.6 00 14 472E 0901 Alarm State:  0
Wed May 24 11:46:50 PDT 2017 ON: 20.02 +20.0 19.68 - 3.9 34.1 00 14 4708 0910 Alarm State:  0
Wed May 24 11:45:49 PDT 2017 ON: 19.99 +20.0 19.59 - 2.3 34.8 0D 14 471B 0919 Alarm State:  0
Wed May 24 11:44:47 PDT 2017 ON: 20.00 +20.0 19.68 - 4.3 33.8 00 14 4632 0924 Alarm State:  0
Wed May 24 11:43:45 PDT 2017 ON: 20.01 +20.0 19.69 - 4.0 33.8 00 14 4703 0A0D Alarm State:  0
Wed May 24 11:42:44 PDT 2017 ON: 20.00 +20.0 19.64 - 3.7 34.2 05 14 4708 0A1C Alarm State:  0
Wed May 24 11:41:42 PDT 2017 ON: 20.04 +20.0 19.71 - 4.9 33.5 0A 13 4722 0A1A Alarm State:  0
Wed May 24 11:40:41 PDT 2017 ON: 19.97 +20.0 19.63 - 3.2 34.5 05 14 4818 0A01 Alarm State:  0
Wed May 24 11:39:39 PDT 2017 ON: 20.01 +20.0 19.70 - 4.3 34.1 0D 13 482A 0906 Alarm State:  0
Wed May 24 11:38:38 PDT 2017 ON: 20.01 +20.0 19.69 - 4.3 33.9 0D 14 480B 090E Alarm State:  0
Wed May 24 11:37:36 PDT 2017 ON: 20.01 +20.0 19.64 - 2.8 34.4 00 14 481D 0924 Alarm State:  0
Wed May 24 11:36:34 PDT 2017 ON: 19.98 +20.0 19.65 - 3.9 34.4 05 14 4732 092B Alarm State:  0
Wed May 24 11:35:33 PDT 2017 ON: 20.02 +20.0 19.71 - 4.6 33.8 0D 13 472D 091B Alarm State:  0
Wed May 24 11:34:21 PDT 2017 ON: 20.03 +20.0 19.65 - 3.5 34.3 00 14 4810 0908 Alarm State:  0
Wed May 24 11:33:20 PDT 2017 ON: 19.99 +20.0 19.65 - 3.8 34.5 0A 14 4732 090E Alarm State:  0
Wed May 24 11:32:18 PDT 2017 ON: 20.03 +20.0 19.69 - 4.8 33.8 0D 14 472C 0903 Alarm State:  0
Wed May 24 11:31:17 PDT 2017 ON: 19.98 +20.0 19.62 - 2.6 34.7 02 14 480E 090A Alarm State:  0
Wed May 24 11:30:05 PDT 2017 ON: 20.05 +20.0 19.65 - 3.7 34.0 00 14 4802 090F Alarm State:  0
Wed May 24 11:29:04 PDT 2017 ON: 20.01 +20.0 19.66 - 3.7 34.5 05 14 472A 090F Alarm State:  0
Wed May 24 11:28:02 PDT 2017 ON: 20.04 +20.0 19.69 - 4.0 34.5 0D 14 4732 091D Alarm State:  0
Wed May 24 11:27:01 PDT 2017 ON: 20.01 +20.0 19.68 - 4.5 33.8 07 14 471B 0923 Alarm State:  0
Wed May 24 11:25:59 PDT 2017 ON: 20.02 +20.0 19.61 - 2.9 34.4 00 14 4808 0926 Alarm State:  0
Wed May 24 11:24:58 PDT 2017 ON: 19.99 +20.0 19.66 - 3.5 34.7 0A 14 4728 0924 Alarm State:  0
Wed May 24 11:23:56 PDT 2017 ON: 20.01 +20.0 19.68 - 4.0 34.2 02 14 471C 091D Alarm State:  0
Wed May 24 11:22:55 PDT 2017 ON: 19.98 +20.0 19.62 - 2.6 34.7 07 14 472B 0903 Alarm State:  0
Wed May 24 11:21:53 PDT 2017 ON: 19.98 +20.0 19.67 - 4.2 33.7 00 14 471B 0925 Alarm State:  0
Wed May 24 11:20:52 PDT 2017 ON: 20.03 +20.0 19.68 - 3.9 34.0 08 14 480B 091A Alarm State:  0
Wed May 24 11:19:50 PDT 2017 ON: 20.03 +20.0 19.65 - 3.8 34.0 00 14 4807 0913 Alarm State:  0
Wed May 24 11:18:49 PDT 2017 ON: 20.01 +20.0 19.69 - 4.5 33.9 0D 14 471E 0925 Alarm State:  0
Wed May 24 11:17:47 PDT 2017 ON: 20.01 +20.0 19.62 - 3.0 34.3 00 14 4726 0910 Alarm State:  0
Wed May 24 11:16:46 PDT 2017 ON: 20.01 +20.0 19.67 - 4.2 34.0 07 14 470F 0A08 Alarm State:  0
Wed May 24 11:15:44 PDT 2017 ON: 19.99 +20.0 19.58 - 2.2 34.7 04 14 4818 0914 Alarm State:  0
Wed May 24 11:14:43 PDT 2017 ON: 20.00 +20.0 19.67 - 4.2 33.8 07 14 4809 0914 Alarm State:  0
Wed May 24 11:13:41 PDT 2017 ON: 20.03 +20.0 19.66 - 3.1 34.3 00 14 482D 090E Alarm State:  0
Wed May 24 11:12:40 PDT 2017 ON: 19.99 +20.0 19.67 - 3.8 34.4 00 14 4808 091E Alarm State:  0
Wed May 24 11:11:38 PDT 2017 ON: 20.02 +20.0 19.73 - 5.3 33.3 08 12 4727 0921 Alarm State:  0
Wed May 24 11:10:36 PDT 2017 ON: 19.98 +20.0 19.62 - 3.3 34.4 00 14 4814 0924 Alarm State:  0
Wed May 24 11:09:35 PDT 2017 ON: 20.02 +20.0 19.70 - 4.6 33.7 08 13 4825 0921 Alarm State:  0
Wed May 24 11:08:33 PDT 2017 ON: 19.98 +20.0 19.61 - 2.7 34.8 02 14 482B 090E Alarm State:  0
Wed May 24 11:07:32 PDT 2017 ON: 20.00 +20.0 19.67 - 4.0 34.4 05 14 481A 090C Alarm State:  0
Wed May 24 11:06:30 PDT 2017 ON: 19.99 +20.0 19.68 - 4.0 34.0 0D 14 4818 0907 Alarm State:  0
Wed May 24 11:05:29 PDT 2017 ON: 20.01 +20.0 19.69 - 4.6 33.9 05 14 4809 0907 Alarm State:  0
Wed May 24 11:04:27 PDT 2017 ON: 19.99 +20.0 19.60 - 2.5 34.7 00 14 4803 0927 Alarm State:  0
Wed May 24 11:03:26 PDT 2017 ON: 19.98 +20.0 19.67 - 4.1 34.1 0A 14 471D 0A00 Alarm State:  0
Wed May 24 11:02:24 PDT 2017 ON: 20.01 +20.0 19.65 - 2.8 34.4 02 14 4810 0922 Alarm State:  0
Wed May 24 11:01:23 PDT 2017 ON: 20.01 +20.0 19.66 - 3.6 34.1 00 14 472C 0903 Alarm State:  0
Wed May 24 11:00:21 PDT 2017 ON: 19.97 +20.0 19.63 - 3.6 34.6 0A 14 4724 0919 Alarm State:  0
Wed May 24 10:59:20 PDT 2017 ON: 19.98 +20.0 19.66 - 3.8 34.5 0A 14 480A 0922 Alarm State:  0
Wed May 24 10:58:18 PDT 2017 ON: 20.02 +20.0 19.69 - 4.4 34.0 0D 14 4729 091B Alarm State:  0
Wed May 24 10:57:17 PDT 2017 ON: 20.01 +20.0 19.62 - 2.9 34.3 02 14 4805 0909 Alarm State:  0
Wed May 24 10:56:15 PDT 2017 ON: 20.02 +20.0 19.66 - 3.8 33.9 07 14 4720 090C Alarm State:  0
Wed May 24 10:55:14 PDT 2017 ON: 20.03 +20.0 19.69 - 4.3 33.8 0A 14 4723 091B Alarm State:  0
Wed May 24 10:54:12 PDT 2017 ON: 20.03 +20.0 19.64 - 3.0 34.4 00 14 471D 0914 Alarm State:  0
Wed May 24 10:53:11 PDT 2017 ON: 20.02 +20.0 19.66 - 3.9 34.2 02 14 4702 091E Alarm State:  0
Wed May 24 10:52:09 PDT 2017 ON: 20.02 +20.0 19.67 - 3.9 34.3 05 14 4621 091F Alarm State:  0
Wed May 24 10:51:08 PDT 2017 ON: 20.03 +20.0 19.70 - 4.5 33.7 0D 13 4701 0924 Alarm State:  0
Wed May 24 10:50:06 PDT 2017 ON: 19.99 +20.0 19.60 - 2.5 34.8 07 14 470D 0A05 Alarm State:  0
Wed May 24 10:49:05 PDT 2017 ON: 19.98 +20.0 19.66 - 4.0 33.7 00 14 4720 0A14 Alarm State:  0
Wed May 24 10:48:03 PDT 2017 ON: 19.99 +20.0 19.67 - 3.6 33.9 00 14 481B 0905 Alarm State:  0
Wed May 24 10:47:02 PDT 2017 ON: 20.01 +20.0 19.67 - 3.7 34.4 02 14 480E 0901 Alarm State:  0
Wed May 24 10:46:00 PDT 2017 ON: 19.98 +20.0 19.66 - 4.0 34.5 02 14 4723 0912 Alarm State:  0
Wed May 24 10:44:59 PDT 2017 ON: 20.00 +20.0 19.66 - 3.5 34.7 02 14 4801 0921 Alarm State:  0
Wed May 24 10:43:57 PDT 2017 ON: 20.01 +20.0 19.69 - 4.4 34.2 0A 14 471A 0926 Alarm State:  0
Wed May 24 10:42:56 PDT 2017 ON: 20.03 +20.0 19.69 - 4.7 33.6 0D 14 4707 092A Alarm State:  0
Wed May 24 10:41:54 PDT 2017 ON: 20.01 +20.0 19.63 - 3.3 34.2 00 14 4802 0914 Alarm State:  0
Wed May 24 10:40:53 PDT 2017 ON: 20.00 +20.0 19.64 - 3.3 34.7 0C 14 4811 0921 Alarm State:  0
Wed May 24 10:39:51 PDT 2017 ON: 20.03 +20.0 19.67 - 4.4 33.9 05 14 481F 090E Alarm State:  0
Wed May 24 10:38:50 PDT 2017 ON: 20.02 +20.0 19.70 - 4.3 33.9 0A 13 4824 0921 Alarm State:  0
Wed May 24 10:37:48 PDT 2017 ON: 20.01 +20.0 19.65 - 3.6 34.2 00 14 4819 0915 Alarm State:  0
Wed May 24 10:36:47 PDT 2017 ON: 20.00 +20.0 19.67 - 4.1 33.9 05 14 4722 0924 Alarm State:  0
Wed May 24 10:35:45 PDT 2017 ON: 20.02 +20.0 19.67 - 4.1 33.8 00 14 4719 0918 Alarm State:  0
Wed May 24 10:34:44 PDT 2017 ON: 19.98 +20.0 19.66 - 3.7 34.5 05 14 4701 091B Alarm State:  0
Wed May 24 10:33:42 PDT 2017 ON: 20.01 +20.0 19.70 - 4.8 33.7 0D 14 4704 0A05 Alarm State:  0
Wed May 24 10:32:41 PDT 2017 ON: 19.97 +20.0 19.60 - 2.6 34.8 04 14 4730 0925 Alarm State:  0
Wed May 24 10:31:39 PDT 2017 ON: 20.03 +20.0 19.67 - 4.1 34.4 05 14 4725 091D Alarm State:  0
Wed May 24 10:30:38 PDT 2017 ON: 20.01 +20.0 19.70 - 4.9 33.6 0A 13 470F 0922 Alarm State:  0
Wed May 24 10:29:36 PDT 2017 ON: 19.99 +20.0 19.61 - 2.7 34.8 00 14 4801 091C Alarm State:  0
Wed May 24 10:28:35 PDT 2017 ON: 20.00 +20.0 19.68 - 4.5 34.0 00 14 471E 0913 Alarm State:  0
Wed May 24 10:27:34 PDT 2017 ON: 20.00 +20.0 19.62 - 2.7 34.5 00 14 4806 0920 Alarm State:  0
Wed May 24 10:26:32 PDT 2017 ON: 19.99 +20.0 19.66 - 4.2 33.6 00 14 4721 0927 Alarm State:  0
Wed May 24 10:25:31 PDT 2017 ON: 20.00 +20.0 19.63 - 3.1 34.3 00 14 481B 090E Alarm State:  0
Wed May 24 10:24:29 PDT 2017 ON: 20.00 +20.0 19.63 - 2.9 34.7 0C 14 4805 090F Alarm State:  0
Wed May 24 10:23:28 PDT 2017 ON: 20.00 +20.0 19.63 - 2.9 34.8 0A 14 480A 0901 Alarm State:  0
Wed May 24 10:22:26 PDT 2017 ON: 20.02 +20.0 19.68 - 4.1 34.1 07 14 4721 0908 Alarm State:  0
Wed May 24 10:21:25 PDT 2017 ON: 20.00 +20.0 19.69 - 4.5 33.8 0D 14 471A 0923 Alarm State:  0
Wed May 24 10:20:23 PDT 2017 ON: 20.02 +20.0 19.63 - 2.7 34.6 00 14 4805 0904 Alarm State:  0
Wed May 24 10:19:22 PDT 2017 ON: 20.03 +20.0 19.62 - 2.9 34.4 00 14 4731 0900 Alarm State:  0
Wed May 24 10:18:20 PDT 2017 ON: 19.99 +20.0 19.66 - 4.3 33.8 02 14 4713 0A09 Alarm State:  0
Wed May 24 10:17:19 PDT 2017 ON: 20.01 +20.0 19.61 - 2.9 34.3 00 14 4813 0920 Alarm State:  0
Wed May 24 10:16:17 PDT 2017 ON: 20.00 +20.0 19.66 - 3.6 34.2 00 14 4809 0921 Alarm State:  0
Wed May 24 10:15:16 PDT 2017 ON: 19.98 +20.0 19.62 - 2.7 34.8 05 14 4820 092A Alarm State:  0
Wed May 24 10:14:14 PDT 2017 ON: 20.00 +20.0 19.66 - 3.5 34.3 05 14 480A 0906 Alarm State:  0
Wed May 24 10:13:13 PDT 2017 ON: 19.98 +20.0 19.66 - 3.8 34.2 00 14 4730 0929 Alarm State:  0
Wed May 24 10:12:11 PDT 2017 ON: 20.01 +20.0 19.70 - 4.4 33.8 0D 13 4801 0910 Alarm State:  0
Wed May 24 10:11:10 PDT 2017 ON: 19.98 +20.0 19.60 - 2.3 34.6 00 14 4812 0919 Alarm State:  0
Wed May 24 10:10:08 PDT 2017 ON: 20.02 +20.0 19.68 - 3.8 34.5 0D 14 4717 0928 Alarm State:  0
Wed May 24 10:09:07 PDT 2017 ON: 20.00 +20.0 19.69 - 4.2 34.0 0A 14 4712 0920 Alarm State:  0
Wed May 24 10:08:05 PDT 2017 ON: 20.01 +20.0 19.59 - 2.1 34.7 00 14 4819 090A Alarm State:  0
Wed May 24 10:07:04 PDT 2017 ON: 20.01 +20.0 19.66 - 3.9 34.2 00 14 4804 0912 Alarm State:  0
Wed May 24 10:06:02 PDT 2017 ON: 20.02 +20.0 19.61 - 2.5 34.7 05 14 4818 0914 Alarm State:  0
Wed May 24 10:05:01 PDT 2017 ON: 20.01 +20.0 19.66 - 4.0 34.0 07 14 4730 0916 Alarm State:  0
Wed May 24 10:03:59 PDT 2017 ON: 20.04 +20.0 19.70 - 4.5 33.7 0D 13 472E 0901 Alarm State:  0
Wed May 24 10:02:58 PDT 2017 ON: 20.01 +20.0 19.66 - 3.6 34.2 02 14 471B 0901 Alarm State:  0
Wed May 24 10:01:56 PDT 2017 ON: 19.98 +20.0 19.63 - 3.3 34.5 00 14 4721 0917 Alarm State:  0
Wed May 24 10:00:55 PDT 2017 ON: 20.01 +20.0 19.70 - 5.0 33.3 08 13 472C 091E Alarm State:  0
Wed May 24 09:59:53 PDT 2017 ON: 19.97 +20.0 19.64 - 3.2 34.8 02 14 4803 0A01 Alarm State:  0
Wed May 24 09:58:52 PDT 2017 ON: 20.03 +20.0 19.70 - 4.8 33.9 0D 13 4731 091D Alarm State:  0
Wed May 24 09:57:50 PDT 2017 ON: 20.01 +20.0 19.61 - 2.7 34.8 0A 14 481A 0919 Alarm State:  0
Wed May 24 09:56:49 PDT 2017 ON: 19.99 +20.0 19.65 - 4.0 34.2 05 14 4811 0917 Alarm State:  0
Wed May 24 09:55:47 PDT 2017 ON: 20.00 +20.0 19.62 - 2.6 34.5 00 14 4832 090E Alarm State:  0
Wed May 24 09:54:46 PDT 2017 ON: 19.99 +20.0 19.65 - 3.3 34.7 05 14 4814 091B Alarm State:  0
Wed May 24 09:53:44 PDT 2017 ON: 20.01 +20.0 19.68 - 4.2 34.1 00 14 4732 0921 Alarm State:  0
Wed May 24 09:52:43 PDT 2017 ON: 20.02 +20.0 19.67 - 4.4 33.6 00 14 4726 0918 Alarm State:  0
Wed May 24 09:51:41 PDT 2017 ON: 20.01 +20.0 19.64 - 3.4 34.5 07 14 4731 092E Alarm State:  0
Wed May 24 09:50:40 PDT 2017 ON: 20.02 +20.0 19.70 - 4.4 33.8 0D 13 4804 0913 Alarm State:  0
Wed May 24 09:49:38 PDT 2017 ON: 20.03 +20.0 19.64 - 3.4 34.4 02 14 4726 0919 Alarm State:  0
Wed May 24 09:48:37 PDT 2017 ON: 20.00 +20.0 19.69 - 4.6 34.0 00 14 462B 092C Alarm State:  0
Wed May 24 09:47:35 PDT 2017 ON: 19.99 +20.0 19.59 - 2.2 34.9 07 14 472D 090B Alarm State:  0
Wed May 24 09:46:34 PDT 2017 ON: 20.02 +20.0 19.67 - 3.9 34.6 02 14 4723 0908 Alarm State:  0
Wed May 24 09:45:32 PDT 2017 ON: 20.01 +20.0 19.66 - 4.0 34.3 07 14 4710 090A Alarm State:  0
Wed May 24 09:44:31 PDT 2017 ON: 20.03 +20.0 19.71 - 4.8 33.8 0D 13 4708 0926 Alarm State:  0
Wed May 24 09:43:29 PDT 2017 ON: 19.99 +20.0 19.60 - 2.4 34.7 09 14 472F 090D Alarm State:  0
Wed May 24 09:42:28 PDT 2017 ON: 20.00 +20.0 19.62 - 2.9 34.8 0C 14 4812 091D Alarm State:  0
Wed May 24 09:41:27 PDT 2017 ON: 19.99 +20.0 19.68 - 4.2 34.0 00 14 472E 0925 Alarm State:  0
Wed May 24 09:40:25 PDT 2017 ON: 20.00 +20.0 19.64 - 3.1 34.2 00 14 4811 0900 Alarm State:  0
Wed May 24 09:39:24 PDT 2017 ON: 19.98 +20.0 19.65 - 3.8 34.2 07 14 4804 0929 Alarm State:  0
Wed May 24 09:38:22 PDT 2017 ON: 20.00 +20.0 19.69 - 4.3 33.9 0D 14 4806 0910 Alarm State:  0
Wed May 24 09:37:21 PDT 2017 ON: 20.01 +20.0 19.69 - 4.1 34.0 03 14 472C 090C Alarm State:  0
Wed May 24 09:36:19 PDT 2017 ON: 19.99 +20.0 19.61 - 2.7 34.7 05 14 471E 0A07 Alarm State:  0
Wed May 24 09:35:18 PDT 2017 ON: 19.99 +20.0 19.69 - 4.9 33.6 05 14 462C 0B0B Alarm State:  0
Wed May 24 09:34:16 PDT 2017 ON: 19.95 +20.0 19.58 - 2.6 34.9 01 14 4800 0A07 Alarm State:  0
Wed May 24 09:33:15 PDT 2017 ON: 20.04 +20.0 19.70 - 4.5 33.9 0D 13 4732 091D Alarm State:  0
Wed May 24 09:32:13 PDT 2017 ON: 20.01 +20.0 19.59 - 2.3 34.8 01 14 4823 0917 Alarm State:  0
Wed May 24 09:31:11 PDT 2017 ON: 20.01 +20.0 19.67 - 4.4 33.8 07 14 472B 0927 Alarm State:  0
Wed May 24 09:30:10 PDT 2017 ON: 20.02 +20.0 19.66 - 3.8 34.0 00 14 4802 0914 Alarm State:  0
Wed May 24 09:29:08 PDT 2017 ON: 19.99 +20.0 19.64 - 3.1 34.5 00 14 4728 0916 Alarm State:  0
Wed May 24 09:28:07 PDT 2017 ON: 20.00 +20.0 19.64 - 2.8 34.6 02 14 4726 090B Alarm State:  0
Wed May 24 09:27:06 PDT 2017 ON: 20.00 +20.0 19.62 - 3.1 34.7 0A 14 471B 090D Alarm State:  0
Wed May 24 09:26:04 PDT 2017 ON: 20.00 +20.0 19.67 - 4.4 33.7 00 14 4715 092F Alarm State:  0
Wed May 24 09:25:03 PDT 2017 ON: 20.01 +20.0 19.63 - 3.1 34.3 00 14 4815 0919 Alarm State:  0
Wed May 24 09:24:01 PDT 2017 ON: 19.99 +20.0 19.66 - 3.7 34.5 0A 14 4817 090C Alarm State:  0
Wed May 24 09:23:00 PDT 2017 ON: 20.01 +20.0 19.68 - 3.9 34.2 0D 14 481E 091F Alarm State:  0
Wed May 24 09:21:58 PDT 2017 ON: 20.01 +20.0 19.70 - 4.5 34.0 0D 13 480A 091A Alarm State:  0
Wed May 24 09:20:57 PDT 2017 ON: 20.01 +20.0 19.66 - 4.2 33.9 00 14 4722 0920 Alarm State:  0
Wed May 24 09:19:55 PDT 2017 ON: 19.97 +20.0 19.63 - 2.9 34.8 05 14 4730 092B Alarm State:  0
Wed May 24 09:18:54 PDT 2017 ON: 19.99 +20.0 19.62 - 2.9 34.8 05 14 4812 092A Alarm State:  0
Wed May 24 09:17:52 PDT 2017 ON: 19.99 +20.0 19.65 - 3.7 34.7 02 14 480E 091B Alarm State:  0
Wed May 24 09:16:51 PDT 2017 ON: 20.02 +20.0 19.66 - 3.5 34.6 0A 14 4807 0913 Alarm State:  0
Wed May 24 09:15:49 PDT 2017 ON: 20.03 +20.0 19.68 - 4.2 34.3 05 14 4718 0922 Alarm State:  0
Wed May 24 09:14:48 PDT 2017 ON: 20.01 +20.0 19.69 - 4.4 34.1 0D 14 4721 0916 Alarm State:  0
Wed May 24 09:13:46 PDT 2017 ON: 20.01 +20.0 19.61 - 2.5 34.8 0C 14 4808 0922 Alarm State:  0
Wed May 24 09:12:45 PDT 2017 ON: 20.01 +20.0 19.67 - 3.8 34.4 07 14 471C 0901 Alarm State:  0
Wed May 24 09:11:43 PDT 2017 ON: 20.01 +20.0 19.67 - 4.0 34.0 00 14 4718 091F Alarm State:  0
Wed May 24 09:10:42 PDT 2017 ON: 20.01 +20.0 19.69 - 4.4 33.8 08 14 4802 091E Alarm State:  0
Wed May 24 09:09:40 PDT 2017 ON: 20.02 +20.0 19.66 - 3.2 34.3 00 14 4818 0922 Alarm State:  0
Wed May 24 09:08:39 PDT 2017 ON: 19.98 +20.0 19.62 - 2.6 34.6 02 14 4819 0914 Alarm State:  0
Wed May 24 09:07:37 PDT 2017 ON: 20.01 +20.0 19.65 - 3.7 34.1 02 14 472A 0923 Alarm State:  0
Wed May 24 09:06:35 PDT 2017 ON: 20.01 +20.0 19.64 - 3.8 34.0 00 14 4723 0913 Alarm State:  0
Wed May 24 09:05:34 PDT 2017 ON: 20.01 +20.0 19.67 - 4.0 33.8 07 14 4727 092B Alarm State:  0
Wed May 24 09:04:33 PDT 2017 ON: 20.03 +20.0 19.69 - 4.6 33.7 0D 14 4805 0908 Alarm State:  0
Wed May 24 09:03:31 PDT 2017 ON: 20.01 +20.0 19.64 - 3.4 34.7 02 14 472C 092C Alarm State:  0
Wed May 24 09:02:30 PDT 2017 ON: 20.01 +20.0 19.67 - 4.1 34.3 0C 14 4731 0924 Alarm State:  0
Wed May 24 09:01:28 PDT 2017 ON: 20.03 +20.0 19.70 - 5.1 33.6 0D 13 4719 0929 Alarm State:  0
Wed May 24 09:00:27 PDT 2017 ON: 19.98 +20.0 19.58 - 2.4 34.9 09 14 4811 091C Alarm State:  0
Wed May 24 08:59:25 PDT 2017 ON: 20.00 +20.0 19.66 - 4.3 34.0 00 14 4809 090D Alarm State:  0
Wed May 24 08:58:24 PDT 2017 ON: 20.03 +20.0 19.64 - 3.1 34.3 05 14 4818 091E Alarm State:  0
Wed May 24 08:57:22 PDT 2017 ON: 20.00 +20.0 19.64 - 3.2 34.7 05 14 4802 0927 Alarm State:  0
Wed May 24 08:56:21 PDT 2017 ON: 20.03 +20.0 19.63 - 2.7 34.6 05 14 4807 091F Alarm State:  0
Wed May 24 08:55:19 PDT 2017 ON: 20.01 +20.0 19.67 - 4.1 34.3 05 14 471E 0903 Alarm State:  0
Wed May 24 08:54:18 PDT 2017 ON: 20.04 +20.0 19.72 - 5.4 33.2 0D 12 4713 0920 Alarm State:  0
Wed May 24 08:53:16 PDT 2017 ON: 19.99 +20.0 19.63 - 3.2 34.8 0A 14 4731 091D Alarm State:  0
Wed May 24 08:52:15 PDT 2017 ON: 20.03 +20.0 19.70 - 4.2 34.2 0D 13 4801 0924 Alarm State:  0
Wed May 24 08:51:13 PDT 2017 ON: 20.01 +20.0 19.63 - 3.2 34.8 00 14 4724 091B Alarm State:  0
Wed May 24 08:50:12 PDT 2017 ON: 20.02 +20.0 19.69 - 4.3 34.4 0D 14 4713 0919 Alarm State:  0
Wed May 24 08:49:10 PDT 2017 ON: 20.01 +20.0 19.67 - 4.2 34.4 05 14 471D 0914 Alarm State:  0
Wed May 24 08:48:09 PDT 2017 ON: 20.02 +20.0 19.70 - 4.8 33.9 0D 13 471E 0929 Alarm State:  0
Wed May 24 08:47:07 PDT 2017 ON: 19.98 +20.0 19.58 - 2.3 34.7 01 14 4819 091D Alarm State:  0
Wed May 24 08:46:06 PDT 2017 ON: 20.02 +20.0 19.66 - 4.3 33.8 07 14 4818 0917 Alarm State:  0
Wed May 24 08:45:04 PDT 2017 ON: 20.02 +20.0 19.65 - 3.4 34.2 00 14 4903 0913 Alarm State:  0
Wed May 24 08:44:03 PDT 2017 ON: 20.04 +20.0 19.68 - 3.9 34.3 0D 14 4803 0925 Alarm State:  0
Wed May 24 08:43:01 PDT 2017 ON: 19.98 +20.0 19.62 - 3.4 34.6 00 14 472C 091C Alarm State:  0
Wed May 24 08:42:00 PDT 2017 ON: 20.01 +20.0 19.68 - 4.5 34.0 07 14 471B 091A Alarm State:  0
Wed May 24 08:40:58 PDT 2017 ON: 20.00 +20.0 19.70 - 4.8 33.5 0A 13 4729 0928 Alarm State:  0
Wed May 24 08:39:57 PDT 2017 ON: 20.01 +20.0 19.68 - 4.4 33.8 0A 14 4807 090C Alarm State:  0
Wed May 24 08:38:55 PDT 2017 ON: 20.02 +20.0 19.71 - 5.1 33.6 0A 13 472C 0907 Alarm State:  0
Wed May 24 08:37:54 PDT 2017 ON: 20.00 +20.0 19.62 - 3.2 34.4 00 14 4731 091A Alarm State:  0
Wed May 24 08:36:52 PDT 2017 ON: 19.99 +20.0 19.64 - 3.1 34.7 07 14 4729 0917 Alarm State:  0
Wed May 24 08:35:51 PDT 2017 ON: 20.00 +20.0 19.67 - 4.5 34.0 00 14 4714 0917 Alarm State:  0
Wed May 24 08:34:49 PDT 2017 ON: 20.00 +20.0 19.63 - 3.8 34.1 00 14 4726 0906 Alarm State:  0
Wed May 24 08:33:48 PDT 2017 ON: 19.99 +20.0 19.65 - 4.2 34.2 05 14 471B 092B Alarm State:  0
Wed May 24 08:32:46 PDT 2017 ON: 19.98 +20.0 19.68 - 4.7 33.9 05 14 4727 0910 Alarm State:  0
Wed May 24 08:31:45 PDT 2017 ON: 20.00 +20.0 19.71 - 5.1 33.7 0A 13 472A 0927 Alarm State:  0
Wed May 24 08:30:43 PDT 2017 ON: 19.96 +20.0 19.59 - 2.6 34.9 0D 14 4813 0930 Alarm State:  0
Wed May 24 08:29:42 PDT 2017 ON: 20.00 +20.0 19.67 - 3.8 34.4 02 14 472F 0928 Alarm State:  0
Wed May 24 08:28:40 PDT 2017 ON: 19.98 +20.0 19.66 - 4.0 34.5 02 14 470F 0908 Alarm State:  0
Wed May 24 08:27:39 PDT 2017 ON: 20.00 +20.0 19.70 - 5.1 33.6 0A 14 462F 0A06 Alarm State:  0
Wed May 24 08:26:37 PDT 2017 ON: 20.00 +20.0 19.62 - 3.2 34.8 0A 14 4729 0923 Alarm State:  0
Wed May 24 08:25:36 PDT 2017 ON: 20.01 +20.0 19.70 - 4.8 33.8 0A 13 4721 0910 Alarm State:  0
Wed May 24 08:24:34 PDT 2017 ON: 19.99 +20.0 19.59 - 2.4 34.7 00 14 4724 0929 Alarm State:  0
Wed May 24 08:23:33 PDT 2017 ON: 20.00 +20.0 19.68 - 4.6 33.9 00 14 462B 090F Alarm State:  0
Wed May 24 08:22:31 PDT 2017 ON: 20.02 +20.0 19.61 - 3.0 34.3 00 14 4719 090E Alarm State:  0
Wed May 24 08:21:30 PDT 2017 ON: 19.98 +20.0 19.65 - 4.1 34.0 00 14 470F 0A0D Alarm State:  0
Wed May 24 08:20:28 PDT 2017 ON: 20.03 +20.0 19.68 - 4.2 34.1 0D 14 4803 0911 Alarm State:  0
Wed May 24 08:19:27 PDT 2017 ON: 20.00 +20.0 19.68 - 4.6 33.7 00 14 4726 090E Alarm State:  0
Wed May 24 08:18:25 PDT 2017 ON: 20.02 +20.0 19.68 - 4.5 33.6 00 14 471B 0910 Alarm State:  0
Wed May 24 08:17:24 PDT 2017 ON: 19.97 +20.0 19.65 - 3.9 34.1 05 14 4727 0926 Alarm State:  0
Wed May 24 08:16:22 PDT 2017 ON: 20.02 +20.0 19.70 - 4.6 34.0 0D 13 4801 0900 Alarm State:  0
Wed May 24 08:15:21 PDT 2017 ON: 20.01 +20.0 19.64 - 3.5 34.1 00 14 471E 0905 Alarm State:  0
Wed May 24 08:14:19 PDT 2017 ON: 19.97 +20.0 19.65 - 3.9 34.1 00 14 4713 092B Alarm State:  0
Wed May 24 08:13:18 PDT 2017 ON: 20.02 +20.0 19.68 - 4.4 33.9 0D 14 4802 0925 Alarm State:  0
Wed May 24 08:12:16 PDT 2017 ON: 20.00 +20.0 19.61 - 2.7 34.6 0A 14 4811 0911 Alarm State:  0
Wed May 24 08:11:15 PDT 2017 ON: 20.03 +20.0 19.68 - 4.3 34.0 07 14 471A 091E Alarm State:  0
Wed May 24 08:10:13 PDT 2017 ON: 20.04 +20.0 19.70 - 5.1 33.6 0D 13 470B 0916 Alarm State:  0
Wed May 24 08:09:12 PDT 2017 ON: 20.01 +20.0 19.63 - 3.2 34.3 00 14 470F 0A03 Alarm State:  0
Wed May 24 08:08:10 PDT 2017 ON: 19.96 +20.0 19.62 - 4.2 34.1 05 14 4717 0A19 Alarm State:  0
Wed May 24 08:07:09 PDT 2017 ON: 19.99 +20.0 19.60 - 2.4 34.5 02 14 481B 091A Alarm State:  0
Wed May 24 08:06:07 PDT 2017 ON: 19.99 +20.0 19.65 - 4.0 34.1 07 14 4732 0923 Alarm State:  0
Wed May 24 08:05:06 PDT 2017 ON: 20.01 +20.0 19.68 - 4.5 33.8 0A 14 4800 090F Alarm State:  0
Wed May 24 08:04:04 PDT 2017 ON: 20.05 +20.0 19.69 - 5.2 33.4 0A 14 470B 0920 Alarm State:  0
Wed May 24 08:03:03 PDT 2017 ON: 20.00 +20.0 19.65 - 3.9 34.6 02 14 4710 090C Alarm State:  0
Wed May 24 08:02:01 PDT 2017 ON: 20.02 +20.0 19.69 - 4.7 33.8 0D 14 4716 0922 Alarm State:  0
Wed May 24 08:01:00 PDT 2017 ON: 20.00 +20.0 19.60 - 2.3 34.7 00 14 480A 090B Alarm State:  0
Wed May 24 07:59:58 PDT 2017 ON: 20.01 +20.0 19.64 - 3.8 34.4 05 14 472A 0919 Alarm State:  0
Wed May 24 07:58:57 PDT 2017 ON: 20.02 +20.0 19.66 - 3.9 34.4 07 14 4724 0912 Alarm State:  0
Wed May 24 07:57:55 PDT 2017 ON: 20.04 +20.0 19.70 - 5.0 33.7 0D 13 471B 0902 Alarm State:  0
Wed May 24 07:56:54 PDT 2017 ON: 20.03 +20.0 19.65 - 3.8 34.1 00 14 4715 0A01 Alarm State:  0
Wed May 24 07:55:52 PDT 2017 ON: 20.00 +20.0 19.65 - 4.1 33.9 07 14 470E 0A16 Alarm State:  0
Wed May 24 07:54:51 PDT 2017 ON: 20.01 +20.0 19.65 - 3.6 34.1 00 14 480F 0928 Alarm State:  0
Wed May 24 07:53:49 PDT 2017 ON: 20.04 +20.0 19.69 - 5.0 33.4 05 14 4729 0903 Alarm State:  0
Wed May 24 07:52:48 PDT 2017 ON: 19.97 +20.0 19.63 - 3.4 34.7 02 14 472D 091B Alarm State:  0
Wed May 24 07:51:46 PDT 2017 ON: 20.00 +20.0 19.70 - 4.7 33.9 08 13 4720 0911 Alarm State:  0
Wed May 24 07:50:45 PDT 2017 ON: 19.99 +20.0 19.61 - 2.6 34.7 07 14 480D 090F Alarm State:  0
Wed May 24 07:49:43 PDT 2017 ON: 19.98 +20.0 19.68 - 4.4 33.8 00 14 472D 0A0B Alarm State:  0
Wed May 24 07:48:42 PDT 2017 ON: 20.00 +20.0 19.60 - 2.4 34.6 00 14 482E 091B Alarm State:  0
Wed May 24 07:47:40 PDT 2017 ON: 20.01 +20.0 19.66 - 4.0 34.1 00 14 4801 0906 Alarm State:  0
Wed May 24 07:46:39 PDT 2017 ON: 19.99 +20.0 19.63 - 3.2 34.5 0A 14 471E 0905 Alarm State:  0
Wed May 24 07:45:37 PDT 2017 ON: 19.98 +20.0 19.60 - 3.1 34.6 07 14 4711 0928 Alarm State:  0
Wed May 24 07:44:36 PDT 2017 ON: 19.98 +20.0 19.65 - 4.0 34.5 07 14 4711 091D Alarm State:  0
Wed May 24 07:43:34 PDT 2017 ON: 20.00 +20.0 19.69 - 4.8 33.6 0D 14 470E 0A0B Alarm State:  0
Wed May 24 07:42:33 PDT 2017 ON: 20.02 +20.0 19.67 - 3.8 34.0 00 14 4805 0900 Alarm State:  0
Wed May 24 07:41:31 PDT 2017 ON: 19.99 +20.0 19.61 - 2.8 34.4 02 14 481A 0911 Alarm State:  0
Wed May 24 07:40:30 PDT 2017 ON: 20.01 +20.0 19.68 - 4.4 34.0 00 14 4720 0920 Alarm State:  0
Wed May 24 07:39:28 PDT 2017 ON: 20.01 +20.0 19.71 - 5.2 33.6 0D 13 4717 091E Alarm State:  0
Wed May 24 07:38:27 PDT 2017 ON: 20.01 +20.0 19.62 - 3.0 34.6 0A 14 4723 0903 Alarm State:  0
Wed May 24 07:37:25 PDT 2017 ON: 19.99 +20.0 19.66 - 4.6 33.7 00 14 4712 092C Alarm State:  0
Wed May 24 07:36:24 PDT 2017 ON: 20.02 +20.0 19.69 - 4.4 33.6 0A 14 4807 091A Alarm State:  0
Wed May 24 07:35:22 PDT 2017 ON: 19.99 +20.0 19.68 - 4.4 33.9 0D 14 481A 090A Alarm State:  0
Wed May 24 07:34:21 PDT 2017 ON: 20.02 +20.0 19.69 - 4.8 33.8 0D 14 4812 0928 Alarm State:  0
Wed May 24 07:33:19 PDT 2017 ON: 20.02 +20.0 19.69 - 4.7 33.7 05 14 4722 0909 Alarm State:  0
Wed May 24 07:32:18 PDT 2017 ON: 20.02 +20.0 19.71 - 4.9 33.8 08 13 4710 0908 Alarm State:  0
Wed May 24 07:31:16 PDT 2017 ON: 19.98 +20.0 19.66 - 4.2 34.2 0C 14 4717 092E Alarm State:  0
Wed May 24 07:30:15 PDT 2017 ON: 20.03 +20.0 19.69 - 4.9 33.8 0D 14 471B 0915 Alarm State:  0
Wed May 24 07:29:13 PDT 2017 ON: 19.98 +20.0 19.59 - 3.0 34.6 04 14 4726 092B Alarm State:  0
Wed May 24 07:28:12 PDT 2017 ON: 19.99 +20.0 19.68 - 4.6 33.7 02 14 4718 0928 Alarm State:  0
Wed May 24 07:27:10 PDT 2017 ON: 20.02 +20.0 19.66 - 4.0 33.9 02 14 480E 091B Alarm State:  0
Wed May 24 07:26:09 PDT 2017 ON: 20.02 +20.0 19.67 - 4.5 33.9 00 14 480E 0916 Alarm State:  0
Wed May 24 07:25:07 PDT 2017 ON: 20.00 +20.0 19.69 - 4.5 33.8 0A 14 4722 0924 Alarm State:  0
Wed May 24 07:24:06 PDT 2017 ON: 20.02 +20.0 19.69 - 4.4 33.7 08 14 472A 0919 Alarm State:  0
Wed May 24 07:23:04 PDT 2017 ON: 20.02 +20.0 19.67 - 3.7 34.6 05 14 471D 0911 Alarm State:  0
Wed May 24 07:22:03 PDT 2017 ON: 20.03 +20.0 19.68 - 4.6 33.9 07 14 470F 0912 Alarm State:  0
Wed May 24 07:21:01 PDT 2017 ON: 20.00 +20.0 19.69 - 4.6 33.7 0D 14 4714 0906 Alarm State:  0
Wed May 24 07:20:00 PDT 2017 ON: 20.03 +20.0 19.71 - 4.9 33.5 05 13 470A 0A03 Alarm State:  0
Wed May 24 07:18:58 PDT 2017 ON: 19.96 +20.0 19.62 - 3.9 33.9 00 14 4711 0A04 Alarm State:  0
Wed May 24 07:17:57 PDT 2017 ON: 20.01 +20.0 19.66 - 3.6 34.1 00 14 4810 0910 Alarm State:  0
Wed May 24 07:16:55 PDT 2017 ON: 20.00 +20.0 19.62 - 2.9 34.5 00 14 4803 090A Alarm State:  0
Wed May 24 07:15:54 PDT 2017 ON: 20.00 +20.0 19.65 - 4.1 34.3 07 14 4716 0919 Alarm State:  0
Wed May 24 07:14:52 PDT 2017 ON: 20.01 +20.0 19.72 - 5.7 33.3 0D 12 4711 0911 Alarm State:  0
Wed May 24 07:13:51 PDT 2017 ON: 19.99 +20.0 19.61 - 3.4 34.7 05 14 4723 091D Alarm State:  0
Wed May 24 07:12:49 PDT 2017 ON: 20.01 +20.0 19.70 - 4.8 33.9 0D 13 471A 090D Alarm State:  0
Wed May 24 07:11:48 PDT 2017 ON: 20.01 +20.0 19.63 - 3.0 34.4 07 14 4726 091D Alarm State:  0
Wed May 24 07:10:46 PDT 2017 ON: 19.98 +20.0 19.65 - 4.2 34.1 05 14 4713 091F Alarm State:  0
Wed May 24 07:09:45 PDT 2017 ON: 20.01 +20.0 19.70 - 5.0 33.7 0D 13 471D 090A Alarm State:  0
Wed May 24 07:08:43 PDT 2017 ON: 19.97 +20.0 19.58 - 2.8 34.5 00 14 472C 0915 Alarm State:  0
Wed May 24 07:07:42 PDT 2017 ON: 19.98 +20.0 19.67 - 4.4 33.5 00 14 472A 0A0A Alarm State:  0
Wed May 24 07:06:40 PDT 2017 ON: 20.04 +20.0 19.68 - 4.4 33.8 0A 14 4810 0906 Alarm State:  0
Wed May 24 07:05:39 PDT 2017 ON: 20.01 +20.0 19.66 - 4.0 34.4 05 14 4808 0928 Alarm State:  0
Wed May 24 07:04:37 PDT 2017 ON: 20.02 +20.0 19.70 - 5.2 33.8 0D 13 4732 0918 Alarm State:  0
Wed May 24 07:03:36 PDT 2017 ON: 19.99 +20.0 19.65 - 3.5 34.7 0A 14 4803 0909 Alarm State:  0
Wed May 24 07:02:34 PDT 2017 ON: 20.01 +20.0 19.68 - 5.0 33.6 00 14 4729 0901 Alarm State:  0
Wed May 24 07:01:33 PDT 2017 ON: 19.99 +20.0 19.60 - 2.6 34.6 00 14 480A 0905 Alarm State:  0
Wed May 24 07:00:31 PDT 2017 ON: 20.01 +20.0 19.61 - 3.1 34.4 05 14 472A 0905 Alarm State:  0
Wed May 24 06:59:30 PDT 2017 ON: 19.98 +20.0 19.65 - 4.3 34.5 02 14 470A 090C Alarm State:  0
Wed May 24 06:58:28 PDT 2017 ON: 20.02 +20.0 19.69 - 4.7 33.9 0D 14 470D 0927 Alarm State:  0
Wed May 24 06:57:27 PDT 2017 ON: 20.01 +20.0 19.61 - 3.1 34.3 00 14 4804 0913 Alarm State:  0
Wed May 24 06:56:25 PDT 2017 ON: 20.00 +20.0 19.64 - 3.6 34.2 02 14 4823 0912 Alarm State:  0
Wed May 24 06:55:14 PDT 2017 ON: 20.01 +20.0 19.70 - 5.1 33.7 0D 13 472E 0900 Alarm State:  0
Wed May 24 06:54:12 PDT 2017 ON: 19.98 +20.0 19.63 - 3.2 34.7 02 14 480E 090D Alarm State:  0
Wed May 24 06:53:11 PDT 2017 ON: 20.01 +20.0 19.67 - 4.4 34.0 00 14 472B 0908 Alarm State:  0
Wed May 24 06:52:09 PDT 2017 ON: 19.98 +20.0 19.66 - 3.7 34.6 0A 14 4730 0921 Alarm State:  0
Wed May 24 06:51:08 PDT 2017 ON: 20.00 +20.0 19.67 - 4.6 34.0 00 14 471A 091E Alarm State:  0
Wed May 24 06:50:06 PDT 2017 ON: 20.04 +20.0 19.69 - 5.2 33.5 0D 14 471F 0914 Alarm State:  0
Wed May 24 06:49:05 PDT 2017 ON: 20.01 +20.0 19.61 - 2.9 34.6 0A 14 4800 091A Alarm State:  0
Wed May 24 06:48:03 PDT 2017 ON: 19.99 +20.0 19.67 - 4.4 34.0 05 14 4722 0918 Alarm State:  0
Wed May 24 06:47:02 PDT 2017 ON: 19.99 +20.0 19.59 - 2.6 34.5 00 14 4817 0908 Alarm State:  0
Wed May 24 06:46:00 PDT 2017 ON: 20.02 +20.0 19.66 - 4.3 33.9 00 14 4717 0918 Alarm State:  0
Wed May 24 06:44:59 PDT 2017 ON: 20.01 +20.0 19.69 - 4.3 33.8 03 14 471D 091B Alarm State:  0
Wed May 24 06:43:57 PDT 2017 ON: 20.03 +20.0 19.69 - 4.4 33.8 0A 14 471C 0911 Alarm State:  0
Wed May 24 06:42:56 PDT 2017 ON: 19.98 +20.0 19.64 - 3.8 34.6 02 14 470C 090A Alarm State:  0
Wed May 24 06:41:54 PDT 2017 ON: 20.00 +20.0 19.69 - 4.6 34.2 0D 14 4709 0904 Alarm State:  0
Wed May 24 06:40:53 PDT 2017 ON: 20.01 +20.0 19.71 - 5.5 33.4 0D 13 462E 0A05 Alarm State:  0
Wed May 24 06:39:51 PDT 2017 ON: 19.97 +20.0 19.63 - 3.5 34.5 00 14 472A 0926 Alarm State:  0
Wed May 24 06:38:50 PDT 2017 ON: 20.01 +20.0 19.69 - 4.7 33.8 0D 14 480B 0926 Alarm State:  0
Wed May 24 06:37:48 PDT 2017 ON: 19.99 +20.0 19.61 - 2.7 34.6 00 14 4816 090E Alarm State:  0
Wed May 24 06:36:47 PDT 2017 ON: 20.00 +20.0 19.68 - 4.6 33.8 00 14 4723 091D Alarm State:  0
Wed May 24 06:35:45 PDT 2017 ON: 20.04 +20.0 19.72 - 5.0 33.7 08 12 4726 090D Alarm State:  0
Wed May 24 06:34:44 PDT 2017 ON: 19.99 +20.0 19.59 - 2.7 34.7 07 14 4731 0920 Alarm State:  0
Wed May 24 06:33:43 PDT 2017 ON: 20.02 +20.0 19.69 - 4.6 33.7 0D 14 4719 0921 Alarm State:  0
Wed May 24 06:32:41 PDT 2017 ON: 20.02 +20.0 19.70 - 5.0 33.7 0A 13 4720 090D Alarm State:  0
Wed May 24 06:31:39 PDT 2017 ON: 19.97 +20.0 19.65 - 3.7 34.6 02 14 472C 0923 Alarm State:  0
Wed May 24 06:30:38 PDT 2017 ON: 20.02 +20.0 19.67 - 4.7 33.8 02 14 4732 0910 Alarm State:  0
Wed May 24 06:29:36 PDT 2017 ON: 19.98 +20.0 19.60 - 2.9 34.7 00 14 4808 0928 Alarm State:  0
Wed May 24 06:28:35 PDT 2017 ON: 19.98 +20.0 19.68 - 4.5 33.9 00 14 4729 0929 Alarm State:  0
Wed May 24 06:27:33 PDT 2017 ON: 20.02 +20.0 19.64 - 3.2 34.3 00 14 4815 0927 Alarm State:  0